Darstellungsparameter: Aktuell verwendete Einstellungen:
Skalierung der Graphiken ... ?
xyx+y,   Skalierungsfaktor:      Skalierung: Modus: x, Faktor: 1
Darstellungszeitraum ... ?
Vom - - bis: - -   Zeitraum: 25.09.2010 - 24.10.2010
Min/Max/Avg-Anzeige ... ?
Zeige MMA aktuell
Zeige MMA Monat
Zeige MMA alles
Zeige --A aktuell
Zeige --A Monat
Zeige --A alles
Keine MMA-Anzeige
MMA:
Average (ber die Originaldaten)
MMA-Basis: 25.09.2010 - 24.10.2010
Quicknavigation für Darstellung... ?
Tage:      1T, 2T, 3T, 5T -1T -2T -3T -5T +1T +2T +3T +5T
Wochen: 1W, 2W, 3W -1W -2W -3W +1W +2W +3W
Monate: 1M, 3M, 6M -1M -3M -6M +1M +3M +6M
Jahre:    1J, 3J, 5J, 10J -1J -3J -5J -10J +1J +3J +5J +10J
Nutze für die Darstellung ... ?
Originaldaten oder Mittelwerte auf ...
Stundenbasis Tagesbasis Wochenbasis
Monatsbasis Jahresbasis      Datenbasis: Original-Daten
Darstellen als:
Statistik (Auto) Statistik J:M      Darstellung:
Zur Graphik,    zurück zur Übersicht aller Sensoren.
 
Tabellarische Datenbersicht: ?
 
Sensor: Nr:Datum:Temp:Abs-Feuchte:Windchill:Wind:
Aussen-T/F 1 25-09-2010 00:10:04 12.4 C 10.38 g/m*3 12.4 C 0 km/h
2 25-09-2010 00:22:04 12.5 C 10.44 g/m*3 12.5 C 0 km/h
3 25-09-2010 00:34:04 12.5 C 10.44 g/m*3 12.5 C 0 km/h
4 25-09-2010 00:46:04 12.5 C 10.44 g/m*3 12.5 C 0 km/h
5 25-09-2010 00:58:05 12.5 C 10.44 g/m*3 12.5 C 0 km/h
6 25-09-2010 01:10:05 12.5 C 10.44 g/m*3 12.5 C 0 km/h
7 25-09-2010 01:22:05 12.5 C 10.44 g/m*3 12.5 C 0 km/h
8 25-09-2010 01:34:05 12.5 C 10.44 g/m*3 12.5 C 0 km/h
9 25-09-2010 01:46:05 12.5 C 10.44 g/m*3 12.5 C 0 km/h
10 25-09-2010 01:58:05 12.6 C 10.51 g/m*3 12.6 C 0 km/h
11 25-09-2010 02:10:05 12.6 C 10.51 g/m*3 12.6 C 0 km/h
12 25-09-2010 02:22:05 12.6 C 10.51 g/m*3 12.6 C 0 km/h
13 25-09-2010 02:34:05 12.6 C 10.51 g/m*3 12.6 C 0 km/h
14 25-09-2010 02:46:05 12.6 C 10.51 g/m*3 12.6 C 0 km/h
15 25-09-2010 02:58:05 12.6 C 10.51 g/m*3 12.6 C 0 km/h
16 25-09-2010 03:10:05 12.7 C 10.58 g/m*3 12.7 C 0 km/h
17 25-09-2010 03:22:05 12.6 C 10.51 g/m*3 12.6 C 0 km/h
18 25-09-2010 03:34:05 12.6 C 10.51 g/m*3 12.6 C 0 km/h
19 25-09-2010 03:46:05 12.6 C 10.51 g/m*3 12.6 C 0 km/h
20 25-09-2010 03:58:05 12.6 C 10.51 g/m*3 12.6 C 0 km/h
21 25-09-2010 04:10:05 12.6 C 10.51 g/m*3 12.6 C 0 km/h
22 25-09-2010 04:22:05 12.5 C 10.44 g/m*3 12.5 C 0 km/h
23 25-09-2010 04:34:05 12.6 C 10.51 g/m*3 12.6 C 0 km/h
24 25-09-2010 04:46:05 12.5 C 10.44 g/m*3 12.5 C 0 km/h
25 25-09-2010 04:58:06 12.5 C 10.44 g/m*3 12.5 C 0 km/h
Sensor: Nr:Datum:Temp:Abs-Feuchte:Windchill:Wind:
Aussen-T/F 26 25-09-2010 05:10:06 12.5 C 10.44 g/m*3 12.5 C 0 km/h
27 25-09-2010 05:22:06 12.4 C 10.38 g/m*3 12.4 C 0 km/h
28 25-09-2010 05:34:06 12.4 C 10.38 g/m*3 12.4 C 0 km/h
29 25-09-2010 05:46:06 12.3 C 10.32 g/m*3 12.3 C 0 km/h
30 25-09-2010 05:58:06 12.3 C 10.21 g/m*3 12.3 C 0 km/h
31 25-09-2010 06:10:06 12.1 C 10.08 g/m*3 12.1 C 0 km/h
32 25-09-2010 06:22:06 12.1 C 10.08 g/m*3 12.1 C 0 km/h
33 25-09-2010 06:34:06 12.1 C 10.08 g/m*3 12.1 C 0 km/h
34 25-09-2010 06:46:06 12 C 10.02 g/m*3 12 C 0 km/h
35 25-09-2010 06:58:06 12 C 10.02 g/m*3 12 C 0 km/h
36 25-09-2010 07:10:06 12 C 10.02 g/m*3 12 C 0 km/h
37 25-09-2010 07:22:06 11.9 C 9.96 g/m*3 11.9 C 0 km/h
38 25-09-2010 07:34:06 11.9 C 9.96 g/m*3 11.9 C 0 km/h
39 25-09-2010 07:46:02 11.8 C 9.89 g/m*3 11.8 C 0 km/h
40 25-09-2010 07:58:02 11.8 C 9.89 g/m*3 11.8 C 0 km/h
41 25-09-2010 08:10:02 11.7 C 9.83 g/m*3 11.7 C 0 km/h
42 25-09-2010 08:22:02 11.6 C 9.77 g/m*3 11.6 C 0 km/h
43 25-09-2010 08:34:02 11.2 C 9.43 g/m*3 11.2 C 0 km/h
44 25-09-2010 08:46:02 11 C 9.31 g/m*3 11 C 0 km/h
45 25-09-2010 08:58:02 10.8 C 9.19 g/m*3 10.8 C 0 km/h
46 25-09-2010 09:10:01 10.6 C 9.08 g/m*3 10.6 C 0 km/h
47 25-09-2010 09:22:02 10.4 C 8.96 g/m*3 10.4 C 0 km/h
48 25-09-2010 09:34:02 10.5 C 8.92 g/m*3 10.5 C 0 km/h
49 25-09-2010 09:46:02 10.5 C 8.83 g/m*3 10.5 C 0 km/h
50 25-09-2010 09:58:02 10.4 C 8.29 g/m*3 10.4 C 0 km/h
Sensor: Nr:Datum:Temp:Abs-Feuchte:Windchill:Wind:
Aussen-T/F 51 25-09-2010 10:10:03 10.5 C 8.15 g/m*3 10.5 C 0 km/h
52 25-09-2010 10:22:02 10.8 C 8.2 g/m*3 10.8 C 0 km/h
53 25-09-2010 10:34:02 11.1 C 8.36 g/m*3 11.1 C 0 km/h
54 25-09-2010 10:46:01 11.3 C 8.36 g/m*3 11.3 C 0 km/h
55 25-09-2010 10:58:01 11.5 C 8.16 g/m*3 11.5 C 0 km/h
56 25-09-2010 11:10:02 11.6 C 7.8 g/m*3 11.6 C 0 km/h
57 25-09-2010 11:22:01 12.1 C 7.72 g/m*3 12.1 C 0 km/h
58 25-09-2010 11:34:02 12.3 C 7.38 g/m*3 12.3 C 0 km/h
59 25-09-2010 11:46:01 12.5 C 7.26 g/m*3 12.5 C 0 km/h
60 25-09-2010 11:58:01 13 C 7.03 g/m*3 13 C 0 km/h
61 25-09-2010 12:10:02 12.8 C 6.83 g/m*3 12.8 C 0 km/h
62 25-09-2010 12:22:01 12.8 C 7.06 g/m*3 12.8 C 0 km/h
63 25-09-2010 12:34:02 12.4 C 6.88 g/m*3 12.4 C 0 km/h
64 25-09-2010 12:46:02 11.8 C 6.84 g/m*3 11.8 C 0 km/h
65 25-09-2010 12:58:02 12.4 C 6.88 g/m*3 12.4 C 0 km/h
66 25-09-2010 13:10:02 12.7 C 6.68 g/m*3 12.7 C 0 km/h
67 25-09-2010 13:22:01 13 C 6.35 g/m*3 13 C 0 km/h
68 25-09-2010 13:34:02 13.8 C 6.43 g/m*3 13.8 C 0 km/h
69 25-09-2010 13:46:01 13.5 C 5.38 g/m*3 13.5 C 0 km/h
70 25-09-2010 13:58:01 13.3 C 5.31 g/m*3 13.3 C 0 km/h
71 25-09-2010 14:10:02 13.7 C 5.45 g/m*3 13.7 C 0 km/h
72 25-09-2010 14:22:01 13.5 C 5.5 g/m*3 13.5 C 0 km/h
73 25-09-2010 14:34:02 13.8 C 5.36 g/m*3 13.8 C 0 km/h
74 25-09-2010 14:46:01 14.4 C 5.32 g/m*3 14.4 C 0 km/h
75 25-09-2010 14:58:01 15.8 C 5.12 g/m*3 15.8 C 0 km/h
Sensor: Nr:Datum:Temp:Abs-Feuchte:Windchill:Wind:
Aussen-T/F 76 25-09-2010 15:10:02 14.8 C 4.43 g/m*3 14.8 C 0 km/h
77 25-09-2010 15:22:02 14.5 C 4.6 g/m*3 14.5 C 0 km/h
78 25-09-2010 15:34:01 15.7 C 4.68 g/m*3 15.7 C 0 km/h
79 25-09-2010 15:46:02 15.5 C 4.63 g/m*3 15.5 C 0 km/h
80 25-09-2010 15:58:02 14.7 C 5.04 g/m*3 14.7 C 0 km/h
81 25-09-2010 16:10:01 14.2 C 4.88 g/m*3 14.2 C 0 km/h
82 25-09-2010 16:22:02 14.4 C 5.07 g/m*3 14.4 C 0 km/h
83 25-09-2010 16:34:01 14.7 C 5.16 g/m*3 14.7 C 0 km/h
84 25-09-2010 16:46:02 15.6 C 4.79 g/m*3 15.6 C 0 km/h
85 25-09-2010 16:58:02 14.7 C 4.91 g/m*3 14.7 C 0 km/h
86 25-09-2010 17:10:02 14.3 C 4.91 g/m*3 14.3 C 0 km/h
87 25-09-2010 17:22:02 14.8 C 5.32 g/m*3 14.8 C 0 km/h
88 25-09-2010 17:34:03 15.6 C 5.19 g/m*3 15.6 C 0 km/h
89 25-09-2010 17:46:02 16.8 C 5.15 g/m*3 16.8 C 0 km/h
90 25-09-2010 17:58:02 16.5 C 4.77 g/m*3 16.5 C 0 km/h
91 25-09-2010 18:10:01 15.4 C 4.47 g/m*3 15.4 C 0 km/h
92 25-09-2010 18:22:01 14.3 C 4.67 g/m*3 14.3 C 0 km/h
93 25-09-2010 18:34:02 13.9 C 4.92 g/m*3 13.9 C 0 km/h
94 25-09-2010 18:46:02 13.8 C 5.36 g/m*3 13.8 C 0 km/h
95 25-09-2010 18:58:02 13.7 C 5.8 g/m*3 13.7 C 0 km/h
96 25-09-2010 19:10:02 13.5 C 5.5 g/m*3 13.5 C 0 km/h
97 25-09-2010 19:22:02 13.1 C 5.59 g/m*3 13.1 C 0 km/h
98 25-09-2010 19:34:02 13 C 5.67 g/m*3 13 C 0 km/h
99 25-09-2010 19:46:02 12.7 C 5.9 g/m*3 12.7 C 0 km/h
100 25-09-2010 19:58:02 12.6 C 6.08 g/m*3 12.6 C 0 km/h
Sensor: Nr:Datum:Temp:Abs-Feuchte:Windchill:Wind:
Aussen-T/F 101 25-09-2010 20:10:02 12.5 C 5.72 g/m*3 12.5 C 0 km/h
102 25-09-2010 20:22:02 12.2 C 5.61 g/m*3 12.2 C 0 km/h
103 25-09-2010 20:34:02 11.8 C 5.79 g/m*3 11.8 C 0 km/h
104 25-09-2010 20:46:02 11.1 C 6.04 g/m*3 11.1 C 0 km/h
105 25-09-2010 20:58:02 10.9 C 6.17 g/m*3 10.9 C 0 km/h
106 25-09-2010 21:10:02 10.4 C 6.17 g/m*3 10.4 C 0 km/h
107 25-09-2010 21:22:03 10.2 C 6.28 g/m*3 10.2 C 0 km/h
108 25-09-2010 21:34:02 10.1 C 6.34 g/m*3 10.1 C 0 km/h
109 25-09-2010 21:46:03 10 C 6.3 g/m*3 10 C 0 km/h
110 25-09-2010 21:58:03 9.9 C 6.44 g/m*3 9.9 C 0 km/h
111 25-09-2010 22:10:02 9.9 C 6.54 g/m*3 9.9 C 0 km/h
112 25-09-2010 22:22:02 10.2 C 6.57 g/m*3 10.2 C 0 km/h
113 25-09-2010 22:34:02 10.5 C 6.69 g/m*3 10.5 C 0 km/h
114 25-09-2010 22:46:02 10.5 C 6.69 g/m*3 10.5 C 0 km/h
115 25-09-2010 22:58:02 10.3 C 6.9 g/m*3 10.3 C 0 km/h
116 25-09-2010 23:10:02 9.6 C 7.15 g/m*3 9.6 C 0 km/h
117 25-09-2010 23:22:02 9.3 C 7.28 g/m*3 9.3 C 0 km/h
118 25-09-2010 23:34:01 9.2 C 7.5 g/m*3 9.2 C 0 km/h
119 25-09-2010 23:46:02 9.1 C 7.45 g/m*3 9.1 C 0 km/h
120 25-09-2010 23:58:02 9.2 C 7.59 g/m*3 9.2 C 0 km/h
121 26-09-2010 00:10:01 9.1 C 7.63 g/m*3 9.1 C 0 km/h
122 26-09-2010 00:22:02 9.5 C 7.92 g/m*3 9.5 C 0 km/h
123 26-09-2010 00:34:02 9.5 C 7.92 g/m*3 9.5 C 0 km/h
124 26-09-2010 00:46:02 9.6 C 7.79 g/m*3 9.6 C 0 km/h
125 26-09-2010 00:58:02 9.5 C 7.55 g/m*3 9.5 C 0 km/h
Sensor: Nr:Datum:Temp:Abs-Feuchte:Windchill:Wind:
Aussen-T/F 126 26-09-2010 01:10:02 9.5 C 7.37 g/m*3 9.5 C 0 km/h
127 26-09-2010 01:22:02 9.5 C 7.28 g/m*3 9.5 C 0 km/h
128 26-09-2010 01:34:02 9.4 C 7.15 g/m*3 9.4 C 0 km/h
129 26-09-2010 01:46:01 9.5 C 7.19 g/m*3 9.5 C 0 km/h
130 26-09-2010 01:58:01 9.5 C 7.19 g/m*3 9.5 C 0 km/h
131 26-09-2010 02:10:02 9.5 C 7.19 g/m*3 9.5 C 0 km/h
132 26-09-2010 02:22:01 9.5 C 7.1 g/m*3 9.5 C 0 km/h
133 26-09-2010 02:34:01 9.3 C 7.01 g/m*3 9.3 C 0 km/h
134 26-09-2010 02:46:01 9.4 C 6.96 g/m*3 9.4 C 0 km/h
135 26-09-2010 02:58:01 9.4 C 6.96 g/m*3 9.4 C 0 km/h
136 26-09-2010 03:10:01 9.3 C 6.92 g/m*3 9.3 C 0 km/h
137 26-09-2010 03:22:01 9.3 C 7.01 g/m*3 9.3 C 0 km/h
138 26-09-2010 03:34:01 9.3 C 7.1 g/m*3 9.3 C 0 km/h
139 26-09-2010 03:46:01 9.1 C 7.1 g/m*3 9.1 C 0 km/h
140 26-09-2010 03:58:01 9 C 7.23 g/m*3 9 C 0 km/h
141 26-09-2010 04:10:01 9 C 7.32 g/m*3 9 C 0 km/h
142 26-09-2010 04:22:01 9 C 7.23 g/m*3 9 C 0 km/h
143 26-09-2010 04:34:02 8.9 C 7.27 g/m*3 8.9 C 0 km/h
144 26-09-2010 04:46:01 8.7 C 7.26 g/m*3 8.7 C 0 km/h
145 26-09-2010 04:58:01 8.8 C 7.31 g/m*3 8.8 C 0 km/h
146 26-09-2010 05:10:02 9 C 7.32 g/m*3 9 C 0 km/h
147 26-09-2010 05:22:01 9.1 C 7.36 g/m*3 9.1 C 0 km/h
148 26-09-2010 05:34:01 9 C 7.32 g/m*3 9 C 0 km/h
149 26-09-2010 05:46:01 9 C 7.32 g/m*3 9 C 0 km/h
150 26-09-2010 05:58:01 9 C 7.32 g/m*3 9 C 0 km/h
Sensor: Nr:Datum:Temp:Abs-Feuchte:Windchill:Wind:
Aussen-T/F 151 26-09-2010 06:10:02 9 C 7.32 g/m*3 9 C 0 km/h
152 26-09-2010 06:22:01 9.1 C 7.36 g/m*3 9.1 C 0 km/h
153 26-09-2010 06:34:01 8.8 C 7.31 g/m*3 8.8 C 0 km/h
154 26-09-2010 06:46:01 8.8 C 7.4 g/m*3 8.8 C 0 km/h
155 26-09-2010 06:58:01 8.8 C 7.49 g/m*3 8.8 C 0 km/h
156 26-09-2010 07:10:01 8.8 C 7.49 g/m*3 8.8 C 0 km/h
157 26-09-2010 07:22:02 8.5 C 7.26 g/m*3 8.5 C 0 km/h
158 26-09-2010 07:34:01 8.6 C 7.39 g/m*3 8.6 C 0 km/h
159 26-09-2010 07:46:02 8.9 C 7.62 g/m*3 8.9 C 0 km/h
160 26-09-2010 07:58:02 9.2 C 7.5 g/m*3 9.2 C 0 km/h
161 26-09-2010 08:10:01 9.5 C 7.55 g/m*3 9.5 C 0 km/h
162 26-09-2010 08:22:02 9.6 C 7.33 g/m*3 9.6 C 0 km/h
163 26-09-2010 08:34:01 9.7 C 7.19 g/m*3 9.7 C 0 km/h
164 26-09-2010 08:46:02 9.7 C 7.19 g/m*3 9.7 C 0 km/h
165 26-09-2010 08:58:02 9.6 C 7.24 g/m*3 9.6 C 0 km/h
166 26-09-2010 09:10:01 9.4 C 7.24 g/m*3 9.4 C 0 km/h
167 26-09-2010 09:22:01 9.4 C 7.33 g/m*3 9.4 C 0 km/h
168 26-09-2010 09:34:02 10.5 C 7.57 g/m*3 10.5 C 0 km/h
169 26-09-2010 09:46:01 11 C 7.11 g/m*3 11 C 0 km/h
170 26-09-2010 09:58:01 11 C 6.61 g/m*3 11 C 0 km/h
171 26-09-2010 10:10:02 11 C 6.61 g/m*3 11 C 0 km/h
172 26-09-2010 10:22:01 11.6 C 6.76 g/m*3 11.6 C 0 km/h
173 26-09-2010 10:34:02 12 C 6.61 g/m*3 12 C 0 km/h
174 26-09-2010 10:46:01 11.9 C 6.78 g/m*3 11.9 C 0 km/h
175 26-09-2010 10:58:01 12.7 C 7.01 g/m*3 12.7 C 0 km/h
Sensor: Nr:Datum:Temp:Abs-Feuchte:Windchill:Wind:
Aussen-T/F 176 26-09-2010 11:10:02 12.9 C 6.42 g/m*3 12.9 C 0 km/h
177 26-09-2010 11:22:01 13.1 C 6.5 g/m*3 13.1 C 0 km/h
178 26-09-2010 11:34:02 13.2 C 6.66 g/m*3 13.2 C 0 km/h
179 26-09-2010 11:46:02 13.5 C 6.32 g/m*3 13.5 C 0 km/h
180 26-09-2010 11:58:02 13.4 C 6.28 g/m*3 13.4 C 0 km/h
181 26-09-2010 12:10:01 14 C 6.39 g/m*3 14 C 0 km/h
182 26-09-2010 12:22:02 14.3 C 6.51 g/m*3 14.3 C 0 km/h
183 26-09-2010 12:34:01 14.6 C 6.51 g/m*3 14.6 C 0 km/h
184 26-09-2010 12:46:01 15 C 6.28 g/m*3 15 C 0 km/h
185 26-09-2010 12:58:01 14.5 C 6.22 g/m*3 14.5 C 0 km/h
186 26-09-2010 13:10:02 14.5 C 6.34 g/m*3 14.5 C 0 km/h
187 26-09-2010 13:22:01 13.2 C 7.12 g/m*3 13.2 C 0 km/h
188 26-09-2010 13:34:01 12.6 C 7.63 g/m*3 12.6 C 0 km/h
189 26-09-2010 13:46:01 12.4 C 8.3 g/m*3 12.4 C 0 km/h
190 26-09-2010 13:58:01 12.3 C 8.25 g/m*3 12.3 C 0 km/h
191 26-09-2010 14:10:01 13.2 C 8.61 g/m*3 13.2 C 0 km/h
192 26-09-2010 14:22:01 13.4 C 8.37 g/m*3 13.4 C 0 km/h
193 26-09-2010 14:34:01 13.3 C 8.43 g/m*3 13.3 C 0 km/h
194 26-09-2010 14:46:01 13.2 C 8.15 g/m*3 13.2 C 0 km/h
195 26-09-2010 14:58:01 13.4 C 7.9 g/m*3 13.4 C 0 km/h
196 26-09-2010 15:10:01 13.6 C 7.89 g/m*3 13.6 C 0 km/h
197 26-09-2010 15:22:02 13.9 C 8.39 g/m*3 13.9 C 0 km/h
198 26-09-2010 15:34:01 14.4 C 8.16 g/m*3 14.4 C 0 km/h
199 26-09-2010 15:46:02 14.5 C 7.96 g/m*3 14.5 C 0 km/h
200 26-09-2010 15:58:02 14.5 C 8.21 g/m*3 14.5 C 0 km/h
Sensor: Nr:Datum:Temp:Abs-Feuchte:Windchill:Wind:
Aussen-T/F 201 26-09-2010 16:10:01 13.7 C 7.7 g/m*3 13.7 C 0 km/h
202 26-09-2010 16:22:02 13.8 C 7.51 g/m*3 13.8 C 0 km/h
203 26-09-2010 16:34:01 15.7 C 7.09 g/m*3 15.7 C 0 km/h
204 26-09-2010 16:46:01 15.5 C 6.21 g/m*3 15.5 C 0 km/h
205 26-09-2010 16:58:01 15.9 C 6.5 g/m*3 15.9 C 0 km/h
206 26-09-2010 17:10:01 16.1 C 6.44 g/m*3 16.1 C 0 km/h
207 26-09-2010 17:22:01 15.6 C 6.38 g/m*3 15.6 C 0 km/h
208 26-09-2010 17:34:02 15.4 C 6.7 g/m*3 15.4 C 0 km/h
209 26-09-2010 17:46:01 14.6 C 6.76 g/m*3 14.6 C 0 km/h
210 26-09-2010 17:58:01 14.2 C 6.72 g/m*3 14.2 C 0 km/h
211 26-09-2010 18:10:02 13.6 C 6.83 g/m*3 13.6 C 0 km/h
212 26-09-2010 18:22:01 13.1 C 6.85 g/m*3 13.1 C 0 km/h
213 26-09-2010 18:34:01 12.9 C 6.99 g/m*3 12.9 C 0 km/h
214 26-09-2010 18:46:01 12.7 C 7.01 g/m*3 12.7 C 0 km/h
215 26-09-2010 18:58:01 12.5 C 7.04 g/m*3 12.5 C 0 km/h
216 26-09-2010 19:10:02 12.4 C 7.1 g/m*3 12.4 C 0 km/h
217 26-09-2010 19:22:01 12.4 C 7.1 g/m*3 12.4 C 0 km/h
218 26-09-2010 19:34:01 12.2 C 7.01 g/m*3 12.2 C 0 km/h
219 26-09-2010 19:46:01 12.1 C 7.18 g/m*3 12.1 C 0 km/h
220 26-09-2010 19:58:01 12.1 C 7.08 g/m*3 12.1 C 0 km/h
221 26-09-2010 20:10:02 12 C 7.25 g/m*3 12 C 0 km/h
222 26-09-2010 20:22:01 11.9 C 7.31 g/m*3 11.9 C 0 km/h
223 26-09-2010 20:34:01 11.7 C 7.22 g/m*3 11.7 C 0 km/h
224 26-09-2010 20:46:01 11.7 C 7.22 g/m*3 11.7 C 0 km/h
225 26-09-2010 20:58:01 11.6 C 7.07 g/m*3 11.6 C 0 km/h
Sensor: Nr:Datum:Temp:Abs-Feuchte:Windchill:Wind:
Aussen-T/F 226 26-09-2010 21:10:01 11.6 C 7.07 g/m*3 11.6 C 0 km/h
227 26-09-2010 21:22:01 11.4 C 7.08 g/m*3 11.4 C 0 km/h
228 26-09-2010 21:34:01 11.2 C 7.1 g/m*3 11.2 C 0 km/h
229 26-09-2010 21:46:01 10.9 C 7.16 g/m*3 10.9 C 0 km/h
230 26-09-2010 21:58:01 10.7 C 7.17 g/m*3 10.7 C 0 km/h
231 26-09-2010 22:10:01 10.3 C 6.99 g/m*3 10.3 C 0 km/h
232 26-09-2010 22:22:01 10 C 7.05 g/m*3 10 C 0 km/h
233 26-09-2010 22:34:01 9.7 C 7.1 g/m*3 9.7 C 0 km/h
234 26-09-2010 22:47:04 9.3 C 7.1 g/m*3 9.3 C 0 km/h
235 26-09-2010 22:59:04 9.2 C 7.05 g/m*3 9.2 C 0 km/h
236 26-09-2010 23:11:04 9 C 7.05 g/m*3 9 C 0 km/h
237 26-09-2010 23:23:04 8.9 C 7.18 g/m*3 8.9 C 0 km/h
238 26-09-2010 23:35:04 8.9 C 7.27 g/m*3 8.9 C 0 km/h
239 26-09-2010 23:47:04 8.8 C 7.22 g/m*3 8.8 C 0 km/h
240 26-09-2010 23:59:04 8.6 C 7.13 g/m*3 8.6 C 0 km/h
241 27-09-2010 00:11:04 8.5 C 7.17 g/m*3 8.5 C 0 km/h
242 27-09-2010 00:23:04 8.2 C 7.03 g/m*3 8.2 C 0 km/h
243 27-09-2010 00:35:04 8.1 C 6.99 g/m*3 8.1 C 0 km/h
244 27-09-2010 00:47:04 7.9 C 6.98 g/m*3 7.9 C 0 km/h
245 27-09-2010 00:59:04 7.9 C 7.15 g/m*3 7.9 C 0 km/h
246 27-09-2010 01:11:04 7.8 C 7.18 g/m*3 7.8 C 0 km/h
247 27-09-2010 01:23:04 7.6 C 7.09 g/m*3 7.6 C 0 km/h
248 27-09-2010 01:35:04 7.5 C 7.04 g/m*3 7.5 C 0 km/h
249 27-09-2010 01:47:04 7.3 C 6.95 g/m*3 7.3 C 0 km/h
250 27-09-2010 01:59:04 7.1 C 6.94 g/m*3 7.1 C 0 km/h
Sensor: Nr:Datum:Temp:Abs-Feuchte:Windchill:Wind:
Aussen-T/F 251 27-09-2010 02:11:04 7 C 6.9 g/m*3 7 C 0 km/h
252 27-09-2010 02:23:04 7 C 6.9 g/m*3 7 C 0 km/h
253 27-09-2010 02:35:05 6.8 C 6.81 g/m*3 6.8 C 0 km/h
254 27-09-2010 02:47:05 6.7 C 6.84 g/m*3 6.7 C 0 km/h
255 27-09-2010 02:59:05 6.7 C 6.84 g/m*3 6.7 C 0 km/h
256 27-09-2010 03:11:05 6.5 C 6.75 g/m*3 6.5 C 0 km/h
257 27-09-2010 03:23:05 6.7 C 6.84 g/m*3 6.7 C 0 km/h
258 27-09-2010 03:35:05 6.4 C 6.71 g/m*3 6.4 C 0 km/h
259 27-09-2010 03:47:05 6.3 C 6.66 g/m*3 6.3 C 0 km/h
260 27-09-2010 03:59:05 6.4 C 6.78 g/m*3 6.4 C 0 km/h
261 27-09-2010 04:11:05 6.5 C 6.9 g/m*3 6.5 C 0 km/h
262 27-09-2010 04:23:05 6.4 C 6.85 g/m*3 6.4 C 0 km/h
263 27-09-2010 04:35:05 6.3 C 6.81 g/m*3 6.3 C 0 km/h
264 27-09-2010 04:47:05 6.1 C 6.72 g/m*3 6.1 C 0 km/h
265 27-09-2010 04:59:05 5.9 C 6.71 g/m*3 5.9 C 0 km/h
266 27-09-2010 05:11:05 5.9 C 6.71 g/m*3 5.9 C 0 km/h
267 27-09-2010 05:23:05 6.1 C 6.72 g/m*3 6.1 C 0 km/h
268 27-09-2010 05:35:05 6.3 C 6.81 g/m*3 6.3 C 0 km/h
269 27-09-2010 05:47:05 6.4 C 6.93 g/m*3 6.4 C 0 km/h
270 27-09-2010 05:59:05 6.5 C 6.97 g/m*3 6.5 C 0 km/h
271 27-09-2010 06:11:05 6.5 C 6.97 g/m*3 6.5 C 0 km/h
272 27-09-2010 06:23:05 6.4 C 6.93 g/m*3 6.4 C 0 km/h
273 27-09-2010 06:35:05 6.2 C 6.84 g/m*3 6.2 C 0 km/h
274 27-09-2010 06:47:06 6.2 C 6.84 g/m*3 6.2 C 0 km/h
275 27-09-2010 06:59:06 6.3 C 6.88 g/m*3 6.3 C 0 km/h
Sensor: Nr:Datum:Temp:Abs-Feuchte:Windchill:Wind:
Aussen-T/F 276 27-09-2010 07:11:04 6.3 C 6.88 g/m*3 6.3 C 0 km/h
277 27-09-2010 07:23:04 6.6 C 7.02 g/m*3 6.6 C 0 km/h
278 27-09-2010 07:35:04 6.7 C 7.14 g/m*3 6.7 C 0 km/h
279 27-09-2010 07:47:02 6.9 C 7.24 g/m*3 6.9 C 0 km/h
280 27-09-2010 07:59:02 7.2 C 7.38 g/m*3 7.2 C 0 km/h
281 27-09-2010 08:11:02 7.5 C 7.52 g/m*3 7.5 C 0 km/h
282 27-09-2010 08:23:02 7.5 C 7.52 g/m*3 7.5 C 0 km/h
283 27-09-2010 08:35:02 7.6 C 7.57 g/m*3 7.6 C 0 km/h
284 27-09-2010 08:47:02 7.8 C 7.67 g/m*3 7.8 C 0 km/h
285 27-09-2010 08:59:02 8.1 C 7.74 g/m*3 8.1 C 0 km/h
286 27-09-2010 09:11:02 8.5 C 7.94 g/m*3 8.5 C 0 km/h
287 27-09-2010 09:23:02 8.8 C 8.09 g/m*3 8.8 C 0 km/h
288 27-09-2010 09:35:02 9.2 C 8.22 g/m*3 9.2 C 0 km/h
289 27-09-2010 09:47:01 9.6 C 8.34 g/m*3 9.6 C 0 km/h
290 27-09-2010 09:59:01 10.1 C 8.42 g/m*3 10.1 C 0 km/h
291 27-09-2010 10:11:02 10.4 C 8.29 g/m*3 10.4 C 0 km/h
292 27-09-2010 10:23:01 10.4 C 7.9 g/m*3 10.4 C 0 km/h
293 27-09-2010 10:35:02 10.8 C 7.51 g/m*3 10.8 C 0 km/h
294 27-09-2010 10:47:01 11 C 7.11 g/m*3 11 C 0 km/h
295 27-09-2010 10:59:01 11.2 C 6.99 g/m*3 11.2 C 0 km/h
296 27-09-2010 11:11:02 11.7 C 7.01 g/m*3 11.7 C 0 km/h
297 27-09-2010 11:23:01 11.8 C 6.74 g/m*3 11.8 C 0 km/h
298 27-09-2010 11:35:02 12.2 C 6.8 g/m*3 12.2 C 0 km/h
299 27-09-2010 11:47:01 12 C 6.61 g/m*3 12 C 0 km/h
300 27-09-2010 11:59:01 12.2 C 6.8 g/m*3 12.2 C 0 km/h
Sensor: Nr:Datum:Temp:Abs-Feuchte:Windchill:Wind:
Aussen-T/F 301 27-09-2010 12:11:02 12.4 C 6.77 g/m*3 12.4 C 0 km/h
302 27-09-2010 12:23:01 12.8 C 6.94 g/m*3 12.8 C 0 km/h
303 27-09-2010 12:35:02 12.8 C 6.83 g/m*3 12.8 C 0 km/h
304 27-09-2010 12:47:01 13 C 6.8 g/m*3 13 C 0 km/h
305 27-09-2010 12:59:01 12.9 C 6.76 g/m*3 12.9 C 0 km/h
306 27-09-2010 13:11:02 13.1 C 6.73 g/m*3 13.1 C 0 km/h
307 27-09-2010 13:23:02 13.4 C 6.97 g/m*3 13.4 C 0 km/h
308 27-09-2010 13:35:01 13.6 C 6.71 g/m*3 13.6 C 0 km/h
309 27-09-2010 13:47:02 13.6 C 6.71 g/m*3 13.6 C 0 km/h
310 27-09-2010 13:59:02 13.7 C 6.51 g/m*3 13.7 C 0 km/h
311 27-09-2010 14:11:01 13.4 C 6.51 g/m*3 13.4 C 0 km/h
312 27-09-2010 14:23:02 13.3 C 6.7 g/m*3 13.3 C 0 km/h
313 27-09-2010 14:35:01 13.4 C 6.74 g/m*3 13.4 C 0 km/h
314 27-09-2010 14:47:03 13.2 C 6.77 g/m*3 13.2 C 0 km/h
315 27-09-2010 14:59:03 13 C 6.58 g/m*3 13 C 0 km/h
316 27-09-2010 15:11:02 13.4 C 6.74 g/m*3 13.4 C 0 km/h
317 27-09-2010 15:23:02 13.6 C 6.59 g/m*3 13.6 C 0 km/h
318 27-09-2010 15:35:02 13.6 C 6.47 g/m*3 13.6 C 0 km/h
319 27-09-2010 15:47:02 13.2 C 6.66 g/m*3 13.2 C 0 km/h
320 27-09-2010 15:59:02 13.2 C 6.77 g/m*3 13.2 C 0 km/h
321 27-09-2010 16:11:01 13.4 C 6.97 g/m*3 13.4 C 0 km/h
322 27-09-2010 16:23:02 13.4 C 7.44 g/m*3 13.4 C 0 km/h
323 27-09-2010 16:35:02 13.4 C 7.44 g/m*3 13.4 C 0 km/h
324 27-09-2010 16:47:01 13.3 C 7.05 g/m*3 13.3 C 0 km/h
325 27-09-2010 16:59:01 13.4 C 7.09 g/m*3 13.4 C 0 km/h
Sensor: Nr:Datum:Temp:Abs-Feuchte:Windchill:Wind:
Aussen-T/F 326 27-09-2010 17:11:01 13.2 C 7.58 g/m*3 13.2 C 0 km/h
327 27-09-2010 17:23:01 13 C 7.6 g/m*3 13 C 0 km/h
328 27-09-2010 17:35:02 12.8 C 7.73 g/m*3 12.8 C 0 km/h
329 27-09-2010 17:47:02 12.8 C 7.84 g/m*3 12.8 C 0 km/h
330 27-09-2010 17:59:02 12.7 C 7.68 g/m*3 12.7 C 0 km/h
331 27-09-2010 18:11:02 12.5 C 7.59 g/m*3 12.5 C 0 km/h
332 27-09-2010 18:23:01 12.3 C 7.71 g/m*3 12.3 C 0 km/h
333 27-09-2010 18:35:02 11.9 C 7.73 g/m*3 11.9 C 0 km/h
334 27-09-2010 18:47:02 11.7 C 7.74 g/m*3 11.7 C 0 km/h
335 27-09-2010 18:59:02 11.3 C 7.85 g/m*3 11.3 C 0 km/h
336 27-09-2010 19:11:02 10.8 C 8.01 g/m*3 10.8 C 0 km/h
337 27-09-2010 19:23:02 10.7 C 8.15 g/m*3 10.7 C 0 km/h
338 27-09-2010 19:35:02 10.5 C 8.15 g/m*3 10.5 C 0 km/h
339 27-09-2010 19:47:02 10.5 C 8.15 g/m*3 10.5 C 0 km/h
340 27-09-2010 19:59:02 10.4 C 8.19 g/m*3 10.4 C 0 km/h
341 27-09-2010 20:11:02 10.3 C 8.24 g/m*3 10.3 C 0 km/h
342 27-09-2010 20:23:02 10.3 C 8.33 g/m*3 10.3 C 0 km/h
343 27-09-2010 20:35:02 10.3 C 8.43 g/m*3 10.3 C 0 km/h
344 27-09-2010 20:47:01 10.3 C 8.43 g/m*3 10.3 C 0 km/h
345 27-09-2010 20:59:01 10.3 C 8.52 g/m*3 10.3 C 0 km/h
346 27-09-2010 21:11:02 10.4 C 8.58 g/m*3 10.4 C 0 km/h
347 27-09-2010 21:23:01 10.2 C 8.47 g/m*3 10.2 C 0 km/h
348 27-09-2010 21:35:02 10.3 C 8.52 g/m*3 10.3 C 0 km/h
349 27-09-2010 21:47:02 10.4 C 8.58 g/m*3 10.4 C 0 km/h
350 27-09-2010 21:59:03 10.4 C 8.58 g/m*3 10.4 C 0 km/h
Sensor: Nr:Datum:Temp:Abs-Feuchte:Windchill:Wind:
Aussen-T/F 351 27-09-2010 22:11:02 10.4 C 8.58 g/m*3 10.4 C 0 km/h
352 27-09-2010 22:24:10 10.4 C 8.67 g/m*3 10.4 C 0 km/h
353 27-09-2010 22:36:10 10.2 C 8.56 g/m*3 10.2 C 0 km/h
354 27-09-2010 22:48:10 10.2 C 8.56 g/m*3 10.2 C 0 km/h
355 27-09-2010 23:00:10 10.2 C 8.56 g/m*3 10.2 C 0 km/h
356 27-09-2010 23:12:10 10.2 C 8.66 g/m*3 10.2 C 0 km/h
357 27-09-2010 23:24:10 10.2 C 8.66 g/m*3 10.2 C 0 km/h
358 27-09-2010 23:36:10 10.1 C 8.61 g/m*3 10.1 C 0 km/h
359 27-09-2010 23:48:10 10.1 C 8.7 g/m*3 10.1 C 0 km/h
360 28-09-2010 00:00:10 10.1 C 8.7 g/m*3 10.1 C 0 km/h
361 28-09-2010 00:12:10 10 C 8.64 g/m*3 10 C 0 km/h
362 28-09-2010 00:24:10 10 C 8.64 g/m*3 10 C 0 km/h
363 28-09-2010 00:36:10 10 C 8.64 g/m*3 10 C 0 km/h
364 28-09-2010 00:48:10 9.9 C 8.78 g/m*3 9.9 C 0 km/h
365 28-09-2010 01:00:10 10 C 8.74 g/m*3 10 C 0 km/h
366 28-09-2010 01:12:11 10 C 8.74 g/m*3 10 C 0 km/h
367 28-09-2010 01:24:11 10 C 8.74 g/m*3 10 C 0 km/h
368 28-09-2010 01:36:11 10 C 8.74 g/m*3 10 C 0 km/h
369 28-09-2010 01:48:11 9.9 C 8.78 g/m*3 9.9 C 0 km/h
370 28-09-2010 02:00:11 9.9 C 8.78 g/m*3 9.9 C 0 km/h
371 28-09-2010 02:12:11 9.9 C 8.78 g/m*3 9.9 C 0 km/h
372 28-09-2010 02:24:11 9.9 C 8.78 g/m*3 9.9 C 0 km/h
373 28-09-2010 02:36:11 9.9 C 8.78 g/m*3 9.9 C 0 km/h
374 28-09-2010 02:48:11 9.9 C 8.78 g/m*3 9.9 C 0 km/h
375 28-09-2010 03:00:11 9.9 C 8.87 g/m*3 9.9 C 0 km/h
Sensor: Nr:Datum:Temp:Abs-Feuchte:Windchill:Wind:
Aussen-T/F 376 28-09-2010 03:12:11 9.9 C 8.87 g/m*3 9.9 C 0 km/h
377 28-09-2010 03:24:11 9.9 C 8.87 g/m*3 9.9 C 0 km/h
378 28-09-2010 03:36:12 9.9 C 8.87 g/m*3 9.9 C 0 km/h
379 28-09-2010 03:48:12 9.9 C 8.87 g/m*3 9.9 C 0 km/h
380 28-09-2010 04:00:12 9.9 C 8.87 g/m*3 9.9 C 0 km/h
381 28-09-2010 04:12:12 9.9 C 8.87 g/m*3 9.9 C 0 km/h
382 28-09-2010 04:24:12 9.9 C 8.87 g/m*3 9.9 C 0 km/h
383 28-09-2010 04:36:12 9.9 C 8.87 g/m*3 9.9 C 0 km/h
384 28-09-2010 04:48:12 10 C 8.83 g/m*3 10 C 0 km/h
385 28-09-2010 05:00:12 10 C 8.93 g/m*3 10 C 0 km/h
386 28-09-2010 05:12:12 10 C 8.93 g/m*3 10 C 0 km/h
387 28-09-2010 05:24:12 10 C 8.93 g/m*3 10 C 0 km/h
388 28-09-2010 05:36:12 10 C 8.93 g/m*3 10 C 0 km/h
389 28-09-2010 05:48:12 10 C 8.93 g/m*3 10 C 0 km/h
390 28-09-2010 06:00:12 10.1 C 8.98 g/m*3 10.1 C 0 km/h
391 28-09-2010 06:12:12 10.1 C 8.98 g/m*3 10.1 C 0 km/h
392 28-09-2010 06:24:12 10.1 C 8.98 g/m*3 10.1 C 0 km/h
393 28-09-2010 06:36:12 10.1 C 8.98 g/m*3 10.1 C 0 km/h
394 28-09-2010 06:48:12 10 C 8.93 g/m*3 10 C 0 km/h
395 28-09-2010 07:00:12 10 C 8.93 g/m*3 10 C 0 km/h
396 28-09-2010 07:12:12 10 C 8.93 g/m*3 10 C 0 km/h
397 28-09-2010 07:24:12 10 C 8.93 g/m*3 10 C 0 km/h
398 28-09-2010 07:36:13 10 C 8.93 g/m*3 10 C 0 km/h
399 28-09-2010 07:48:01 10 C 8.93 g/m*3 10 C 0 km/h
400 28-09-2010 08:00:01 10 C 8.93 g/m*3 10 C 0 km/h
Sensor: Nr:Datum:Temp:Abs-Feuchte:Windchill:Wind:
Aussen-T/F 401 28-09-2010 08:12:02 10 C 8.93 g/m*3 10 C 0 km/h
402 28-09-2010 08:24:02 10 C 8.93 g/m*3 10 C 0 km/h
403 28-09-2010 08:36:02 10.1 C 8.98 g/m*3 10.1 C 0 km/h
404 28-09-2010 08:48:03 10.1 C 8.98 g/m*3 10.1 C 0 km/h
405 28-09-2010 09:00:03 10.1 C 8.98 g/m*3 10.1 C 0 km/h
406 28-09-2010 09:12:03 10.2 C 9.04 g/m*3 10.2 C 0 km/h
407 28-09-2010 09:24:02 10.2 C 9.04 g/m*3 10.2 C 0 km/h
408 28-09-2010 09:36:02 10.3 C 9.1 g/m*3 10.3 C 0 km/h
409 28-09-2010 09:48:02 10.4 C 9.16 g/m*3 10.4 C 0 km/h
410 28-09-2010 10:00:02 10.4 C 9.16 g/m*3 10.4 C 0 km/h
411 28-09-2010 10:12:02 10.5 C 9.21 g/m*3 10.5 C 0 km/h
412 28-09-2010 10:24:01 10.5 C 9.21 g/m*3 10.5 C 0 km/h
413 28-09-2010 10:36:02 10.7 C 9.33 g/m*3 10.7 C 0 km/h
414 28-09-2010 10:48:02 10.8 C 9.39 g/m*3 10.8 C 0 km/h
415 28-09-2010 11:00:02 11 C 9.51 g/m*3 11 C 0 km/h
416 28-09-2010 11:12:02 11 C 9.51 g/m*3 11 C 0 km/h
417 28-09-2010 11:24:02 11.2 C 9.63 g/m*3 11.2 C 0 km/h
418 28-09-2010 11:36:02 11.3 C 9.69 g/m*3 11.3 C 0 km/h
419 28-09-2010 11:48:02 11.4 C 9.75 g/m*3 11.4 C 0 km/h
420 28-09-2010 12:00:02 11.4 C 9.75 g/m*3 11.4 C 0 km/h
421 28-09-2010 12:12:02 11.4 C 9.65 g/m*3 11.4 C 0 km/h
422 28-09-2010 12:24:02 11.4 C 9.65 g/m*3 11.4 C 0 km/h
423 28-09-2010 12:36:02 11.5 C 9.71 g/m*3 11.5 C 0 km/h
424 28-09-2010 12:48:02 11.7 C 9.83 g/m*3 11.7 C 0 km/h
425 28-09-2010 13:00:02 11.6 C 9.67 g/m*3 11.6 C 0 km/h
Sensor: Nr:Datum:Temp:Abs-Feuchte:Windchill:Wind:
Aussen-T/F 426 28-09-2010 13:12:02 11.6 C 9.67 g/m*3 11.6 C 0 km/h
427 28-09-2010 13:24:03 11.8 C 9.79 g/m*3 11.8 C 0 km/h
428 28-09-2010 13:36:02 11.8 C 9.68 g/m*3 11.8 C 0 km/h
429 28-09-2010 13:48:03 11.9 C 9.74 g/m*3 11.9 C 0 km/h
430 28-09-2010 14:00:03 11.9 C 9.74 g/m*3 11.9 C 0 km/h
431 28-09-2010 14:12:02 11.8 C 9.68 g/m*3 11.8 C 0 km/h
432 28-09-2010 14:24:02 11.7 C 9.62 g/m*3 11.7 C 0 km/h
433 28-09-2010 14:36:02 11.7 C 9.62 g/m*3 11.7 C 0 km/h
434 28-09-2010 14:48:02 11.7 C 9.62 g/m*3 11.7 C 0 km/h
435 28-09-2010 15:00:02 11.7 C 9.62 g/m*3 11.7 C 0 km/h
436 28-09-2010 15:12:02 11.7 C 9.73 g/m*3 11.7 C 0 km/h
437 28-09-2010 15:24:02 11.7 C 9.73 g/m*3 11.7 C 0 km/h
438 28-09-2010 15:36:02 11.8 C 9.79 g/m*3 11.8 C 0 km/h
439 28-09-2010 15:48:02 11.8 C 9.79 g/m*3 11.8 C 0 km/h
440 28-09-2010 16:00:02 11.8 C 9.79 g/m*3 11.8 C 0 km/h
441 28-09-2010 16:12:01 11.8 C 9.79 g/m*3 11.8 C 0 km/h
442 28-09-2010 16:24:01 11.8 C 9.79 g/m*3 11.8 C 0 km/h
443 28-09-2010 16:36:02 11.9 C 9.96 g/m*3 11.9 C 0 km/h
444 28-09-2010 16:48:02 11.9 C 9.96 g/m*3 11.9 C 0 km/h
445 28-09-2010 17:00:02 11.9 C 9.96 g/m*3 11.9 C 0 km/h
446 28-09-2010 17:12:02 12 C 10.02 g/m*3 12 C 0 km/h
447 28-09-2010 17:24:02 12 C 10.02 g/m*3 12 C 0 km/h
448 28-09-2010 17:36:02 12 C 10.02 g/m*3 12 C 0 km/h
449 28-09-2010 17:48:02 12 C 10.02 g/m*3 12 C 0 km/h
450 28-09-2010 18:00:02 11.9 C 9.96 g/m*3 11.9 C 0 km/h
Sensor: Nr:Datum:Temp:Abs-Feuchte:Windchill:Wind:
Aussen-T/F 451 28-09-2010 18:12:02 11.9 C 9.96 g/m*3 11.9 C 0 km/h
452 28-09-2010 18:24:02 11.9 C 10.06 g/m*3 11.9 C 0 km/h
453 28-09-2010 18:36:02 11.8 C 10 g/m*3 11.8 C 0 km/h
454 28-09-2010 18:48:01 11.8 C 10 g/m*3 11.8 C 0 km/h
455 28-09-2010 19:00:01 11.8 C 10 g/m*3 11.8 C 0 km/h
456 28-09-2010 19:12:02 11.7 C 9.94 g/m*3 11.7 C 0 km/h
457 28-09-2010 19:24:01 11.7 C 9.94 g/m*3 11.7 C 0 km/h
458 28-09-2010 19:36:01 11.7 C 9.94 g/m*3 11.7 C 0 km/h
459 28-09-2010 19:48:01 11.7 C 9.94 g/m*3 11.7 C 0 km/h
460 28-09-2010 20:00:01 11.6 C 9.87 g/m*3 11.6 C 0 km/h
461 28-09-2010 20:12:02 11.6 C 9.87 g/m*3 11.6 C 0 km/h
462 28-09-2010 20:24:02 11.6 C 9.87 g/m*3 11.6 C 0 km/h
463 28-09-2010 20:36:01 11.6 C 9.87 g/m*3 11.6 C 0 km/h
464 28-09-2010 20:48:01 11.6 C 9.87 g/m*3 11.6 C 0 km/h
465 28-09-2010 21:00:01 11.6 C 9.87 g/m*3 11.6 C 0 km/h
466 28-09-2010 21:12:01 11.6 C 9.87 g/m*3 11.6 C 0 km/h
467 28-09-2010 21:24:02 11.6 C 9.87 g/m*3 11.6 C 0 km/h
468 28-09-2010 21:36:01 11.5 C 9.81 g/m*3 11.5 C 0 km/h
469 28-09-2010 21:48:03 11.6 C 9.87 g/m*3 11.6 C 0 km/h
470 28-09-2010 22:00:03 11.6 C 9.87 g/m*3 11.6 C 0 km/h
471 28-09-2010 22:12:02 11.6 C 9.87 g/m*3 11.6 C 0 km/h
472 28-09-2010 22:24:03 11.6 C 9.87 g/m*3 11.6 C 0 km/h
473 28-09-2010 22:36:02 11.7 C 9.94 g/m*3 11.7 C 0 km/h
474 28-09-2010 22:48:03 11.6 C 9.87 g/m*3 11.6 C 0 km/h
475 28-09-2010 23:00:03 11.6 C 9.87 g/m*3 11.6 C 0 km/h
Sensor: Nr:Datum:Temp:Abs-Feuchte:Windchill:Wind:
Aussen-T/F 476 28-09-2010 23:12:02 11.6 C 9.87 g/m*3 11.6 C 0 km/h
477 28-09-2010 23:24:02 11.6 C 9.87 g/m*3 11.6 C 0 km/h
478 28-09-2010 23:36:02 11.6 C 9.87 g/m*3 11.6 C 0 km/h
479 28-09-2010 23:48:02 11.6 C 9.87 g/m*3 11.6 C 0 km/h
480 29-09-2010 00:00:02 11.6 C 9.87 g/m*3 11.6 C 0 km/h
481 29-09-2010 00:12:02 11.7 C 9.94 g/m*3 11.7 C 0 km/h
482 29-09-2010 00:24:02 11.6 C 9.87 g/m*3 11.6 C 0 km/h
483 29-09-2010 00:36:02 11.7 C 9.94 g/m*3 11.7 C 0 km/h
484 29-09-2010 00:48:02 11.6 C 9.87 g/m*3 11.6 C 0 km/h
485 29-09-2010 01:00:02 11.7 C 9.94 g/m*3 11.7 C 0 km/h
486 29-09-2010 01:12:03 11.6 C 9.87 g/m*3 11.6 C 0 km/h
487 29-09-2010 01:24:02 11.6 C 9.87 g/m*3 11.6 C 0 km/h
488 29-09-2010 01:36:02 11.6 C 9.87 g/m*3 11.6 C 0 km/h
489 29-09-2010 01:48:01 11.6 C 9.87 g/m*3 11.6 C 0 km/h
490 29-09-2010 02:00:01 11.6 C 9.87 g/m*3 11.6 C 0 km/h
491 29-09-2010 02:12:02 11.6 C 9.87 g/m*3 11.6 C 0 km/h
492 29-09-2010 02:24:01 11.5 C 9.81 g/m*3 11.5 C 0 km/h
493 29-09-2010 02:36:02 11.5 C 9.81 g/m*3 11.5 C 0 km/h
494 29-09-2010 02:48:01 11.6 C 9.87 g/m*3 11.6 C 0 km/h
495 29-09-2010 03:00:01 11.4 C 9.75 g/m*3 11.4 C 0 km/h
496 29-09-2010 03:12:01 11.3 C 9.69 g/m*3 11.3 C 0 km/h
497 29-09-2010 03:24:02 11.4 C 9.75 g/m*3 11.4 C 0 km/h
498 29-09-2010 03:36:01 11.7 C 9.94 g/m*3 11.7 C 0 km/h
499 29-09-2010 03:48:01 11.6 C 9.87 g/m*3 11.6 C 0 km/h
500 29-09-2010 04:00:01 11.6 C 9.87 g/m*3 11.6 C 0 km/h
Sensor: Nr:Datum:Temp:Abs-Feuchte:Windchill:Wind:
Aussen-T/F 501 29-09-2010 04:12:02 11.6 C 9.87 g/m*3 11.6 C 0 km/h
502 29-09-2010 04:24:01 11.6 C 9.87 g/m*3 11.6 C 0 km/h
503 29-09-2010 04:36:01 11.3 C 9.69 g/m*3 11.3 C 0 km/h
504 29-09-2010 04:48:01 11.3 C 9.69 g/m*3 11.3 C 0 km/h
505 29-09-2010 05:00:01 11.4 C 9.75 g/m*3 11.4 C 0 km/h
506 29-09-2010 05:12:02 11.4 C 9.75 g/m*3 11.4 C 0 km/h
507 29-09-2010 05:24:01 11.4 C 9.75 g/m*3 11.4 C 0 km/h
508 29-09-2010 05:36:01 11.4 C 9.75 g/m*3 11.4 C 0 km/h
509 29-09-2010 05:48:01 11.4 C 9.75 g/m*3 11.4 C 0 km/h
510 29-09-2010 06:00:01 11.7 C 9.94 g/m*3 11.7 C 0 km/h
511 29-09-2010 06:12:01 11.6 C 9.87 g/m*3 11.6 C 0 km/h
512 29-09-2010 06:24:02 11.5 C 9.81 g/m*3 11.5 C 0 km/h
513 29-09-2010 06:36:01 11.5 C 9.81 g/m*3 11.5 C 0 km/h
514 29-09-2010 06:48:02 11.3 C 9.69 g/m*3 11.3 C 0 km/h
515 29-09-2010 07:00:02 11.1 C 9.57 g/m*3 11.1 C 0 km/h
516 29-09-2010 07:12:01 10.8 C 9.39 g/m*3 10.8 C 0 km/h
517 29-09-2010 07:24:02 11 C 9.51 g/m*3 11 C 0 km/h
518 29-09-2010 07:36:01 11.2 C 9.63 g/m*3 11.2 C 0 km/h
519 29-09-2010 07:48:02 11.1 C 9.57 g/m*3 11.1 C 0 km/h
520 29-09-2010 08:00:02 11 C 9.51 g/m*3 11 C 0 km/h
521 29-09-2010 08:12:01 11.2 C 9.63 g/m*3 11.2 C 0 km/h
522 29-09-2010 08:24:01 11.2 C 9.63 g/m*3 11.2 C 0 km/h
523 29-09-2010 08:36:01 11.1 C 9.57 g/m*3 11.1 C 0 km/h
524 29-09-2010 08:48:02 11.4 C 9.75 g/m*3 11.4 C 0 km/h
525 29-09-2010 09:00:02 11.6 C 9.87 g/m*3 11.6 C 0 km/h
Sensor: Nr:Datum:Temp:Abs-Feuchte:Windchill:Wind:
Aussen-T/F 526 29-09-2010 09:12:01 11.2 C 9.53 g/m*3 11.2 C 0 km/h
527 29-09-2010 09:24:01 10.8 C 9.19 g/m*3 10.8 C 0 km/h
528 29-09-2010 09:36:02 11.7 C 9.62 g/m*3 11.7 C 0 km/h
529 29-09-2010 09:48:01 11.9 C 9.64 g/m*3 11.9 C 0 km/h
530 29-09-2010 10:00:01 12.1 C 9.22 g/m*3 12.1 C 0 km/h
531 29-09-2010 10:12:02 12.5 C 8.91 g/m*3 12.5 C 0 km/h
532 29-09-2010 10:24:01 12.9 C 8.79 g/m*3 12.9 C 0 km/h
533 29-09-2010 10:36:02 13.4 C 8.95 g/m*3 13.4 C 0 km/h
534 29-09-2010 10:48:01 13.7 C 9 g/m*3 13.7 C 0 km/h
535 29-09-2010 11:00:01 13.8 C 8.94 g/m*3 13.8 C 0 km/h
536 29-09-2010 11:12:02 13.7 C 8.53 g/m*3 13.7 C 0 km/h
537 29-09-2010 11:24:01 13.8 C 8.46 g/m*3 13.8 C 0 km/h
538 29-09-2010 11:36:01 14.1 C 8.01 g/m*3 14.1 C 0 km/h
539 29-09-2010 11:48:01 14.4 C 8.16 g/m*3 14.4 C 0 km/h
540 29-09-2010 12:00:01 14.5 C 8.21 g/m*3 14.5 C 0 km/h
541 29-09-2010 12:12:01 14.6 C 8.01 g/m*3 14.6 C 0 km/h
542 29-09-2010 12:24:01 14.1 C 7.52 g/m*3 14.1 C 0 km/h
543 29-09-2010 12:36:01 14 C 8.08 g/m*3 14 C 0 km/h
544 29-09-2010 12:48:01 14.8 C 8.36 g/m*3 14.8 C 0 km/h
545 29-09-2010 13:00:01 15.4 C 8.15 g/m*3 15.4 C 0 km/h
546 29-09-2010 13:12:01 15.7 C 7.89 g/m*3 15.7 C 0 km/h
547 29-09-2010 13:24:02 15.8 C 7.81 g/m*3 15.8 C 0 km/h
548 29-09-2010 13:36:01 15.9 C 7.99 g/m*3 15.9 C 0 km/h
549 29-09-2010 13:48:02 15.9 C 7.58 g/m*3 15.9 C 0 km/h
550 29-09-2010 14:00:02 16.3 C 7.35 g/m*3 16.3 C 0 km/h
Sensor: Nr:Datum:Temp:Abs-Feuchte:Windchill:Wind:
Aussen-T/F 551 29-09-2010 14:12:01 15.6 C 7.58 g/m*3 15.6 C 0 km/h
552 29-09-2010 14:24:02 15.8 C 7.94 g/m*3 15.8 C 0 km/h
553 29-09-2010 14:36:01 17.4 C 7.85 g/m*3 17.4 C 0 km/h
554 29-09-2010 14:48:02 19 C 7.33 g/m*3 19 C 0 km/h
555 29-09-2010 15:00:02 18.8 C 6.76 g/m*3 18.8 C 0 km/h
556 29-09-2010 15:12:01 18.8 C 6.93 g/m*3 18.8 C 0 km/h
557 29-09-2010 15:24:01 18.9 C 6.97 g/m*3 18.9 C 0 km/h
558 29-09-2010 15:36:02 19.6 C 6.92 g/m*3 19.6 C 0 km/h
559 29-09-2010 15:48:01 19.7 C 6.79 g/m*3 19.7 C 0 km/h
560 29-09-2010 16:00:02 18.8 C 7.41 g/m*3 18.8 C 0 km/h
561 29-09-2010 16:12:01 18.1 C 7.26 g/m*3 18.1 C 0 km/h
562 29-09-2010 16:24:01 18.1 C 7.57 g/m*3 18.1 C 0 km/h
563 29-09-2010 16:36:02 17.6 C 7.95 g/m*3 17.6 C 0 km/h
564 29-09-2010 16:48:01 18.1 C 7.88 g/m*3 18.1 C 0 km/h
565 29-09-2010 17:00:02 19 C 7.33 g/m*3 19 C 0 km/h
566 29-09-2010 17:12:01 19.4 C 7.01 g/m*3 19.4 C 0 km/h
567 29-09-2010 17:24:01 18.6 C 7.16 g/m*3 18.6 C 0 km/h
568 29-09-2010 17:36:02 17.6 C 7.95 g/m*3 17.6 C 0 km/h
569 29-09-2010 17:48:01 16.9 C 8.05 g/m*3 16.9 C 0 km/h
570 29-09-2010 18:00:01 15.9 C 7.58 g/m*3 15.9 C 0 km/h
571 29-09-2010 18:12:04 15.2 C 7.92 g/m*3 15.2 C 0 km/h
572 29-09-2010 18:24:02 14.4 C 7.91 g/m*3 14.4 C 0 km/h
573 29-09-2010 18:36:02 14 C 7.84 g/m*3 14 C 0 km/h
574 29-09-2010 18:48:01 13.6 C 7.89 g/m*3 13.6 C 0 km/h
575 29-09-2010 19:00:01 13.2 C 7.81 g/m*3 13.2 C 0 km/h
Sensor: Nr:Datum:Temp:Abs-Feuchte:Windchill:Wind:
Aussen-T/F 576 29-09-2010 19:12:01 13.1 C 7.76 g/m*3 13.1 C 0 km/h
577 29-09-2010 19:24:01 13 C 7.71 g/m*3 13 C 0 km/h
578 29-09-2010 19:36:02 13 C 7.6 g/m*3 13 C 0 km/h
579 29-09-2010 19:48:01 13.1 C 7.53 g/m*3 13.1 C 0 km/h
580 29-09-2010 20:00:01 13.3 C 7.63 g/m*3 13.3 C 0 km/h
581 29-09-2010 20:12:02 13.2 C 7.81 g/m*3 13.2 C 0 km/h
582 29-09-2010 20:24:01 13.2 C 7.81 g/m*3 13.2 C 0 km/h
583 29-09-2010 20:36:02 13 C 7.6 g/m*3 13 C 0 km/h
584 29-09-2010 20:48:01 12.9 C 7.66 g/m*3 12.9 C 0 km/h
585 29-09-2010 21:00:01 12.9 C 7.66 g/m*3 12.9 C 0 km/h
586 29-09-2010 21:12:02 12.8 C 7.84 g/m*3 12.8 C 0 km/h
587 29-09-2010 21:24:01 12.4 C 7.98 g/m*3 12.4 C 0 km/h
588 29-09-2010 21:38:05 12.2 C 8.09 g/m*3 12.2 C 0 km/h
589 29-09-2010 21:50:05 12.2 C 8.09 g/m*3 12.2 C 0 km/h
590 29-09-2010 22:02:05 12.3 C 8.25 g/m*3 12.3 C 0 km/h
591 29-09-2010 22:14:05 12.4 C 8.3 g/m*3 12.4 C 0 km/h
592 29-09-2010 22:26:05 12.4 C 8.41 g/m*3 12.4 C 0 km/h
593 29-09-2010 22:38:06 12.5 C 8.47 g/m*3 12.5 C 0 km/h
594 29-09-2010 22:50:06 12.3 C 8.36 g/m*3 12.3 C 0 km/h
595 29-09-2010 23:02:06 12 C 8.21 g/m*3 12 C 0 km/h
596 29-09-2010 23:14:06 11.8 C 8.31 g/m*3 11.8 C 0 km/h
597 29-09-2010 23:26:06 11.8 C 8.42 g/m*3 11.8 C 0 km/h
598 29-09-2010 23:38:06 12 C 8.31 g/m*3 12 C 0 km/h
599 29-09-2010 23:50:06 12.2 C 8.42 g/m*3 12.2 C 0 km/h
600 30-09-2010 00:02:06 12.4 C 8.52 g/m*3 12.4 C 0 km/h
Sensor: Nr:Datum:Temp:Abs-Feuchte:Windchill:Wind:
Aussen-T/F 601 30-09-2010 00:14:06 12.3 C 8.47 g/m*3 12.3 C 0 km/h
602 30-09-2010 00:26:06 12.1 C 8.36 g/m*3 12.1 C 0 km/h
603 30-09-2010 00:38:06 12.1 C 8.47 g/m*3 12.1 C 0 km/h
604 30-09-2010 00:50:06 11.9 C 8.37 g/m*3 11.9 C 0 km/h
605 30-09-2010 01:02:06 11.7 C 8.37 g/m*3 11.7 C 0 km/h
606 30-09-2010 01:14:06 11.8 C 7.89 g/m*3 11.8 C 0 km/h
607 30-09-2010 01:26:06 11.8 C 7.79 g/m*3 11.8 C 0 km/h
608 30-09-2010 01:38:06 12 C 7.46 g/m*3 12 C 0 km/h
609 30-09-2010 01:50:06 12 C 7.25 g/m*3 12 C 0 km/h
610 30-09-2010 02:02:06 12.1 C 7.4 g/m*3 12.1 C 0 km/h
611 30-09-2010 02:14:06 11.5 C 7.54 g/m*3 11.5 C 0 km/h
612 30-09-2010 02:26:06 11.4 C 7.7 g/m*3 11.4 C 0 km/h
613 30-09-2010 02:38:06 11.1 C 7.66 g/m*3 11.1 C 0 km/h
614 30-09-2010 02:50:07 11.2 C 7.8 g/m*3 11.2 C 0 km/h
615 30-09-2010 03:02:07 11.3 C 7.85 g/m*3 11.3 C 0 km/h
616 30-09-2010 03:14:07 11.2 C 7.91 g/m*3 11.2 C 0 km/h
617 30-09-2010 03:26:07 11 C 7.81 g/m*3 11 C 0 km/h
618 30-09-2010 03:38:07 11.1 C 7.86 g/m*3 11.1 C 0 km/h
619 30-09-2010 03:50:07 11.2 C 7.91 g/m*3 11.2 C 0 km/h
620 30-09-2010 04:02:07 11.3 C 7.96 g/m*3 11.3 C 0 km/h
621 30-09-2010 04:14:07 11.2 C 7.91 g/m*3 11.2 C 0 km/h
622 30-09-2010 04:26:07 11 C 7.81 g/m*3 11 C 0 km/h
623 30-09-2010 04:38:07 10.8 C 7.81 g/m*3 10.8 C 0 km/h
624 30-09-2010 04:50:07 10.8 C 7.91 g/m*3 10.8 C 0 km/h
625 30-09-2010 05:02:07 10.8 C 7.91 g/m*3 10.8 C 0 km/h
Sensor: Nr:Datum:Temp:Abs-Feuchte:Windchill:Wind:
Aussen-T/F 626 30-09-2010 05:14:07 10.8 C 7.91 g/m*3 10.8 C 0 km/h
627 30-09-2010 05:26:07 10.8 C 7.81 g/m*3 10.8 C 0 km/h
628 30-09-2010 05:38:07 10.7 C 7.76 g/m*3 10.7 C 0 km/h
629 30-09-2010 05:50:07 10.7 C 7.56 g/m*3 10.7 C 0 km/h
630 30-09-2010 06:02:07 10.8 C 7.31 g/m*3 10.8 C 0 km/h
631 30-09-2010 06:14:07 10.8 C 7.31 g/m*3 10.8 C 0 km/h
632 30-09-2010 06:26:07 10.7 C 7.27 g/m*3 10.7 C 0 km/h
633 30-09-2010 06:38:05 10.6 C 7.32 g/m*3 10.6 C 0 km/h
634 30-09-2010 06:50:02 10.6 C 7.42 g/m*3 10.6 C 0 km/h
635 30-09-2010 07:02:02 10.7 C 7.56 g/m*3 10.7 C 0 km/h
636 30-09-2010 07:14:02 10.7 C 7.66 g/m*3 10.7 C 0 km/h
637 30-09-2010 07:26:02 10.6 C 7.61 g/m*3 10.6 C 0 km/h
638 30-09-2010 07:38:02 10.6 C 7.71 g/m*3 10.6 C 0 km/h
639 30-09-2010 07:50:01 10.7 C 7.76 g/m*3 10.7 C 0 km/h
640 30-09-2010 08:02:01 10.7 C 7.66 g/m*3 10.7 C 0 km/h
641 30-09-2010 08:14:02 10.9 C 7.76 g/m*3 10.9 C 0 km/h
642 30-09-2010 08:26:01 10.9 C 7.76 g/m*3 10.9 C 0 km/h
643 30-09-2010 08:38:01 11 C 7.81 g/m*3 11 C 0 km/h
644 30-09-2010 08:50:01 11 C 7.81 g/m*3 11 C 0 km/h
645 30-09-2010 09:02:01 11.2 C 7.91 g/m*3 11.2 C 0 km/h
646 30-09-2010 09:14:01 11.4 C 8.01 g/m*3 11.4 C 0 km/h
647 30-09-2010 09:26:01 11.4 C 7.8 g/m*3 11.4 C 0 km/h
648 30-09-2010 09:38:01 11.5 C 7.75 g/m*3 11.5 C 0 km/h
649 30-09-2010 09:50:02 11.5 C 7.85 g/m*3 11.5 C 0 km/h
650 30-09-2010 10:02:02 11.4 C 8.01 g/m*3 11.4 C 0 km/h
Sensor: Nr:Datum:Temp:Abs-Feuchte:Windchill:Wind:
Aussen-T/F 651 30-09-2010 10:14:02 11.4 C 8.11 g/m*3 11.4 C 0 km/h
652 30-09-2010 10:26:03 11.7 C 8.37 g/m*3 11.7 C 0 km/h
653 30-09-2010 10:38:02 11.8 C 8.42 g/m*3 11.8 C 0 km/h
654 30-09-2010 10:50:02 11.9 C 8.47 g/m*3 11.9 C 0 km/h
655 30-09-2010 11:02:02 12 C 8.42 g/m*3 12 C 0 km/h
656 30-09-2010 11:14:02 12 C 8.42 g/m*3 12 C 0 km/h
657 30-09-2010 11:26:02 11.8 C 8.42 g/m*3 11.8 C 0 km/h
658 30-09-2010 11:38:01 11.7 C 8.47 g/m*3 11.7 C 0 km/h
659 30-09-2010 11:50:02 11.8 C 8.63 g/m*3 11.8 C 0 km/h
660 30-09-2010 12:02:01 11.9 C 8.79 g/m*3 11.9 C 0 km/h
661 30-09-2010 12:14:01 11.9 C 8.9 g/m*3 11.9 C 0 km/h
662 30-09-2010 12:26:02 12 C 8.95 g/m*3 12 C 0 km/h
663 30-09-2010 12:38:02 12.1 C 9.01 g/m*3 12.1 C 0 km/h
664 30-09-2010 12:50:02 12 C 9.06 g/m*3 12 C 0 km/h
665 30-09-2010 13:02:02 12.4 C 9.4 g/m*3 12.4 C 0 km/h
666 30-09-2010 13:14:02 12.6 C 9.51 g/m*3 12.6 C 0 km/h
667 30-09-2010 13:26:02 12.6 C 9.51 g/m*3 12.6 C 0 km/h
668 30-09-2010 13:38:02 12.6 C 9.62 g/m*3 12.6 C 0 km/h
669 30-09-2010 13:50:01 12.7 C 9.68 g/m*3 12.7 C 0 km/h
670 30-09-2010 14:02:02 12.9 C 9.81 g/m*3 12.9 C 0 km/h
671 30-09-2010 14:14:02 13 C 9.87 g/m*3 13 C 0 km/h
672 30-09-2010 14:26:01 12.8 C 9.86 g/m*3 12.8 C 0 km/h
673 30-09-2010 14:38:01 12.9 C 9.92 g/m*3 12.9 C 0 km/h
674 30-09-2010 14:50:01 13.1 C 10.04 g/m*3 13.1 C 0 km/h
675 30-09-2010 15:02:02 13.2 C 10.1 g/m*3 13.2 C 0 km/h
Sensor: Nr:Datum:Temp:Abs-Feuchte:Windchill:Wind:
Aussen-T/F 676 30-09-2010 15:14:03 13.2 C 10.1 g/m*3 13.2 C 0 km/h
677 30-09-2010 15:26:01 13.4 C 10.23 g/m*3 13.4 C 0 km/h
678 30-09-2010 15:38:01 13.3 C 10.17 g/m*3 13.3 C 0 km/h
679 30-09-2010 15:50:01 13.2 C 9.99 g/m*3 13.2 C 0 km/h
680 30-09-2010 16:02:01 13.5 C 10.29 g/m*3 13.5 C 0 km/h
681 30-09-2010 16:14:01 13.5 C 10.29 g/m*3 13.5 C 0 km/h
682 30-09-2010 16:26:02 13.6 C 10.24 g/m*3 13.6 C 0 km/h
683 30-09-2010 16:38:01 13.3 C 10.05 g/m*3 13.3 C 0 km/h
684 30-09-2010 16:50:03 13.1 C 9.93 g/m*3 13.1 C 0 km/h
685 30-09-2010 17:02:02 13.1 C 9.93 g/m*3 13.1 C 0 km/h
686 30-09-2010 17:14:02 13 C 9.98 g/m*3 13 C 0 km/h
687 30-09-2010 17:26:02 13 C 9.98 g/m*3 13 C 0 km/h
688 30-09-2010 17:38:02 12.9 C 10.03 g/m*3 12.9 C 0 km/h
689 30-09-2010 17:50:02 12.8 C 9.97 g/m*3 12.8 C 0 km/h
690 30-09-2010 18:02:02 12.7 C 9.91 g/m*3 12.7 C 0 km/h
691 30-09-2010 18:14:02 12.5 C 9.78 g/m*3 12.5 C 0 km/h
692 30-09-2010 18:26:02 12.5 C 9.78 g/m*3 12.5 C 0 km/h
693 30-09-2010 18:38:02 12.4 C 9.83 g/m*3 12.4 C 0 km/h
694 30-09-2010 18:50:01 12.3 C 9.77 g/m*3 12.3 C 0 km/h
695 30-09-2010 19:02:02 12.2 C 9.71 g/m*3 12.2 C 0 km/h
696 30-09-2010 19:14:02 12.1 C 9.76 g/m*3 12.1 C 0 km/h
697 30-09-2010 19:26:02 12.1 C 9.76 g/m*3 12.1 C 0 km/h
698 30-09-2010 19:38:02 12.2 C 9.82 g/m*3 12.2 C 0 km/h
699 30-09-2010 19:50:02 12.1 C 9.87 g/m*3 12.1 C 0 km/h
700 30-09-2010 20:02:02 12.2 C 9.93 g/m*3 12.2 C 0 km/h
Sensor: Nr:Datum:Temp:Abs-Feuchte:Windchill:Wind:
Aussen-T/F 701 30-09-2010 20:14:02 12.2 C 9.93 g/m*3 12.2 C 0 km/h
702 30-09-2010 20:26:02 12.1 C 9.87 g/m*3 12.1 C 0 km/h
703 30-09-2010 20:38:01 12.1 C 9.87 g/m*3 12.1 C 0 km/h
704 30-09-2010 20:50:02 12.2 C 10.04 g/m*3 12.2 C 0 km/h
705 30-09-2010 21:02:01 12.1 C 9.97 g/m*3 12.1 C 0 km/h
706 30-09-2010 21:14:01 12.1 C 9.97 g/m*3 12.1 C 0 km/h
707 30-09-2010 21:26:02 12.1 C 9.97 g/m*3 12.1 C 0 km/h
708 30-09-2010 21:38:01 12.1 C 9.97 g/m*3 12.1 C 0 km/h
709 30-09-2010 21:50:02 12 C 9.91 g/m*3 12 C 0 km/h
710 30-09-2010 22:02:02 12 C 9.91 g/m*3 12 C 0 km/h
711 30-09-2010 22:14:02 12 C 9.91 g/m*3 12 C 0 km/h
712 30-09-2010 22:26:02 11.9 C 9.96 g/m*3 11.9 C 0 km/h
713 30-09-2010 22:38:02 11.9 C 9.96 g/m*3 11.9 C 0 km/h
714 30-09-2010 22:50:01 12 C 9.91 g/m*3 12 C 0 km/h
715 30-09-2010 23:03:03 12 C 9.91 g/m*3 12 C 0 km/h
716 30-09-2010 23:15:03 11.9 C 9.96 g/m*3 11.9 C 0 km/h
717 30-09-2010 23:27:03 12 C 10.02 g/m*3 12 C 0 km/h
718 30-09-2010 23:39:03 12.1 C 10.08 g/m*3 12.1 C 0 km/h
719 30-09-2010 23:51:03 12 C 10.02 g/m*3 12 C 0 km/h
720 01-10-2010 00:03:03 12.1 C 10.08 g/m*3 12.1 C 0 km/h
721 01-10-2010 00:15:03 12 C 10.02 g/m*3 12 C 0 km/h
722 01-10-2010 00:27:03 12.1 C 10.08 g/m*3 12.1 C 0 km/h
723 01-10-2010 00:39:03 12.1 C 10.08 g/m*3 12.1 C 0 km/h
724 01-10-2010 00:51:03 11.8 C 10 g/m*3 11.8 C 0 km/h
725 01-10-2010 01:03:03 11.6 C 9.87 g/m*3 11.6 C 0 km/h
Sensor: Nr:Datum:Temp:Abs-Feuchte:Windchill:Wind:
Aussen-T/F 726 01-10-2010 01:15:04 11.7 C 9.94 g/m*3 11.7 C 0 km/h
727 01-10-2010 01:27:04 11.6 C 9.87 g/m*3 11.6 C 0 km/h
728 01-10-2010 01:39:04 11.5 C 9.81 g/m*3 11.5 C 0 km/h
729 01-10-2010 01:51:04 11.5 C 9.81 g/m*3 11.5 C 0 km/h
730 01-10-2010 02:03:04 11.5 C 9.81 g/m*3 11.5 C 0 km/h
731 01-10-2010 02:15:04 11.4 C 9.75 g/m*3 11.4 C 0 km/h
732 01-10-2010 02:27:04 11.4 C 9.75 g/m*3 11.4 C 0 km/h
733 01-10-2010 02:39:04 11.4 C 9.75 g/m*3 11.4 C 0 km/h
734 01-10-2010 02:51:04 11.5 C 9.81 g/m*3 11.5 C 0 km/h
735 01-10-2010 03:03:04 11.5 C 9.81 g/m*3 11.5 C 0 km/h
736 01-10-2010 03:15:04 11.5 C 9.81 g/m*3 11.5 C 0 km/h
737 01-10-2010 03:27:04 11.5 C 9.81 g/m*3 11.5 C 0 km/h
738 01-10-2010 03:39:04 11.5 C 9.81 g/m*3 11.5 C 0 km/h
739 01-10-2010 03:51:04 11.8 C 10 g/m*3 11.8 C 0 km/h
740 01-10-2010 04:03:04 11.7 C 9.94 g/m*3 11.7 C 0 km/h
741 01-10-2010 04:15:04 11.7 C 9.94 g/m*3 11.7 C 0 km/h
742 01-10-2010 04:27:04 11.7 C 9.94 g/m*3 11.7 C 0 km/h
743 01-10-2010 04:39:04 11.7 C 9.94 g/m*3 11.7 C 0 km/h
744 01-10-2010 04:51:04 11.7 C 9.94 g/m*3 11.7 C 0 km/h
745 01-10-2010 05:03:04 11.7 C 9.94 g/m*3 11.7 C 0 km/h
746 01-10-2010 05:15:04 11.7 C 9.94 g/m*3 11.7 C 0 km/h
747 01-10-2010 05:27:04 11.7 C 9.94 g/m*3 11.7 C 0 km/h
748 01-10-2010 05:39:04 11.5 C 9.81 g/m*3 11.5 C 0 km/h
749 01-10-2010 05:51:05 11.5 C 9.81 g/m*3 11.5 C 0 km/h
750 01-10-2010 06:03:05 11.4 C 9.75 g/m*3 11.4 C 0 km/h
Sensor: Nr:Datum:Temp:Abs-Feuchte:Windchill:Wind:
Aussen-T/F 751 01-10-2010 06:15:05 11.4 C 9.75 g/m*3 11.4 C 0 km/h
752 01-10-2010 06:27:05 11.4 C 9.75 g/m*3 11.4 C 0 km/h
753 01-10-2010 06:39:05 11.4 C 9.75 g/m*3 11.4 C 0 km/h
754 01-10-2010 06:51:05 11.4 C 9.75 g/m*3 11.4 C 0 km/h
755 01-10-2010 07:03:05 11.3 C 9.69 g/m*3 11.3 C 0 km/h
756 01-10-2010 07:15:02 11.3 C 9.69 g/m*3 11.3 C 0 km/h
757 01-10-2010 07:27:02 11 C 9.51 g/m*3 11 C 0 km/h
758 01-10-2010 07:39:02 10.8 C 9.39 g/m*3 10.8 C 0 km/h
759 01-10-2010 07:51:02 10.6 C 9.27 g/m*3 10.6 C 0 km/h
760 01-10-2010 08:03:02 10.4 C 9.16 g/m*3 10.4 C 0 km/h
761 01-10-2010 08:15:02 10.3 C 9.1 g/m*3 10.3 C 0 km/h
762 01-10-2010 08:27:02 10.2 C 9.04 g/m*3 10.2 C 0 km/h
763 01-10-2010 08:39:02 10.2 C 9.04 g/m*3 10.2 C 0 km/h
764 01-10-2010 08:51:02 10.4 C 9.16 g/m*3 10.4 C 0 km/h
765 01-10-2010 09:03:02 10.7 C 9.33 g/m*3 10.7 C 0 km/h
766 01-10-2010 09:15:01 11.1 C 9.57 g/m*3 11.1 C 0 km/h
767 01-10-2010 09:27:01 11.3 C 9.69 g/m*3 11.3 C 0 km/h
768 01-10-2010 09:39:02 11.4 C 9.75 g/m*3 11.4 C 0 km/h
769 01-10-2010 09:51:02 11.7 C 9.94 g/m*3 11.7 C 0 km/h
770 01-10-2010 10:03:02 11.7 C 9.94 g/m*3 11.7 C 0 km/h
771 01-10-2010 10:15:02 11.7 C 9.83 g/m*3 11.7 C 0 km/h
772 01-10-2010 10:27:02 11.6 C 9.56 g/m*3 11.6 C 0 km/h
773 01-10-2010 10:39:02 11.7 C 9.52 g/m*3 11.7 C 0 km/h
774 01-10-2010 10:51:02 11.9 C 9.32 g/m*3 11.9 C 0 km/h
775 01-10-2010 11:03:02 12.1 C 9.12 g/m*3 12.1 C 0 km/h
Sensor: Nr:Datum:Temp:Abs-Feuchte:Windchill:Wind:
Aussen-T/F 776 01-10-2010 11:15:02 12.2 C 8.85 g/m*3 12.2 C 0 km/h
777 01-10-2010 11:27:02 12.5 C 8.91 g/m*3 12.5 C 0 km/h
778 01-10-2010 11:39:02 12.5 C 8.69 g/m*3 12.5 C 0 km/h
779 01-10-2010 11:51:02 13 C 8.62 g/m*3 13 C 0 km/h
780 01-10-2010 12:03:02 12.8 C 8.51 g/m*3 12.8 C 0 km/h
781 01-10-2010 12:15:02 12.8 C 8.62 g/m*3 12.8 C 0 km/h
782 01-10-2010 12:27:02 12.7 C 8.46 g/m*3 12.7 C 0 km/h
783 01-10-2010 12:39:02 12.4 C 8.41 g/m*3 12.4 C 0 km/h
784 01-10-2010 12:51:02 12.7 C 8.46 g/m*3 12.7 C 0 km/h
785 01-10-2010 13:03:01 12.8 C 8.4 g/m*3 12.8 C 0 km/h
786 01-10-2010 13:15:02 13.3 C 8.32 g/m*3 13.3 C 0 km/h
787 01-10-2010 13:27:02 13.4 C 8.14 g/m*3 13.4 C 0 km/h
788 01-10-2010 13:39:01 13.1 C 7.76 g/m*3 13.1 C 0 km/h
789 01-10-2010 13:51:02 13.3 C 7.97 g/m*3 13.3 C 0 km/h
790 01-10-2010 14:03:01 13.1 C 7.87 g/m*3 13.1 C 0 km/h
791 01-10-2010 14:15:01 13.2 C 8.04 g/m*3 13.2 C 0 km/h
792 01-10-2010 14:27:01 13.3 C 7.86 g/m*3 13.3 C 0 km/h
793 01-10-2010 14:39:02 13.2 C 7.92 g/m*3 13.2 C 0 km/h
794 01-10-2010 14:51:02 13.8 C 7.98 g/m*3 13.8 C 0 km/h
795 01-10-2010 15:03:02 14.4 C 7.91 g/m*3 14.4 C 0 km/h
796 01-10-2010 15:15:02 15.2 C 7.92 g/m*3 15.2 C 0 km/h
797 01-10-2010 15:27:02 15.3 C 7.7 g/m*3 15.3 C 0 km/h
798 01-10-2010 15:39:02 15.7 C 7.76 g/m*3 15.7 C 0 km/h
799 01-10-2010 15:51:02 15.9 C 7.58 g/m*3 15.9 C 0 km/h
800 01-10-2010 16:03:02 16 C 7.49 g/m*3 16 C 0 km/h
Sensor: Nr:Datum:Temp:Abs-Feuchte:Windchill:Wind:
Aussen-T/F 801 01-10-2010 16:15:02 16.2 C 7.17 g/m*3 16.2 C 0 km/h
802 01-10-2010 16:27:02 17.1 C 7.42 g/m*3 17.1 C 0 km/h
803 01-10-2010 16:39:02 17.2 C 7.91 g/m*3 17.2 C 0 km/h
804 01-10-2010 16:51:02 17.2 C 8.05 g/m*3 17.2 C 0 km/h
805 01-10-2010 17:03:02 17.5 C 7.9 g/m*3 17.5 C 0 km/h
806 01-10-2010 17:15:02 16.6 C 8.19 g/m*3 16.6 C 0 km/h
807 01-10-2010 17:27:02 16 C 8.31 g/m*3 16 C 0 km/h
808 01-10-2010 17:39:02 15.4 C 8.54 g/m*3 15.4 C 0 km/h
809 01-10-2010 17:51:02 15.2 C 8.7 g/m*3 15.2 C 0 km/h
810 01-10-2010 18:03:02 14.8 C 8.74 g/m*3 14.8 C 0 km/h
811 01-10-2010 18:15:02 14.7 C 8.94 g/m*3 14.7 C 0 km/h
812 01-10-2010 18:27:02 14.5 C 8.83 g/m*3 14.5 C 0 km/h
813 01-10-2010 18:39:01 14.1 C 8.74 g/m*3 14.1 C 0 km/h
814 01-10-2010 18:51:02 13.6 C 8.71 g/m*3 13.6 C 0 km/h
815 01-10-2010 19:03:01 12.8 C 8.62 g/m*3 12.8 C 0 km/h
816 01-10-2010 19:15:02 12.5 C 8.58 g/m*3 12.5 C 0 km/h
817 01-10-2010 19:27:02 12.2 C 8.52 g/m*3 12.2 C 0 km/h
818 01-10-2010 19:39:02 11.8 C 8.53 g/m*3 11.8 C 0 km/h
819 01-10-2010 19:51:02 11.6 C 8.52 g/m*3 11.6 C 0 km/h
820 01-10-2010 20:03:02 11.4 C 8.42 g/m*3 11.4 C 0 km/h
821 01-10-2010 20:15:02 11.3 C 8.47 g/m*3 11.3 C 0 km/h
822 01-10-2010 20:27:02 11.2 C 8.51 g/m*3 11.2 C 0 km/h
823 01-10-2010 20:39:02 11.2 C 8.51 g/m*3 11.2 C 0 km/h
824 01-10-2010 20:51:01 11.2 C 8.62 g/m*3 11.2 C 0 km/h
825 01-10-2010 21:03:02 11.1 C 8.56 g/m*3 11.1 C 0 km/h
Sensor: Nr:Datum:Temp:Abs-Feuchte:Windchill:Wind:
Aussen-T/F 826 01-10-2010 21:15:01 11 C 8.51 g/m*3 11 C 0 km/h
827 01-10-2010 21:27:01 10.8 C 8.5 g/m*3 10.8 C 0 km/h
828 01-10-2010 21:39:01 10.7 C 8.55 g/m*3 10.7 C 0 km/h
829 01-10-2010 21:51:01 10.7 C 8.55 g/m*3 10.7 C 0 km/h
830 01-10-2010 22:03:02 10.8 C 8.7 g/m*3 10.8 C 0 km/h
831 01-10-2010 22:15:02 10.9 C 8.75 g/m*3 10.9 C 0 km/h
832 01-10-2010 22:27:02 11 C 8.81 g/m*3 11 C 0 km/h
833 01-10-2010 22:39:01 11.1 C 8.76 g/m*3 11.1 C 0 km/h
834 01-10-2010 22:52:04 11.1 C 8.76 g/m*3 11.1 C 0 km/h
835 01-10-2010 23:04:04 11.1 C 8.76 g/m*3 11.1 C 0 km/h
836 01-10-2010 23:16:04 11.1 C 8.76 g/m*3 11.1 C 0 km/h
837 01-10-2010 23:28:04 11 C 8.71 g/m*3 11 C 0 km/h
838 01-10-2010 23:40:04 11 C 8.71 g/m*3 11 C 0 km/h
839 01-10-2010 23:52:04 11.1 C 8.76 g/m*3 11.1 C 0 km/h
840 02-10-2010 00:04:04 11.2 C 8.82 g/m*3 11.2 C 0 km/h
841 02-10-2010 00:16:04 11.2 C 8.72 g/m*3 11.2 C 0 km/h
842 02-10-2010 00:28:04 11.2 C 8.72 g/m*3 11.2 C 0 km/h
843 02-10-2010 00:40:04 11.1 C 8.66 g/m*3 11.1 C 0 km/h
844 02-10-2010 00:52:04 10.9 C 8.65 g/m*3 10.9 C 0 km/h
845 02-10-2010 01:04:04 10.9 C 8.65 g/m*3 10.9 C 0 km/h
846 02-10-2010 01:16:04 11 C 8.71 g/m*3 11 C 0 km/h
847 02-10-2010 01:28:05 10.9 C 8.75 g/m*3 10.9 C 0 km/h
848 02-10-2010 01:40:05 11 C 8.81 g/m*3 11 C 0 km/h
849 02-10-2010 01:52:05 10.8 C 8.8 g/m*3 10.8 C 0 km/h
850 02-10-2010 02:04:05 10.8 C 8.8 g/m*3 10.8 C 0 km/h
Sensor: Nr:Datum:Temp:Abs-Feuchte:Windchill:Wind:
Aussen-T/F 851 02-10-2010 02:16:05 10.8 C 8.9 g/m*3 10.8 C 0 km/h
852 02-10-2010 02:28:05 11 C 9.01 g/m*3 11 C 0 km/h
853 02-10-2010 02:40:05 11.1 C 9.07 g/m*3 11.1 C 0 km/h
854 02-10-2010 02:52:05 11.1 C 9.07 g/m*3 11.1 C 0 km/h
855 02-10-2010 03:04:05 11.1 C 9.07 g/m*3 11.1 C 0 km/h
856 02-10-2010 03:16:05 11.1 C 9.17 g/m*3 11.1 C 0 km/h
857 02-10-2010 03:28:05 11.1 C 9.17 g/m*3 11.1 C 0 km/h
858 02-10-2010 03:40:05 11.1 C 9.17 g/m*3 11.1 C 0 km/h
859 02-10-2010 03:52:05 11.1 C 9.17 g/m*3 11.1 C 0 km/h
860 02-10-2010 04:04:05 11.1 C 9.27 g/m*3 11.1 C 0 km/h
861 02-10-2010 04:16:05 11.1 C 9.27 g/m*3 11.1 C 0 km/h
862 02-10-2010 04:28:05 11.1 C 9.27 g/m*3 11.1 C 0 km/h
863 02-10-2010 04:40:05 11.1 C 9.27 g/m*3 11.1 C 0 km/h
864 02-10-2010 04:52:05 11 C 9.21 g/m*3 11 C 0 km/h
865 02-10-2010 05:04:05 11 C 9.21 g/m*3 11 C 0 km/h
866 02-10-2010 05:16:05 11 C 9.31 g/m*3 11 C 0 km/h
867 02-10-2010 05:28:05 11 C 9.31 g/m*3 11 C 0 km/h
868 02-10-2010 05:40:05 10.9 C 9.35 g/m*3 10.9 C 0 km/h
869 02-10-2010 05:52:05 11 C 9.31 g/m*3 11 C 0 km/h
870 02-10-2010 06:04:06 11 C 9.31 g/m*3 11 C 0 km/h
871 02-10-2010 06:16:06 11 C 9.41 g/m*3 11 C 0 km/h
872 02-10-2010 06:28:06 11 C 9.41 g/m*3 11 C 0 km/h
873 02-10-2010 06:40:06 11 C 9.41 g/m*3 11 C 0 km/h
874 02-10-2010 06:52:06 11 C 9.41 g/m*3 11 C 0 km/h
875 02-10-2010 07:04:06 11 C 9.41 g/m*3 11 C 0 km/h
Sensor: Nr:Datum:Temp:Abs-Feuchte:Windchill:Wind:
Aussen-T/F 876 02-10-2010 07:16:06 11.1 C 9.47 g/m*3 11.1 C 0 km/h
877 02-10-2010 07:28:06 11.2 C 9.63 g/m*3 11.2 C 0 km/h
878 02-10-2010 07:40:03 11.2 C 9.63 g/m*3 11.2 C 0 km/h
879 02-10-2010 07:52:02 11.2 C 9.63 g/m*3 11.2 C 0 km/h
880 02-10-2010 08:04:02 11.3 C 9.69 g/m*3 11.3 C 0 km/h
881 02-10-2010 08:16:03 11.3 C 9.69 g/m*3 11.3 C 0 km/h
882 02-10-2010 08:28:03 11.4 C 9.75 g/m*3 11.4 C 0 km/h
883 02-10-2010 08:40:02 11.5 C 9.81 g/m*3 11.5 C 0 km/h
884 02-10-2010 08:52:02 11.8 C 10 g/m*3 11.8 C 0 km/h
885 02-10-2010 09:04:02 11.8 C 10 g/m*3 11.8 C 0 km/h
886 02-10-2010 09:16:02 11.8 C 10 g/m*3 11.8 C 0 km/h
887 02-10-2010 09:28:02 12 C 10.12 g/m*3 12 C 0 km/h
888 02-10-2010 09:40:02 12.1 C 10.19 g/m*3 12.1 C 0 km/h
889 02-10-2010 09:52:02 12.3 C 10.32 g/m*3 12.3 C 0 km/h
890 02-10-2010 10:04:02 12.6 C 10.51 g/m*3 12.6 C 0 km/h
891 02-10-2010 10:16:02 13 C 10.66 g/m*3 13 C 0 km/h
892 02-10-2010 10:28:02 13 C 10.66 g/m*3 13 C 0 km/h
893 02-10-2010 10:40:01 13.3 C 10.86 g/m*3 13.3 C 0 km/h
894 02-10-2010 10:52:02 13.8 C 11.08 g/m*3 13.8 C 0 km/h
895 02-10-2010 11:04:01 14 C 11.1 g/m*3 14 C 0 km/h
896 02-10-2010 11:16:01 14.4 C 11.37 g/m*3 14.4 C 0 km/h
897 02-10-2010 11:28:01 14.4 C 11.37 g/m*3 14.4 C 0 km/h
898 02-10-2010 11:40:02 14.4 C 11.25 g/m*3 14.4 C 0 km/h
899 02-10-2010 11:52:02 14.4 C 11.25 g/m*3 14.4 C 0 km/h
900 02-10-2010 12:04:02 14.5 C 11.32 g/m*3 14.5 C 0 km/h
Sensor: Nr:Datum:Temp:Abs-Feuchte:Windchill:Wind:
Aussen-T/F 901 02-10-2010 12:16:02 14.7 C 11.46 g/m*3 14.7 C 0 km/h
902 02-10-2010 12:28:02 15.2 C 11.68 g/m*3 15.2 C 0 km/h
903 02-10-2010 12:40:02 15.4 C 11.69 g/m*3 15.4 C 0 km/h
904 02-10-2010 12:52:02 15.4 C 11.43 g/m*3 15.4 C 0 km/h
905 02-10-2010 13:04:02 15.5 C 11.5 g/m*3 15.5 C 0 km/h
906 02-10-2010 13:16:02 15.6 C 11.57 g/m*3 15.6 C 0 km/h
907 02-10-2010 13:28:02 15.7 C 11.64 g/m*3 15.7 C 0 km/h
908 02-10-2010 13:40:02 15.9 C 11.65 g/m*3 15.9 C 0 km/h
909 02-10-2010 13:52:01 16 C 11.31 g/m*3 16 C 0 km/h
910 02-10-2010 14:04:01 15.7 C 11.24 g/m*3 15.7 C 0 km/h
911 02-10-2010 14:16:02 15.4 C 11.17 g/m*3 15.4 C 0 km/h
912 02-10-2010 14:28:02 15.4 C 11.3 g/m*3 15.4 C 0 km/h
913 02-10-2010 14:40:01 15.7 C 11.64 g/m*3 15.7 C 0 km/h
914 02-10-2010 14:52:03 16 C 11.72 g/m*3 16 C 0 km/h
915 02-10-2010 15:04:02 15.8 C 11.71 g/m*3 15.8 C 0 km/h
916 02-10-2010 15:16:02 15.9 C 11.65 g/m*3 15.9 C 0 km/h
917 02-10-2010 15:28:02 16 C 11.44 g/m*3 16 C 0 km/h
918 02-10-2010 15:40:02 16.2 C 11.31 g/m*3 16.2 C 0 km/h
919 02-10-2010 15:52:02 16.1 C 11.24 g/m*3 16.1 C 0 km/h
920 02-10-2010 16:04:02 16.2 C 11.31 g/m*3 16.2 C 0 km/h
921 02-10-2010 16:16:02 16.1 C 10.97 g/m*3 16.1 C 0 km/h
922 02-10-2010 16:28:02 16.2 C 11.03 g/m*3 16.2 C 0 km/h
923 02-10-2010 16:40:02 16.4 C 11.17 g/m*3 16.4 C 0 km/h
924 02-10-2010 16:52:02 16.3 C 10.96 g/m*3 16.3 C 0 km/h
925 02-10-2010 17:04:01 16.4 C 11.03 g/m*3 16.4 C 0 km/h
Sensor: Nr:Datum:Temp:Abs-Feuchte:Windchill:Wind:
Aussen-T/F 926 02-10-2010 17:16:01 16.3 C 10.82 g/m*3 16.3 C 0 km/h
927 02-10-2010 17:28:01 16.3 C 10.96 g/m*3 16.3 C 0 km/h
928 02-10-2010 17:40:02 16.3 C 10.96 g/m*3 16.3 C 0 km/h
929 02-10-2010 17:52:02 16.1 C 10.83 g/m*3 16.1 C 0 km/h
930 02-10-2010 18:04:02 15.9 C 10.97 g/m*3 15.9 C 0 km/h
931 02-10-2010 18:16:02 15.6 C 10.91 g/m*3 15.6 C 0 km/h
932 02-10-2010 18:28:02 15.3 C 10.84 g/m*3 15.3 C 0 km/h
933 02-10-2010 18:40:02 15.2 C 10.9 g/m*3 15.2 C 0 km/h
934 02-10-2010 18:52:02 15.1 C 10.97 g/m*3 15.1 C 0 km/h
935 02-10-2010 19:04:02 15 C 10.9 g/m*3 15 C 0 km/h
936 02-10-2010 19:16:02 15 C 10.9 g/m*3 15 C 0 km/h
937 02-10-2010 19:28:02 15 C 10.9 g/m*3 15 C 0 km/h
938 02-10-2010 19:40:02 14.9 C 10.96 g/m*3 14.9 C 0 km/h
939 02-10-2010 19:52:01 14.8 C 11.02 g/m*3 14.8 C 0 km/h
940 02-10-2010 20:04:01 14.8 C 11.02 g/m*3 14.8 C 0 km/h
941 02-10-2010 20:16:02 14.9 C 11.22 g/m*3 14.9 C 0 km/h
942 02-10-2010 20:28:02 14.9 C 11.22 g/m*3 14.9 C 0 km/h
943 02-10-2010 20:40:01 14.8 C 11.02 g/m*3 14.8 C 0 km/h
944 02-10-2010 20:52:01 14.6 C 11.01 g/m*3 14.6 C 0 km/h
945 02-10-2010 21:04:01 14.6 C 11.01 g/m*3 14.6 C 0 km/h
946 02-10-2010 21:16:02 14.5 C 10.94 g/m*3 14.5 C 0 km/h
947 02-10-2010 21:28:02 14.5 C 11.07 g/m*3 14.5 C 0 km/h
948 02-10-2010 21:40:01 14.5 C 11.07 g/m*3 14.5 C 0 km/h
949 02-10-2010 21:53:02 14.4 C 11 g/m*3 14.4 C 0 km/h
950 02-10-2010 22:05:02 14.4 C 11 g/m*3 14.4 C 0 km/h
Sensor: Nr:Datum:Temp:Abs-Feuchte:Windchill:Wind:
Aussen-T/F 951 02-10-2010 22:17:02 14.4 C 11.13 g/m*3 14.4 C 0 km/h
952 02-10-2010 22:29:02 14.4 C 11.13 g/m*3 14.4 C 0 km/h
953 02-10-2010 22:41:02 14.5 C 11.19 g/m*3 14.5 C 0 km/h
954 02-10-2010 22:53:02 14.7 C 11.33 g/m*3 14.7 C 0 km/h
955 02-10-2010 23:05:02 14.7 C 11.33 g/m*3 14.7 C 0 km/h
956 02-10-2010 23:17:02 14.6 C 11.14 g/m*3 14.6 C 0 km/h
957 02-10-2010 23:29:03 14.5 C 11.07 g/m*3 14.5 C 0 km/h
958 02-10-2010 23:41:03 14.5 C 11.07 g/m*3 14.5 C 0 km/h
959 02-10-2010 23:53:03 14.5 C 11.07 g/m*3 14.5 C 0 km/h
960 03-10-2010 00:05:03 14.6 C 11.14 g/m*3 14.6 C 0 km/h
961 03-10-2010 00:17:03 14.4 C 11 g/m*3 14.4 C 0 km/h
962 03-10-2010 00:29:03 14.3 C 10.93 g/m*3 14.3 C 0 km/h
963 03-10-2010 00:41:03 14.4 C 11.13 g/m*3 14.4 C 0 km/h
964 03-10-2010 00:53:03 14.5 C 11.19 g/m*3 14.5 C 0 km/h
965 03-10-2010 01:05:03 14.5 C 11.07 g/m*3 14.5 C 0 km/h
966 03-10-2010 01:17:03 14.6 C 10.89 g/m*3 14.6 C 0 km/h
967 03-10-2010 01:29:03 14.7 C 10.58 g/m*3 14.7 C 0 km/h
968 03-10-2010 01:41:03 14.8 C 10.51 g/m*3 14.8 C 0 km/h
969 03-10-2010 01:53:03 14.9 C 10.45 g/m*3 14.9 C 0 km/h
970 03-10-2010 02:05:03 15 C 10.26 g/m*3 15 C 0 km/h
971 03-10-2010 02:17:03 14.8 C 10.39 g/m*3 14.8 C 0 km/h
972 03-10-2010 02:29:03 14.6 C 10.39 g/m*3 14.6 C 0 km/h
973 03-10-2010 02:41:03 14.4 C 10.26 g/m*3 14.4 C 0 km/h
974 03-10-2010 02:53:03 14.1 C 10.32 g/m*3 14.1 C 0 km/h
975 03-10-2010 03:05:03 14 C 10.37 g/m*3 14 C 0 km/h
Sensor: Nr:Datum:Temp:Abs-Feuchte:Windchill:Wind:
Aussen-T/F 976 03-10-2010 03:17:03 13.8 C 10.48 g/m*3 13.8 C 0 km/h
977 03-10-2010 03:29:04 13.8 C 10.6 g/m*3 13.8 C 0 km/h
978 03-10-2010 03:41:04 13.9 C 10.67 g/m*3 13.9 C 0 km/h
979 03-10-2010 03:53:04 14.1 C 10.8 g/m*3 14.1 C 0 km/h
980 03-10-2010 04:05:04 14 C 10.74 g/m*3 14 C 0 km/h
981 03-10-2010 04:17:04 14.1 C 10.68 g/m*3 14.1 C 0 km/h
982 03-10-2010 04:29:04 14 C 10.61 g/m*3 14 C 0 km/h
983 03-10-2010 04:41:04 14 C 10.49 g/m*3 14 C 0 km/h
984 03-10-2010 04:53:04 14.3 C 10.57 g/m*3 14.3 C 0 km/h
985 03-10-2010 05:05:04 14.3 C 10.44 g/m*3 14.3 C 0 km/h
986 03-10-2010 05:17:04 14.4 C 10.38 g/m*3 14.4 C 0 km/h
987 03-10-2010 05:29:04 14.4 C 10.38 g/m*3 14.4 C 0 km/h
988 03-10-2010 05:41:04 14.2 C 10.26 g/m*3 14.2 C 0 km/h
989 03-10-2010 05:53:04 14 C 10.25 g/m*3 14 C 0 km/h
990 03-10-2010 06:05:04 13.8 C 10.37 g/m*3 13.8 C 0 km/h
991 03-10-2010 06:17:04 13.5 C 10.18 g/m*3 13.5 C 0 km/h
992 03-10-2010 06:29:04 13.4 C 10.23 g/m*3 13.4 C 0 km/h
993 03-10-2010 06:41:04 13.3 C 10.17 g/m*3 13.3 C 0 km/h
994 03-10-2010 06:53:04 13.3 C 10.28 g/m*3 13.3 C 0 km/h
995 03-10-2010 07:05:04 13.3 C 10.28 g/m*3 13.3 C 0 km/h
996 03-10-2010 07:17:04 13.4 C 10.46 g/m*3 13.4 C 0 km/h
997 03-10-2010 07:29:04 13.4 C 10.46 g/m*3 13.4 C 0 km/h
998 03-10-2010 07:41:05 13.5 C 10.53 g/m*3 13.5 C 0 km/h
999 03-10-2010 07:53:02 13.5 C 10.41 g/m*3 13.5 C 0 km/h
1000 03-10-2010 08:05:01 13.7 C 10.42 g/m*3 13.7 C 0 km/h
Sensor: Nr:Datum:Temp:Abs-Feuchte:Windchill:Wind:
Aussen-T/F 1001 03-10-2010 08:17:02 13.9 C 10.43 g/m*3 13.9 C 0 km/h
1002 03-10-2010 08:29:02 13.9 C 10.43 g/m*3 13.9 C 0 km/h
1003 03-10-2010 08:41:01 14.1 C 10.44 g/m*3 14.1 C 0 km/h
1004 03-10-2010 08:53:03 14.3 C 10.32 g/m*3 14.3 C 0 km/h
1005 03-10-2010 09:05:02 14.8 C 10.26 g/m*3 14.8 C 0 km/h
1006 03-10-2010 09:17:02 15 C 10 g/m*3 15 C 0 km/h
1007 03-10-2010 09:29:03 15.1 C 9.93 g/m*3 15.1 C 0 km/h
1008 03-10-2010 09:41:02 15.2 C 10.12 g/m*3 15.2 C 0 km/h
1009 03-10-2010 09:53:02 15.5 C 10.05 g/m*3 15.5 C 0 km/h
1010 03-10-2010 10:05:02 16.2 C 10.2 g/m*3 16.2 C 0 km/h
1011 03-10-2010 10:17:02 16.9 C 9.92 g/m*3 16.9 C 0 km/h
1012 03-10-2010 10:29:03 17 C 9.69 g/m*3 17 C 0 km/h
1013 03-10-2010 10:41:01 17 C 9.84 g/m*3 17 C 0 km/h
1014 03-10-2010 10:53:02 16.8 C 9.87 g/m*3 16.8 C 0 km/h
1015 03-10-2010 11:05:01 17.2 C 9.81 g/m*3 17.2 C 0 km/h
1016 03-10-2010 11:17:02 17.6 C 10.35 g/m*3 17.6 C 0 km/h
1017 03-10-2010 11:29:02 17.9 C 10.23 g/m*3 17.9 C 0 km/h
1018 03-10-2010 11:41:02 18.5 C 9.97 g/m*3 18.5 C 0 km/h
1019 03-10-2010 11:53:02 19.5 C 10.24 g/m*3 19.5 C 0 km/h
1020 03-10-2010 12:05:03 19.7 C 9.85 g/m*3 19.7 C 0 km/h
1021 03-10-2010 12:17:02 19.7 C 10.02 g/m*3 19.7 C 0 km/h
1022 03-10-2010 12:29:02 19.3 C 9.45 g/m*3 19.3 C 0 km/h
1023 03-10-2010 12:41:02 19.7 C 9.68 g/m*3 19.7 C 0 km/h
1024 03-10-2010 12:53:01 20 C 9.68 g/m*3 20 C 0 km/h
1025 03-10-2010 13:05:02 20.7 C 9.9 g/m*3 20.7 C 0 km/h
Sensor: Nr:Datum:Temp:Abs-Feuchte:Windchill:Wind:
Aussen-T/F 1026 03-10-2010 13:17:01 21.1 C 9.58 g/m*3 21.1 C 0 km/h
1027 03-10-2010 13:29:01 21.5 C 9.62 g/m*3 21.5 C 0 km/h
1028 03-10-2010 13:41:01 21.7 C 8.97 g/m*3 21.7 C 0 km/h
1029 03-10-2010 13:53:01 21.8 C 9.02 g/m*3 21.8 C 0 km/h
1030 03-10-2010 14:05:02 22.2 C 8.83 g/m*3 22.2 C 0 km/h
1031 03-10-2010 14:17:01 22.7 C 9.5 g/m*3 22.7 C 0 km/h
1032 03-10-2010 14:29:01 23.2 C 9.15 g/m*3 23.2 C 0 km/h
1033 03-10-2010 14:41:01 24.4 C 9.12 g/m*3 24.4 C 0 km/h
1034 03-10-2010 14:53:01 24.2 C 8.8 g/m*3 24.2 C 0 km/h
1035 03-10-2010 15:05:02 24.4 C 8.68 g/m*3 24.4 C 0 km/h
1036 03-10-2010 15:17:02 24.4 C 8.68 g/m*3 24.4 C 0 km/h
1037 03-10-2010 15:29:02 24.5 C 8.5 g/m*3 24.5 C 0 km/h
1038 03-10-2010 15:41:01 24.9 C 8.7 g/m*3 24.9 C 0 km/h
1039 03-10-2010 15:53:02 25.4 C 8.48 g/m*3 25.4 C 0 km/h
1040 03-10-2010 16:05:01 24.6 C 8.33 g/m*3 24.6 C 0 km/h
1041 03-10-2010 16:17:02 24.7 C 8.37 g/m*3 24.7 C 0 km/h
1042 03-10-2010 16:29:02 25.1 C 8.57 g/m*3 25.1 C 0 km/h
1043 03-10-2010 16:41:01 25.4 C 8.95 g/m*3 25.4 C 0 km/h
1044 03-10-2010 16:53:03 25.8 C 9.15 g/m*3 25.8 C 0 km/h
1045 03-10-2010 17:05:02 26.1 C 9.3 g/m*3 26.1 C 0 km/h
1046 03-10-2010 17:17:02 25.6 C 9.05 g/m*3 25.6 C 0 km/h
1047 03-10-2010 17:29:02 25.6 C 9.52 g/m*3 25.6 C 0 km/h
1048 03-10-2010 17:41:03 24.4 C 9.35 g/m*3 24.4 C 0 km/h
1049 03-10-2010 17:53:02 24.4 C 9.57 g/m*3 24.4 C 0 km/h
1050 03-10-2010 18:05:01 23.6 C 10.21 g/m*3 23.6 C 0 km/h
Sensor: Nr:Datum:Temp:Abs-Feuchte:Windchill:Wind:
Aussen-T/F 1051 03-10-2010 18:17:02 22.5 C 10.39 g/m*3 22.5 C 0 km/h
1052 03-10-2010 18:29:02 21.4 C 10.5 g/m*3 21.4 C 0 km/h
1053 03-10-2010 18:41:02 20.4 C 10.61 g/m*3 20.4 C 0 km/h
1054 03-10-2010 18:53:02 19.8 C 10.76 g/m*3 19.8 C 0 km/h
1055 03-10-2010 19:05:03 19.3 C 10.95 g/m*3 19.3 C 0 km/h
1056 03-10-2010 19:17:02 19 C 10.76 g/m*3 19 C 0 km/h
1057 03-10-2010 19:29:02 18.9 C 10.85 g/m*3 18.9 C 0 km/h
1058 03-10-2010 19:41:02 18.4 C 10.85 g/m*3 18.4 C 0 km/h
1059 03-10-2010 19:53:01 18.3 C 10.79 g/m*3 18.3 C 0 km/h
1060 03-10-2010 20:05:02 18.1 C 10.82 g/m*3 18.1 C 0 km/h
1061 03-10-2010 20:17:01 18.5 C 10.92 g/m*3 18.5 C 0 km/h
1062 03-10-2010 20:29:01 18.4 C 10.85 g/m*3 18.4 C 0 km/h
1063 03-10-2010 20:41:02 18.4 C 10.85 g/m*3 18.4 C 0 km/h
1064 03-10-2010 20:53:01 18.3 C 10.94 g/m*3 18.3 C 0 km/h
1065 03-10-2010 21:05:02 18.3 C 10.94 g/m*3 18.3 C 0 km/h
1066 03-10-2010 21:17:02 18.1 C 10.97 g/m*3 18.1 C 0 km/h
1067 03-10-2010 21:29:02 17.9 C 11.15 g/m*3 17.9 C 0 km/h
1068 03-10-2010 21:41:02 17.8 C 11.08 g/m*3 17.8 C 0 km/h
1069 03-10-2010 21:53:01 17.7 C 11.01 g/m*3 17.7 C 0 km/h
1070 03-10-2010 22:05:01 17.6 C 11.1 g/m*3 17.6 C 0 km/h
1071 03-10-2010 22:17:02 17.5 C 11.03 g/m*3 17.5 C 0 km/h
1072 03-10-2010 22:29:02 17.5 C 10.88 g/m*3 17.5 C 0 km/h
1073 03-10-2010 22:41:01 17.6 C 10.8 g/m*3 17.6 C 0 km/h
1074 03-10-2010 22:53:02 17.6 C 10.5 g/m*3 17.6 C 0 km/h
1075 03-10-2010 23:05:01 17.5 C 10.44 g/m*3 17.5 C 0 km/h
Sensor: Nr:Datum:Temp:Abs-Feuchte:Windchill:Wind:
Aussen-T/F 1076 03-10-2010 23:18:06 17.6 C 10.5 g/m*3 17.6 C 0 km/h
1077 03-10-2010 23:30:07 17.6 C 10.35 g/m*3 17.6 C 0 km/h
1078 03-10-2010 23:42:07 17.6 C 10.2 g/m*3 17.6 C 0 km/h
1079 03-10-2010 23:54:07 17.5 C 10.14 g/m*3 17.5 C 0 km/h
1080 04-10-2010 00:06:07 17.4 C 9.93 g/m*3 17.4 C 0 km/h
1081 04-10-2010 00:18:07 17.4 C 9.93 g/m*3 17.4 C 0 km/h
1082 04-10-2010 00:30:07 17.2 C 9.81 g/m*3 17.2 C 0 km/h
1083 04-10-2010 00:42:07 17.2 C 9.81 g/m*3 17.2 C 0 km/h
1084 04-10-2010 00:54:07 17.2 C 9.81 g/m*3 17.2 C 0 km/h
1085 04-10-2010 01:06:07 17.2 C 9.81 g/m*3 17.2 C 0 km/h
1086 04-10-2010 01:18:07 17.2 C 9.67 g/m*3 17.2 C 0 km/h
1087 04-10-2010 01:30:07 17.2 C 9.52 g/m*3 17.2 C 0 km/h
1088 04-10-2010 01:42:07 17.2 C 9.52 g/m*3 17.2 C 0 km/h
1089 04-10-2010 01:54:07 17.1 C 9.46 g/m*3 17.1 C 0 km/h
1090 04-10-2010 02:06:07 17 C 9.55 g/m*3 17 C 0 km/h
1091 04-10-2010 02:18:07 16.9 C 9.64 g/m*3 16.9 C 0 km/h
1092 04-10-2010 02:30:07 16.8 C 9.72 g/m*3 16.8 C 0 km/h
1093 04-10-2010 02:42:07 16.8 C 9.58 g/m*3 16.8 C 0 km/h
1094 04-10-2010 02:54:07 16.6 C 9.75 g/m*3 16.6 C 0 km/h
1095 04-10-2010 03:06:07 16.4 C 9.77 g/m*3 16.4 C 0 km/h
1096 04-10-2010 03:18:07 15.9 C 10.02 g/m*3 15.9 C 0 km/h
1097 04-10-2010 03:30:08 15.6 C 9.97 g/m*3 15.6 C 0 km/h
1098 04-10-2010 03:42:08 15.5 C 10.05 g/m*3 15.5 C 0 km/h
1099 04-10-2010 03:54:08 15.4 C 9.99 g/m*3 15.4 C 0 km/h
1100 04-10-2010 04:06:08 15.3 C 9.92 g/m*3 15.3 C 0 km/h
Sensor: Nr:Datum:Temp:Abs-Feuchte:Windchill:Wind:
Aussen-T/F 1101 04-10-2010 04:18:08 15.2 C 9.99 g/m*3 15.2 C 0 km/h
1102 04-10-2010 04:30:08 15.2 C 9.99 g/m*3 15.2 C 0 km/h
1103 04-10-2010 04:42:08 15 C 10 g/m*3 15 C 0 km/h
1104 04-10-2010 04:54:08 14.8 C 10.01 g/m*3 14.8 C 0 km/h
1105 04-10-2010 05:06:08 14.6 C 10.01 g/m*3 14.6 C 0 km/h
1106 04-10-2010 05:18:08 14.4 C 9.89 g/m*3 14.4 C 0 km/h
1107 04-10-2010 05:30:08 14.3 C 9.95 g/m*3 14.3 C 0 km/h
1108 04-10-2010 05:42:08 14.1 C 9.95 g/m*3 14.1 C 0 km/h
1109 04-10-2010 05:54:08 14.1 C 9.95 g/m*3 14.1 C 0 km/h
1110 04-10-2010 06:06:08 14.2 C 10.01 g/m*3 14.2 C 0 km/h
1111 04-10-2010 06:18:08 13.9 C 10.07 g/m*3 13.9 C 0 km/h
1112 04-10-2010 06:30:08 14 C 9.89 g/m*3 14 C 0 km/h
1113 04-10-2010 06:42:08 13.8 C 9.89 g/m*3 13.8 C 0 km/h
1114 04-10-2010 06:54:08 13.7 C 9.83 g/m*3 13.7 C 0 km/h
1115 04-10-2010 07:06:03 13.8 C 10.01 g/m*3 13.8 C 0 km/h
1116 04-10-2010 07:18:02 13.7 C 9.83 g/m*3 13.7 C 0 km/h
1117 04-10-2010 07:30:02 13.5 C 9.71 g/m*3 13.5 C 0 km/h
1118 04-10-2010 07:42:03 13.5 C 9.71 g/m*3 13.5 C 0 km/h
1119 04-10-2010 07:54:02 13.6 C 9.89 g/m*3 13.6 C 0 km/h
1120 04-10-2010 08:06:02 13.8 C 9.89 g/m*3 13.8 C 0 km/h
1121 04-10-2010 08:18:02 14.1 C 9.95 g/m*3 14.1 C 0 km/h
1122 04-10-2010 08:30:02 14.3 C 9.83 g/m*3 14.3 C 0 km/h
1123 04-10-2010 08:42:03 14.4 C 9.64 g/m*3 14.4 C 0 km/h
1124 04-10-2010 08:54:02 14.7 C 9.69 g/m*3 14.7 C 0 km/h
1125 04-10-2010 09:06:02 14.9 C 9.56 g/m*3 14.9 C 0 km/h
Sensor: Nr:Datum:Temp:Abs-Feuchte:Windchill:Wind:
Aussen-T/F 1126 04-10-2010 09:18:02 15 C 9.23 g/m*3 15 C 0 km/h
1127 04-10-2010 09:30:02 15 C 9.1 g/m*3 15 C 0 km/h
1128 04-10-2010 09:42:02 15 C 9.1 g/m*3 15 C 0 km/h
1129 04-10-2010 09:54:02 15.1 C 9.16 g/m*3 15.1 C 0 km/h
1130 04-10-2010 10:06:02 15.2 C 9.09 g/m*3 15.2 C 0 km/h
1131 04-10-2010 10:18:02 15.3 C 9.01 g/m*3 15.3 C 0 km/h
1132 04-10-2010 10:30:02 15.4 C 9.07 g/m*3 15.4 C 0 km/h
1133 04-10-2010 10:42:02 16 C 8.86 g/m*3 16 C 0 km/h
1134 04-10-2010 10:54:01 16.4 C 8.79 g/m*3 16.4 C 0 km/h
1135 04-10-2010 11:06:02 17.1 C 8.88 g/m*3 17.1 C 0 km/h
1136 04-10-2010 11:18:01 17.1 C 8.88 g/m*3 17.1 C 0 km/h
1137 04-10-2010 11:30:01 17.6 C 9 g/m*3 17.6 C 0 km/h
1138 04-10-2010 11:42:01 18 C 8.91 g/m*3 18 C 0 km/h
1139 04-10-2010 11:54:01 18.3 C 8.91 g/m*3 18.3 C 0 km/h
1140 04-10-2010 12:06:01 18.5 C 8.86 g/m*3 18.5 C 0 km/h
1141 04-10-2010 12:18:02 18 C 8.91 g/m*3 18 C 0 km/h
1142 04-10-2010 12:30:02 17.8 C 8.8 g/m*3 17.8 C 0 km/h
1143 04-10-2010 12:42:01 17.5 C 8.65 g/m*3 17.5 C 0 km/h
1144 04-10-2010 12:54:02 17.4 C 8.6 g/m*3 17.4 C 0 km/h
1145 04-10-2010 13:06:01 17.9 C 8.7 g/m*3 17.9 C 0 km/h
1146 04-10-2010 13:18:02 18.3 C 8.6 g/m*3 18.3 C 0 km/h
1147 04-10-2010 13:30:02 18.9 C 8.59 g/m*3 18.9 C 0 km/h
1148 04-10-2010 13:42:01 19.1 C 8.52 g/m*3 19.1 C 0 km/h
1149 04-10-2010 13:54:02 19.4 C 8.68 g/m*3 19.4 C 0 km/h
1150 04-10-2010 14:06:02 19.3 C 8.63 g/m*3 19.3 C 0 km/h
Sensor: Nr:Datum:Temp:Abs-Feuchte:Windchill:Wind:
Aussen-T/F 1151 04-10-2010 14:18:02 19.5 C 8.73 g/m*3 19.5 C 0 km/h
1152 04-10-2010 14:30:02 19.7 C 8.66 g/m*3 19.7 C 0 km/h
1153 04-10-2010 14:42:02 19.9 C 8.59 g/m*3 19.9 C 0 km/h
1154 04-10-2010 14:54:02 20.4 C 9.02 g/m*3 20.4 C 0 km/h
1155 04-10-2010 15:06:01 21.2 C 8.9 g/m*3 21.2 C 0 km/h
1156 04-10-2010 15:18:02 22.3 C 8.29 g/m*3 22.3 C 0 km/h
1157 04-10-2010 15:30:02 22.7 C 8.69 g/m*3 22.7 C 0 km/h
1158 04-10-2010 15:42:02 23 C 8.63 g/m*3 23 C 0 km/h
1159 04-10-2010 15:54:02 23.3 C 8.57 g/m*3 23.3 C 0 km/h
1160 04-10-2010 16:06:02 23.1 C 8.27 g/m*3 23.1 C 0 km/h
1161 04-10-2010 16:18:02 23.4 C 8.2 g/m*3 23.4 C 0 km/h
1162 04-10-2010 16:30:02 23.9 C 8.44 g/m*3 23.9 C 0 km/h
1163 04-10-2010 16:42:02 23.9 C 8 g/m*3 23.9 C 0 km/h
1164 04-10-2010 16:54:01 23.9 C 8.22 g/m*3 23.9 C 0 km/h
1165 04-10-2010 17:06:02 23.3 C 8.15 g/m*3 23.3 C 0 km/h
1166 04-10-2010 17:18:01 22 C 8.54 g/m*3 22 C 0 km/h
1167 04-10-2010 17:30:01 20.4 C 9.38 g/m*3 20.4 C 0 km/h
1168 04-10-2010 17:42:01 19.5 C 9.73 g/m*3 19.5 C 0 km/h
1169 04-10-2010 17:54:01 20.5 C 9.61 g/m*3 20.5 C 0 km/h
1170 04-10-2010 18:06:02 20.2 C 9.44 g/m*3 20.2 C 0 km/h
1171 04-10-2010 18:18:02 19.5 C 9.57 g/m*3 19.5 C 0 km/h
1172 04-10-2010 18:30:02 18.7 C 9.61 g/m*3 18.7 C 0 km/h
1173 04-10-2010 18:42:01 17.8 C 9.71 g/m*3 17.8 C 0 km/h
1174 04-10-2010 18:54:01 17.2 C 9.81 g/m*3 17.2 C 0 km/h
1175 04-10-2010 19:06:01 16.9 C 10.07 g/m*3 16.9 C 0 km/h
Sensor: Nr:Datum:Temp:Abs-Feuchte:Windchill:Wind:
Aussen-T/F 1176 04-10-2010 19:18:02 16.8 C 10.15 g/m*3 16.8 C 0 km/h
1177 04-10-2010 19:30:02 16.5 C 10.11 g/m*3 16.5 C 0 km/h
1178 04-10-2010 19:42:01 16.2 C 10.07 g/m*3 16.2 C 0 km/h
1179 04-10-2010 19:54:03 16.2 C 10.07 g/m*3 16.2 C 0 km/h
1180 04-10-2010 20:06:02 16.4 C 10.19 g/m*3 16.4 C 0 km/h
1181 04-10-2010 20:18:02 16.5 C 10.11 g/m*3 16.5 C 0 km/h
1182 04-10-2010 20:30:03 16.4 C 10.05 g/m*3 16.4 C 0 km/h
1183 04-10-2010 20:42:02 16.1 C 9.87 g/m*3 16.1 C 0 km/h
1184 04-10-2010 20:54:02 15.7 C 9.9 g/m*3 15.7 C 0 km/h
1185 04-10-2010 21:06:01 15.6 C 9.97 g/m*3 15.6 C 0 km/h
1186 04-10-2010 21:18:02 15.5 C 10.05 g/m*3 15.5 C 0 km/h
1187 04-10-2010 21:30:02 15.6 C 9.97 g/m*3 15.6 C 0 km/h
1188 04-10-2010 21:42:02 15.4 C 9.85 g/m*3 15.4 C 0 km/h
1189 04-10-2010 21:54:01 15 C 9.87 g/m*3 15 C 0 km/h
1190 04-10-2010 22:06:02 14.8 C 9.88 g/m*3 14.8 C 0 km/h
1191 04-10-2010 22:19:04 14.7 C 9.95 g/m*3 14.7 C 0 km/h
1192 04-10-2010 22:31:04 14.5 C 9.95 g/m*3 14.5 C 0 km/h
1193 04-10-2010 22:43:04 14.5 C 9.95 g/m*3 14.5 C 0 km/h
1194 04-10-2010 22:55:04 14.3 C 9.83 g/m*3 14.3 C 0 km/h
1195 04-10-2010 23:07:04 14.2 C 9.89 g/m*3 14.2 C 0 km/h
1196 04-10-2010 23:19:04 14.2 C 9.89 g/m*3 14.2 C 0 km/h
1197 04-10-2010 23:31:04 14.3 C 9.95 g/m*3 14.3 C 0 km/h
1198 04-10-2010 23:43:05 14.2 C 9.89 g/m*3 14.2 C 0 km/h
1199 04-10-2010 23:55:05 14.1 C 9.95 g/m*3 14.1 C 0 km/h
1200 05-10-2010 00:07:05 14.1 C 9.95 g/m*3 14.1 C 0 km/h
Sensor: Nr:Datum:Temp:Abs-Feuchte:Windchill:Wind:
Aussen-T/F 1201 05-10-2010 00:19:05 14.1 C 9.95 g/m*3 14.1 C 0 km/h
1202 05-10-2010 00:31:05 14.2 C 10.01 g/m*3 14.2 C 0 km/h
1203 05-10-2010 00:43:05 14.3 C 10.07 g/m*3 14.3 C 0 km/h
1204 05-10-2010 00:55:05 14.3 C 10.07 g/m*3 14.3 C 0 km/h
1205 05-10-2010 01:07:05 14.2 C 10.01 g/m*3 14.2 C 0 km/h
1206 05-10-2010 01:19:05 14.1 C 9.95 g/m*3 14.1 C 0 km/h
1207 05-10-2010 01:31:05 13.8 C 9.77 g/m*3 13.8 C 0 km/h
1208 05-10-2010 01:43:05 13.8 C 9.89 g/m*3 13.8 C 0 km/h
1209 05-10-2010 01:55:05 13.8 C 9.89 g/m*3 13.8 C 0 km/h
1210 05-10-2010 02:07:05 13.4 C 9.65 g/m*3 13.4 C 0 km/h
1211 05-10-2010 02:19:05 13.5 C 9.71 g/m*3 13.5 C 0 km/h
1212 05-10-2010 02:31:05 13.5 C 9.83 g/m*3 13.5 C 0 km/h
1213 05-10-2010 02:43:05 13.6 C 10 g/m*3 13.6 C 0 km/h
1214 05-10-2010 02:55:05 13.6 C 10 g/m*3 13.6 C 0 km/h
1215 05-10-2010 03:07:05 13.6 C 10 g/m*3 13.6 C 0 km/h
1216 05-10-2010 03:19:05 13.6 C 10 g/m*3 13.6 C 0 km/h
1217 05-10-2010 03:31:05 13.7 C 10.07 g/m*3 13.7 C 0 km/h
1218 05-10-2010 03:43:05 13.6 C 10 g/m*3 13.6 C 0 km/h
1219 05-10-2010 03:55:06 13.5 C 9.94 g/m*3 13.5 C 0 km/h
1220 05-10-2010 04:07:06 13.5 C 9.94 g/m*3 13.5 C 0 km/h
1221 05-10-2010 04:19:06 13.6 C 10.12 g/m*3 13.6 C 0 km/h
1222 05-10-2010 04:31:06 13.6 C 10.12 g/m*3 13.6 C 0 km/h
1223 05-10-2010 04:43:06 13.6 C 10.12 g/m*3 13.6 C 0 km/h
1224 05-10-2010 04:55:06 13.7 C 10.18 g/m*3 13.7 C 0 km/h
1225 05-10-2010 05:07:06 13.7 C 10.18 g/m*3 13.7 C 0 km/h
Sensor: Nr:Datum:Temp:Abs-Feuchte:Windchill:Wind:
Aussen-T/F 1226 05-10-2010 05:19:06 13.7 C 10.18 g/m*3 13.7 C 0 km/h
1227 05-10-2010 05:31:06 13.6 C 10.12 g/m*3 13.6 C 0 km/h
1228 05-10-2010 05:43:06 13.5 C 10.06 g/m*3 13.5 C 0 km/h
1229 05-10-2010 05:55:06 13.5 C 10.18 g/m*3 13.5 C 0 km/h
1230 05-10-2010 06:07:06 13.4 C 10.23 g/m*3 13.4 C 0 km/h
1231 05-10-2010 06:19:06 13.4 C 10.35 g/m*3 13.4 C 0 km/h
1232 05-10-2010 06:31:06 13.4 C 10.35 g/m*3 13.4 C 0 km/h
1233 05-10-2010 06:43:06 13.4 C 10.46 g/m*3 13.4 C 0 km/h
1234 05-10-2010 06:55:06 13.5 C 10.53 g/m*3 13.5 C 0 km/h
1235 05-10-2010 07:07:01 13.4 C 10.46 g/m*3 13.4 C 0 km/h
1236 05-10-2010 07:19:02 13.4 C 10.58 g/m*3 13.4 C 0 km/h
1237 05-10-2010 07:31:02 13.4 C 10.58 g/m*3 13.4 C 0 km/h
1238 05-10-2010 07:43:02 13.4 C 10.58 g/m*3 13.4 C 0 km/h
1239 05-10-2010 07:55:02 13.4 C 10.58 g/m*3 13.4 C 0 km/h
1240 05-10-2010 08:07:02 13.4 C 10.58 g/m*3 13.4 C 0 km/h
1241 05-10-2010 08:19:02 13.2 C 10.45 g/m*3 13.2 C 0 km/h
1242 05-10-2010 08:31:02 13.1 C 10.38 g/m*3 13.1 C 0 km/h
1243 05-10-2010 08:43:02 13 C 10.32 g/m*3 13 C 0 km/h
1244 05-10-2010 08:55:02 13 C 10.32 g/m*3 13 C 0 km/h
1245 05-10-2010 09:07:02 13 C 10.43 g/m*3 13 C 0 km/h
1246 05-10-2010 09:19:02 13.2 C 10.56 g/m*3 13.2 C 0 km/h
1247 05-10-2010 09:31:01 13.4 C 10.69 g/m*3 13.4 C 0 km/h
1248 05-10-2010 09:43:01 13.4 C 10.81 g/m*3 13.4 C 0 km/h
1249 05-10-2010 09:55:02 13.5 C 10.88 g/m*3 13.5 C 0 km/h
1250 05-10-2010 10:07:01 13.8 C 11.08 g/m*3 13.8 C 0 km/h
Sensor: Nr:Datum:Temp:Abs-Feuchte:Windchill:Wind:
Aussen-T/F 1251 05-10-2010 10:19:02 14.3 C 11.43 g/m*3 14.3 C 0 km/h
1252 05-10-2010 10:31:02 14.7 C 11.83 g/m*3 14.7 C 0 km/h
1253 05-10-2010 10:43:02 15.2 C 12.07 g/m*3 15.2 C 0 km/h
1254 05-10-2010 10:55:02 16 C 12.67 g/m*3 16 C 0 km/h
1255 05-10-2010 11:07:02 17.2 C 13.62 g/m*3 17.2 C 0 km/h
1256 05-10-2010 11:19:02 17.3 C 13.7 g/m*3 17.3 C 0 km/h
1257 05-10-2010 11:31:02 17.4 C 13.34 g/m*3 17.4 C 0 km/h
1258 05-10-2010 11:43:02 17.3 C 12.37 g/m*3 17.3 C 0 km/h
1259 05-10-2010 11:55:01 18.2 C 11.97 g/m*3 18.2 C 0 km/h
1260 05-10-2010 12:07:02 18.3 C 11.73 g/m*3 18.3 C 0 km/h
1261 05-10-2010 12:19:02 17.9 C 11.45 g/m*3 17.9 C 0 km/h
1262 05-10-2010 12:31:01 18 C 11.37 g/m*3 18 C 0 km/h
1263 05-10-2010 12:43:01 17.9 C 11.3 g/m*3 17.9 C 0 km/h
1264 05-10-2010 12:55:02 18.4 C 11.32 g/m*3 18.4 C 0 km/h
1265 05-10-2010 13:07:01 18.7 C 11.37 g/m*3 18.7 C 0 km/h
1266 05-10-2010 13:19:02 18.9 C 11.18 g/m*3 18.9 C 0 km/h
1267 05-10-2010 13:31:01 19 C 11.08 g/m*3 19 C 0 km/h
1268 05-10-2010 13:43:01 19.3 C 11.44 g/m*3 19.3 C 0 km/h
1269 05-10-2010 13:55:02 20 C 11.06 g/m*3 20 C 0 km/h
1270 05-10-2010 14:07:02 19.9 C 10.31 g/m*3 19.9 C 0 km/h
1271 05-10-2010 14:19:02 19.5 C 10.57 g/m*3 19.5 C 0 km/h
1272 05-10-2010 14:31:02 19.6 C 10.8 g/m*3 19.6 C 0 km/h
1273 05-10-2010 14:43:02 18.7 C 11.05 g/m*3 18.7 C 0 km/h
1274 05-10-2010 14:55:02 18.6 C 11.94 g/m*3 18.6 C 0 km/h
1275 05-10-2010 15:07:01 19 C 12.22 g/m*3 19 C 0 km/h
Sensor: Nr:Datum:Temp:Abs-Feuchte:Windchill:Wind:
Aussen-T/F 1276 05-10-2010 15:19:02 17.9 C 12.06 g/m*3 17.9 C 0 km/h
1277 05-10-2010 15:31:02 18.3 C 12.51 g/m*3 18.3 C 0 km/h
1278 05-10-2010 15:43:02 19.3 C 13.27 g/m*3 19.3 C 0 km/h
1279 05-10-2010 15:55:01 19.5 C 13.09 g/m*3 19.5 C 0 km/h
1280 05-10-2010 16:07:02 19 C 12.55 g/m*3 19 C 0 km/h
1281 05-10-2010 16:19:01 18.7 C 12.65 g/m*3 18.7 C 0 km/h
1282 05-10-2010 16:31:02 18.4 C 12.43 g/m*3 18.4 C 0 km/h
1283 05-10-2010 16:43:02 18.3 C 12.51 g/m*3 18.3 C 0 km/h
1284 05-10-2010 16:55:02 18.1 C 12.21 g/m*3 18.1 C 0 km/h
1285 05-10-2010 17:07:02 17.7 C 11.92 g/m*3 17.7 C 0 km/h
1286 05-10-2010 17:19:01 17.2 C 11.42 g/m*3 17.2 C 0 km/h
1287 05-10-2010 17:31:02 16.8 C 11.58 g/m*3 16.8 C 0 km/h
1288 05-10-2010 17:43:02 16.8 C 11.72 g/m*3 16.8 C 0 km/h
1289 05-10-2010 17:55:02 17 C 11.72 g/m*3 17 C 0 km/h
1290 05-10-2010 18:07:02 17.1 C 11.65 g/m*3 17.1 C 0 km/h
1291 05-10-2010 18:19:02 17.1 C 11.65 g/m*3 17.1 C 0 km/h
1292 05-10-2010 18:31:02 17.1 C 11.35 g/m*3 17.1 C 0 km/h
1293 05-10-2010 18:43:02 17 C 11.29 g/m*3 17 C 0 km/h
1294 05-10-2010 18:55:02 16.8 C 11.29 g/m*3 16.8 C 0 km/h
1295 05-10-2010 19:07:02 16.6 C 11.3 g/m*3 16.6 C 0 km/h
1296 05-10-2010 19:19:03 16.5 C 11.23 g/m*3 16.5 C 0 km/h
1297 05-10-2010 19:31:02 16.5 C 11.37 g/m*3 16.5 C 0 km/h
1298 05-10-2010 19:43:02 17.3 C 11.64 g/m*3 17.3 C 0 km/h
1299 05-10-2010 19:55:02 16.4 C 11.03 g/m*3 16.4 C 0 km/h
1300 05-10-2010 20:07:02 16.4 C 11.03 g/m*3 16.4 C 0 km/h
Sensor: Nr:Datum:Temp:Abs-Feuchte:Windchill:Wind:
Aussen-T/F 1301 05-10-2010 20:19:02 16.4 C 11.03 g/m*3 16.4 C 0 km/h
1302 05-10-2010 20:31:02 16.4 C 11.03 g/m*3 16.4 C 0 km/h
1303 05-10-2010 20:43:02 16.3 C 10.96 g/m*3 16.3 C 0 km/h
1304 05-10-2010 20:55:02 16.3 C 10.68 g/m*3 16.3 C 0 km/h
1305 05-10-2010 21:07:02 16.1 C 10.55 g/m*3 16.1 C 0 km/h
1306 05-10-2010 21:19:02 16 C 10.35 g/m*3 16 C 0 km/h
1307 05-10-2010 21:31:01 15.6 C 10.24 g/m*3 15.6 C 0 km/h
1308 05-10-2010 21:43:01 15.4 C 10.12 g/m*3 15.4 C 0 km/h
1309 05-10-2010 21:55:02 15.3 C 10.06 g/m*3 15.3 C 0 km/h
1310 05-10-2010 22:07:01 15.2 C 9.99 g/m*3 15.2 C 0 km/h
1311 05-10-2010 22:19:02 15.3 C 9.92 g/m*3 15.3 C 0 km/h
1312 05-10-2010 22:31:01 15.4 C 9.99 g/m*3 15.4 C 0 km/h
1313 05-10-2010 22:43:01 15.2 C 9.99 g/m*3 15.2 C 0 km/h
1314 05-10-2010 22:55:02 15.4 C 9.99 g/m*3 15.4 C 0 km/h
1315 05-10-2010 23:07:01 15.6 C 9.97 g/m*3 15.6 C 0 km/h
1316 05-10-2010 23:19:02 15.6 C 9.97 g/m*3 15.6 C 0 km/h
1317 05-10-2010 23:31:01 15.6 C 9.97 g/m*3 15.6 C 0 km/h
1318 05-10-2010 23:43:01 15.6 C 9.97 g/m*3 15.6 C 0 km/h
1319 05-10-2010 23:55:02 15.6 C 9.97 g/m*3 15.6 C 0 km/h
1320 06-10-2010 00:07:01 15.6 C 9.97 g/m*3 15.6 C 0 km/h
1321 06-10-2010 00:19:02 15.6 C 9.97 g/m*3 15.6 C 0 km/h
1322 06-10-2010 00:31:01 15.6 C 9.97 g/m*3 15.6 C 0 km/h
1323 06-10-2010 00:43:01 15.6 C 9.97 g/m*3 15.6 C 0 km/h
1324 06-10-2010 00:55:02 15.6 C 9.97 g/m*3 15.6 C 0 km/h
1325 06-10-2010 01:07:02 15.5 C 9.91 g/m*3 15.5 C 0 km/h
Sensor: Nr:Datum:Temp:Abs-Feuchte:Windchill:Wind:
Aussen-T/F 1326 06-10-2010 01:19:02 15.5 C 9.91 g/m*3 15.5 C 0 km/h
1327 06-10-2010 01:31:03 15.5 C 10.05 g/m*3 15.5 C 0 km/h
1328 06-10-2010 01:43:03 15.5 C 10.05 g/m*3 15.5 C 0 km/h
1329 06-10-2010 01:55:02 15.5 C 10.05 g/m*3 15.5 C 0 km/h
1330 06-10-2010 02:07:01 15.5 C 10.05 g/m*3 15.5 C 0 km/h
1331 06-10-2010 02:19:02 15.5 C 10.18 g/m*3 15.5 C 0 km/h
1332 06-10-2010 02:31:02 15.4 C 10.25 g/m*3 15.4 C 0 km/h
1333 06-10-2010 02:43:02 15.4 C 10.25 g/m*3 15.4 C 0 km/h
1334 06-10-2010 02:55:01 15.4 C 10.12 g/m*3 15.4 C 0 km/h
1335 06-10-2010 03:07:01 15.3 C 10.19 g/m*3 15.3 C 0 km/h
1336 06-10-2010 03:19:02 15.3 C 10.06 g/m*3 15.3 C 0 km/h
1337 06-10-2010 03:31:01 15.3 C 10.06 g/m*3 15.3 C 0 km/h
1338 06-10-2010 03:43:02 15.3 C 10.06 g/m*3 15.3 C 0 km/h
1339 06-10-2010 03:55:02 15.2 C 10.12 g/m*3 15.2 C 0 km/h
1340 06-10-2010 04:07:01 15.2 C 10.12 g/m*3 15.2 C 0 km/h
1341 06-10-2010 04:19:01 15.2 C 10.12 g/m*3 15.2 C 0 km/h
1342 06-10-2010 04:31:02 15.1 C 10.06 g/m*3 15.1 C 0 km/h
1343 06-10-2010 04:43:02 15 C 10 g/m*3 15 C 0 km/h
1344 06-10-2010 04:55:01 15 C 10.13 g/m*3 15 C 0 km/h
1345 06-10-2010 05:07:02 14.9 C 10.2 g/m*3 14.9 C 0 km/h
1346 06-10-2010 05:19:01 15 C 10.13 g/m*3 15 C 0 km/h
1347 06-10-2010 05:31:02 14.9 C 10.32 g/m*3 14.9 C 0 km/h
1348 06-10-2010 05:43:02 14.9 C 10.32 g/m*3 14.9 C 0 km/h
1349 06-10-2010 05:55:01 14.9 C 10.32 g/m*3 14.9 C 0 km/h
1350 06-10-2010 06:07:02 14.8 C 10.26 g/m*3 14.8 C 0 km/h
Sensor: Nr:Datum:Temp:Abs-Feuchte:Windchill:Wind:
Aussen-T/F 1351 06-10-2010 06:19:01 14.9 C 10.32 g/m*3 14.9 C 0 km/h
1352 06-10-2010 06:31:01 14.8 C 10.01 g/m*3 14.8 C 0 km/h
1353 06-10-2010 06:43:01 14.8 C 10.01 g/m*3 14.8 C 0 km/h
1354 06-10-2010 06:55:01 14.8 C 9.88 g/m*3 14.8 C 0 km/h
1355 06-10-2010 07:07:01 14.7 C 9.82 g/m*3 14.7 C 0 km/h
1356 06-10-2010 07:19:01 14.7 C 9.95 g/m*3 14.7 C 0 km/h
1357 06-10-2010 07:31:01 14.7 C 9.95 g/m*3 14.7 C 0 km/h
1358 06-10-2010 07:43:02 14.6 C 10.01 g/m*3 14.6 C 0 km/h
1359 06-10-2010 07:55:02 14.6 C 10.01 g/m*3 14.6 C 0 km/h
1360 06-10-2010 08:07:01 14.5 C 10.07 g/m*3 14.5 C 0 km/h
1361 06-10-2010 08:19:02 14.3 C 9.95 g/m*3 14.3 C 0 km/h
1362 06-10-2010 08:31:01 14.1 C 9.95 g/m*3 14.1 C 0 km/h
1363 06-10-2010 08:43:01 14.5 C 10.32 g/m*3 14.5 C 0 km/h
1364 06-10-2010 08:55:01 15.2 C 10.64 g/m*3 15.2 C 0 km/h
1365 06-10-2010 09:07:01 15.6 C 10.64 g/m*3 15.6 C 0 km/h
1366 06-10-2010 09:19:02 15.5 C 10.31 g/m*3 15.5 C 0 km/h
1367 06-10-2010 09:31:01 15.3 C 10.06 g/m*3 15.3 C 0 km/h
1368 06-10-2010 09:43:01 15.6 C 9.84 g/m*3 15.6 C 0 km/h
1369 06-10-2010 09:55:02 15.7 C 9.77 g/m*3 15.7 C 0 km/h
1370 06-10-2010 10:07:01 15.9 C 10.16 g/m*3 15.9 C 0 km/h
1371 06-10-2010 10:19:01 16.2 C 9.93 g/m*3 16.2 C 0 km/h
1372 06-10-2010 10:31:01 16.3 C 9.99 g/m*3 16.3 C 0 km/h
1373 06-10-2010 10:43:01 16.4 C 9.63 g/m*3 16.4 C 0 km/h
1374 06-10-2010 10:55:02 16.4 C 9.91 g/m*3 16.4 C 0 km/h
1375 06-10-2010 11:07:01 17.1 C 9.46 g/m*3 17.1 C 0 km/h
Sensor: Nr:Datum:Temp:Abs-Feuchte:Windchill:Wind:
Aussen-T/F 1376 06-10-2010 11:19:01 17.2 C 9.37 g/m*3 17.2 C 0 km/h
1377 06-10-2010 11:31:02 17.7 C 9.35 g/m*3 17.7 C 0 km/h
1378 06-10-2010 11:43:02 18.2 C 9.01 g/m*3 18.2 C 0 km/h
1379 06-10-2010 11:55:01 18.6 C 9.07 g/m*3 18.6 C 0 km/h
1380 06-10-2010 12:07:02 18.9 C 8.91 g/m*3 18.9 C 0 km/h
1381 06-10-2010 12:19:01 18.8 C 8.7 g/m*3 18.8 C 0 km/h
1382 06-10-2010 12:31:02 19 C 8.64 g/m*3 19 C 0 km/h
1383 06-10-2010 12:43:02 19.2 C 8.57 g/m*3 19.2 C 0 km/h
1384 06-10-2010 12:55:01 19.3 C 8.63 g/m*3 19.3 C 0 km/h
1385 06-10-2010 13:07:02 19.8 C 8.71 g/m*3 19.8 C 0 km/h
1386 06-10-2010 13:19:01 20.2 C 8.39 g/m*3 20.2 C 0 km/h
1387 06-10-2010 13:31:01 20.4 C 8.67 g/m*3 20.4 C 0 km/h
1388 06-10-2010 13:43:01 20.3 C 8.27 g/m*3 20.3 C 0 km/h
1389 06-10-2010 13:55:01 20.3 C 8.44 g/m*3 20.3 C 0 km/h
1390 06-10-2010 14:07:01 20.4 C 8.31 g/m*3 20.4 C 0 km/h
1391 06-10-2010 14:19:01 21 C 8.43 g/m*3 21 C 0 km/h
1392 06-10-2010 14:31:01 21.6 C 8.35 g/m*3 21.6 C 0 km/h
1393 06-10-2010 14:43:01 22.2 C 8.25 g/m*3 22.2 C 0 km/h
1394 06-10-2010 14:55:01 22.9 C 7.77 g/m*3 22.9 C 0 km/h
1395 06-10-2010 15:07:01 23.3 C 8.15 g/m*3 23.3 C 0 km/h
1396 06-10-2010 15:19:02 23.4 C 8.41 g/m*3 23.4 C 0 km/h
1397 06-10-2010 15:31:01 23.3 C 8.15 g/m*3 23.3 C 0 km/h
1398 06-10-2010 15:43:01 22.9 C 8.17 g/m*3 22.9 C 0 km/h
1399 06-10-2010 15:55:02 22.4 C 8.34 g/m*3 22.4 C 0 km/h
1400 06-10-2010 16:07:01 22.8 C 8.53 g/m*3 22.8 C 0 km/h
Sensor: Nr:Datum:Temp:Abs-Feuchte:Windchill:Wind:
Aussen-T/F 1401 06-10-2010 16:19:02 23.2 C 8.32 g/m*3 23.2 C 0 km/h
1402 06-10-2010 16:31:01 22.8 C 9.14 g/m*3 22.8 C 0 km/h
1403 06-10-2010 16:43:01 22.7 C 9.7 g/m*3 22.7 C 0 km/h
1404 06-10-2010 16:55:02 22.7 C 9.09 g/m*3 22.7 C 0 km/h
1405 06-10-2010 17:07:01 21.9 C 9.84 g/m*3 21.9 C 0 km/h
1406 06-10-2010 17:19:01 21.5 C 10.18 g/m*3 21.5 C 0 km/h
1407 06-10-2010 17:31:02 21.1 C 10.32 g/m*3 21.1 C 0 km/h
1408 06-10-2010 17:43:02 20.7 C 10.26 g/m*3 20.7 C 0 km/h
1409 06-10-2010 17:55:01 20.2 C 10.14 g/m*3 20.2 C 0 km/h
1410 06-10-2010 18:07:01 19.7 C 10.02 g/m*3 19.7 C 0 km/h
1411 06-10-2010 18:19:01 19.4 C 10.34 g/m*3 19.4 C 0 km/h
1412 06-10-2010 18:31:02 18.9 C 10.21 g/m*3 18.9 C 0 km/h
1413 06-10-2010 18:43:02 18.6 C 10.35 g/m*3 18.6 C 0 km/h
1414 06-10-2010 18:55:01 18.1 C 10.2 g/m*3 18.1 C 0 km/h
1415 06-10-2010 19:07:02 17.9 C 10.23 g/m*3 17.9 C 0 km/h
1416 06-10-2010 19:19:01 17.5 C 10.14 g/m*3 17.5 C 0 km/h
1417 06-10-2010 19:31:01 17.2 C 10.25 g/m*3 17.2 C 0 km/h
1418 06-10-2010 19:43:01 17 C 10.13 g/m*3 17 C 0 km/h
1419 06-10-2010 19:55:01 16.9 C 10.21 g/m*3 16.9 C 0 km/h
1420 06-10-2010 20:07:01 16.9 C 10.07 g/m*3 16.9 C 0 km/h
1421 06-10-2010 20:19:01 17 C 9.98 g/m*3 17 C 0 km/h
1422 06-10-2010 20:31:01 17 C 9.98 g/m*3 17 C 0 km/h
1423 06-10-2010 20:43:01 16.8 C 10.29 g/m*3 16.8 C 0 km/h
1424 06-10-2010 20:55:01 16.8 C 10.29 g/m*3 16.8 C 0 km/h
1425 06-10-2010 21:07:01 16.6 C 10.45 g/m*3 16.6 C 0 km/h
Sensor: Nr:Datum:Temp:Abs-Feuchte:Windchill:Wind:
Aussen-T/F 1426 06-10-2010 21:19:02 16.5 C 10.39 g/m*3 16.5 C 0 km/h
1427 06-10-2010 21:31:01 16.4 C 10.47 g/m*3 16.4 C 0 km/h
1428 06-10-2010 21:43:01 16.2 C 10.34 g/m*3 16.2 C 0 km/h
1429 06-10-2010 21:55:02 16.1 C 10.42 g/m*3 16.1 C 0 km/h
1430 06-10-2010 22:07:02 16 C 10.49 g/m*3 16 C 0 km/h
1431 06-10-2010 22:19:01 15.8 C 10.5 g/m*3 15.8 C 0 km/h
1432 06-10-2010 22:31:01 15.8 C 10.63 g/m*3 15.8 C 0 km/h
1433 06-10-2010 22:43:01 15.7 C 10.57 g/m*3 15.7 C 0 km/h
1434 06-10-2010 22:55:01 15.4 C 10.38 g/m*3 15.4 C 0 km/h
1435 06-10-2010 23:07:01 15.2 C 10.38 g/m*3 15.2 C 0 km/h
1436 06-10-2010 23:19:01 15 C 10.26 g/m*3 15 C 0 km/h
1437 06-10-2010 23:31:01 14.9 C 10.32 g/m*3 14.9 C 0 km/h
1438 06-10-2010 23:43:01 14.8 C 10.39 g/m*3 14.8 C 0 km/h
1439 06-10-2010 23:55:01 14.6 C 10.26 g/m*3 14.6 C 0 km/h
1440 07-10-2010 00:07:01 14.5 C 10.2 g/m*3 14.5 C 0 km/h
1441 07-10-2010 00:19:01 14.3 C 10.2 g/m*3 14.3 C 0 km/h
1442 07-10-2010 00:31:02 14.2 C 10.14 g/m*3 14.2 C 0 km/h
1443 07-10-2010 00:43:02 14.1 C 10.19 g/m*3 14.1 C 0 km/h
1444 07-10-2010 00:55:01 14 C 10.13 g/m*3 14 C 0 km/h
1445 07-10-2010 01:07:01 14 C 10.25 g/m*3 14 C 0 km/h
1446 07-10-2010 01:19:01 14.4 C 10.63 g/m*3 14.4 C 0 km/h
1447 07-10-2010 01:31:02 14.3 C 10.57 g/m*3 14.3 C 0 km/h
1448 07-10-2010 01:43:02 14.2 C 10.5 g/m*3 14.2 C 0 km/h
1449 07-10-2010 01:55:01 14.3 C 10.57 g/m*3 14.3 C 0 km/h
1450 07-10-2010 02:07:02 14.3 C 10.57 g/m*3 14.3 C 0 km/h
Sensor: Nr:Datum:Temp:Abs-Feuchte:Windchill:Wind:
Aussen-T/F 1451 07-10-2010 02:19:01 14.2 C 10.38 g/m*3 14.2 C 0 km/h
1452 07-10-2010 02:31:01 14.2 C 10.38 g/m*3 14.2 C 0 km/h
1453 07-10-2010 02:43:01 14.3 C 10.44 g/m*3 14.3 C 0 km/h
1454 07-10-2010 02:55:01 14.2 C 10.38 g/m*3 14.2 C 0 km/h
1455 07-10-2010 03:07:01 14.2 C 10.38 g/m*3 14.2 C 0 km/h
1456 07-10-2010 03:19:02 14.2 C 10.38 g/m*3 14.2 C 0 km/h
1457 07-10-2010 03:31:01 14 C 10.25 g/m*3 14 C 0 km/h
1458 07-10-2010 03:43:01 14 C 10.37 g/m*3 14 C 0 km/h
1459 07-10-2010 03:55:01 14 C 10.37 g/m*3 14 C 0 km/h
1460 07-10-2010 04:07:02 14.5 C 10.7 g/m*3 14.5 C 0 km/h
1461 07-10-2010 04:19:01 13.9 C 10.43 g/m*3 13.9 C 0 km/h
1462 07-10-2010 04:31:01 13.9 C 10.43 g/m*3 13.9 C 0 km/h
1463 07-10-2010 04:43:01 13.5 C 10.06 g/m*3 13.5 C 0 km/h
1464 07-10-2010 04:55:01 13.3 C 9.94 g/m*3 13.3 C 0 km/h
1465 07-10-2010 05:07:01 13.1 C 9.93 g/m*3 13.1 C 0 km/h
1466 07-10-2010 05:20:01 13 C 9.87 g/m*3 13 C 0 km/h
1467 07-10-2010 05:31:01 13.1 C 10.04 g/m*3 13.1 C 0 km/h
1468 07-10-2010 05:43:01 13.6 C 10.47 g/m*3 13.6 C 0 km/h
1469 07-10-2010 05:56:01 13.7 C 10.54 g/m*3 13.7 C 0 km/h
1470 07-10-2010 06:07:01 13.8 C 10.48 g/m*3 13.8 C 0 km/h
1471 07-10-2010 06:19:02 13.8 C 10.48 g/m*3 13.8 C 0 km/h
1472 07-10-2010 06:32:01 13.8 C 10.48 g/m*3 13.8 C 0 km/h
1473 07-10-2010 06:44:01 13.9 C 10.55 g/m*3 13.9 C 0 km/h
1474 07-10-2010 06:55:02 13.9 C 10.55 g/m*3 13.9 C 0 km/h
1475 07-10-2010 07:08:01 13.8 C 10.48 g/m*3 13.8 C 0 km/h
Sensor: Nr:Datum:Temp:Abs-Feuchte:Windchill:Wind:
Aussen-T/F 1476 07-10-2010 07:20:01 14 C 10.49 g/m*3 14 C 0 km/h
1477 07-10-2010 07:31:02 14.1 C 10.56 g/m*3 14.1 C 0 km/h
1478 07-10-2010 07:43:02 14.4 C 10.75 g/m*3 14.4 C 0 km/h
1479 07-10-2010 07:56:01 14.3 C 10.69 g/m*3 14.3 C 0 km/h
1480 07-10-2010 08:08:01 14.4 C 10.75 g/m*3 14.4 C 0 km/h
1481 07-10-2010 08:20:01 14.6 C 10.89 g/m*3 14.6 C 0 km/h
1482 07-10-2010 08:32:02 14.7 C 10.95 g/m*3 14.7 C 0 km/h
1483 07-10-2010 08:44:02 14.8 C 11.02 g/m*3 14.8 C 0 km/h
1484 07-10-2010 08:56:01 14.8 C 10.89 g/m*3 14.8 C 0 km/h
1485 07-10-2010 09:08:02 14.8 C 10.77 g/m*3 14.8 C 0 km/h
1486 07-10-2010 09:20:01 14.7 C 10.45 g/m*3 14.7 C 0 km/h
1487 07-10-2010 09:32:01 14.8 C 10.51 g/m*3 14.8 C 0 km/h
1488 07-10-2010 09:44:01 15.3 C 10.71 g/m*3 15.3 C 0 km/h
1489 07-10-2010 09:56:01 15.7 C 10.57 g/m*3 15.7 C 0 km/h
1490 07-10-2010 10:08:01 16.2 C 10.48 g/m*3 16.2 C 0 km/h
1491 07-10-2010 10:20:02 16.1 C 10.14 g/m*3 16.1 C 0 km/h
1492 07-10-2010 10:32:01 16.2 C 10.34 g/m*3 16.2 C 0 km/h
1493 07-10-2010 10:44:01 16.2 C 10.34 g/m*3 16.2 C 0 km/h
1494 07-10-2010 10:56:01 16.2 C 10.34 g/m*3 16.2 C 0 km/h
1495 07-10-2010 11:08:01 16.7 C 10.52 g/m*3 16.7 C 0 km/h
1496 07-10-2010 11:20:02 17.1 C 10.34 g/m*3 17.1 C 0 km/h
1497 07-10-2010 11:32:01 17.3 C 10.31 g/m*3 17.3 C 0 km/h
1498 07-10-2010 11:44:01 17.4 C 10.08 g/m*3 17.4 C 0 km/h
1499 07-10-2010 11:56:02 17.8 C 10.32 g/m*3 17.8 C 0 km/h
1500 07-10-2010 12:08:01 18.1 C 9.89 g/m*3 18.1 C 0 km/h
Sensor: Nr:Datum:Temp:Abs-Feuchte:Windchill:Wind:
Aussen-T/F 1501 07-10-2010 12:20:01 18.3 C 10.01 g/m*3 18.3 C 0 km/h
1502 07-10-2010 12:32:02 18.3 C 10.01 g/m*3 18.3 C 0 km/h
1503 07-10-2010 12:44:02 18.7 C 10.09 g/m*3 18.7 C 0 km/h
1504 07-10-2010 12:56:01 18.6 C 9.87 g/m*3 18.6 C 0 km/h
1505 07-10-2010 13:08:02 18.8 C 10.15 g/m*3 18.8 C 0 km/h
1506 07-10-2010 13:20:01 19.2 C 10.06 g/m*3 19.2 C 0 km/h
1507 07-10-2010 13:32:02 19.3 C 9.62 g/m*3 19.3 C 0 km/h
1508 07-10-2010 13:44:02 19.5 C 9.73 g/m*3 19.5 C 0 km/h
1509 07-10-2010 13:56:01 19.5 C 9.57 g/m*3 19.5 C 0 km/h
1510 07-10-2010 14:08:02 19.7 C 9.85 g/m*3 19.7 C 0 km/h
1511 07-10-2010 14:20:01 19.8 C 9.91 g/m*3 19.8 C 0 km/h
1512 07-10-2010 14:32:01 19.7 C 9.68 g/m*3 19.7 C 0 km/h
1513 07-10-2010 14:44:01 19.9 C 9.79 g/m*3 19.9 C 0 km/h
1514 07-10-2010 14:56:01 20.3 C 9.67 g/m*3 20.3 C 0 km/h
1515 07-10-2010 15:08:01 20.5 C 9.43 g/m*3 20.5 C 0 km/h
1516 07-10-2010 15:20:01 20.8 C 9.6 g/m*3 20.8 C 0 km/h
1517 07-10-2010 15:32:01 20.7 C 9.54 g/m*3 20.7 C 0 km/h
1518 07-10-2010 15:44:01 20.4 C 9.38 g/m*3 20.4 C 0 km/h
1519 07-10-2010 15:56:01 20.1 C 9.56 g/m*3 20.1 C 0 km/h
1520 07-10-2010 16:08:01 20 C 9.68 g/m*3 20 C 0 km/h
1521 07-10-2010 16:20:02 20.4 C 9.55 g/m*3 20.4 C 0 km/h
1522 07-10-2010 16:32:01 20.1 C 9.39 g/m*3 20.1 C 0 km/h
1523 07-10-2010 16:44:01 19.6 C 9.45 g/m*3 19.6 C 0 km/h
1524 07-10-2010 16:56:02 19.6 C 9.28 g/m*3 19.6 C 0 km/h
1525 07-10-2010 17:08:01 19.6 C 9.45 g/m*3 19.6 C 0 km/h
Sensor: Nr:Datum:Temp:Abs-Feuchte:Windchill:Wind:
Aussen-T/F 1526 07-10-2010 17:20:01 19.3 C 9.45 g/m*3 19.3 C 0 km/h
1527 07-10-2010 17:32:02 19.2 C 9.56 g/m*3 19.2 C 0 km/h
1528 07-10-2010 17:44:02 19 C 9.45 g/m*3 19 C 0 km/h
1529 07-10-2010 17:56:01 18.7 C 9.93 g/m*3 18.7 C 0 km/h
1530 07-10-2010 18:08:02 18.3 C 10.01 g/m*3 18.3 C 0 km/h
1531 07-10-2010 18:20:01 18.1 C 10.2 g/m*3 18.1 C 0 km/h
1532 07-10-2010 18:32:02 17.9 C 10.23 g/m*3 17.9 C 0 km/h
1533 07-10-2010 18:44:02 17.7 C 10.26 g/m*3 17.7 C 0 km/h
1534 07-10-2010 18:56:01 17.4 C 10.37 g/m*3 17.4 C 0 km/h
1535 07-10-2010 19:08:02 17.1 C 10.34 g/m*3 17.1 C 0 km/h
1536 07-10-2010 19:20:01 17 C 10.42 g/m*3 17 C 0 km/h
1537 07-10-2010 19:32:01 16.8 C 10.44 g/m*3 16.8 C 0 km/h
1538 07-10-2010 19:44:01 17 C 10.42 g/m*3 17 C 0 km/h
1539 07-10-2010 19:56:01 16.6 C 10.31 g/m*3 16.6 C 0 km/h
1540 07-10-2010 20:08:01 16.5 C 10.39 g/m*3 16.5 C 0 km/h
1541 07-10-2010 20:20:02 16.4 C 10.33 g/m*3 16.4 C 0 km/h
1542 07-10-2010 20:32:01 16.2 C 10.34 g/m*3 16.2 C 0 km/h
1543 07-10-2010 20:44:01 16.2 C 10.34 g/m*3 16.2 C 0 km/h
1544 07-10-2010 20:56:02 16.2 C 10.34 g/m*3 16.2 C 0 km/h
1545 07-10-2010 21:08:01 16.3 C 10.13 g/m*3 16.3 C 0 km/h
1546 07-10-2010 21:20:02 16.3 C 10.27 g/m*3 16.3 C 0 km/h
1547 07-10-2010 21:32:01 16.2 C 10.2 g/m*3 16.2 C 0 km/h
1548 07-10-2010 21:44:01 16.2 C 10.07 g/m*3 16.2 C 0 km/h
1549 07-10-2010 21:56:02 16.1 C 10.01 g/m*3 16.1 C 0 km/h
1550 07-10-2010 22:08:01 16 C 9.95 g/m*3 16 C 0 km/h
Sensor: Nr:Datum:Temp:Abs-Feuchte:Windchill:Wind:
Aussen-T/F 1551 07-10-2010 22:20:02 16 C 9.95 g/m*3 16 C 0 km/h
1552 07-10-2010 22:32:02 16 C 9.95 g/m*3 16 C 0 km/h
1553 07-10-2010 22:44:02 16 C 9.81 g/m*3 16 C 0 km/h
1554 07-10-2010 22:56:02 16 C 9.67 g/m*3 16 C 0 km/h
1555 07-10-2010 23:08:02 16.1 C 9.73 g/m*3 16.1 C 0 km/h
1556 07-10-2010 23:20:02 16 C 9.67 g/m*3 16 C 0 km/h
1557 07-10-2010 23:32:02 16 C 9.67 g/m*3 16 C 0 km/h
1558 07-10-2010 23:44:02 16 C 9.81 g/m*3 16 C 0 km/h
1559 07-10-2010 23:56:02 16 C 9.81 g/m*3 16 C 0 km/h
1560 08-10-2010 00:08:03 15.8 C 9.83 g/m*3 15.8 C 0 km/h
1561 08-10-2010 00:20:03 15.9 C 10.02 g/m*3 15.9 C 0 km/h
1562 08-10-2010 00:32:03 15.8 C 9.96 g/m*3 15.8 C 0 km/h
1563 08-10-2010 00:44:03 15.8 C 9.96 g/m*3 15.8 C 0 km/h
1564 08-10-2010 00:56:03 15.8 C 9.69 g/m*3 15.8 C 0 km/h
1565 08-10-2010 01:08:03 15.7 C 9.77 g/m*3 15.7 C 0 km/h
1566 08-10-2010 01:20:03 15.7 C 9.77 g/m*3 15.7 C 0 km/h
1567 08-10-2010 01:32:03 15.6 C 9.71 g/m*3 15.6 C 0 km/h
1568 08-10-2010 01:44:03 15.5 C 9.52 g/m*3 15.5 C 0 km/h
1569 08-10-2010 01:56:03 15.6 C 9.58 g/m*3 15.6 C 0 km/h
1570 08-10-2010 02:08:03 15.6 C 9.58 g/m*3 15.6 C 0 km/h
1571 08-10-2010 02:20:03 15.5 C 9.39 g/m*3 15.5 C 0 km/h
1572 08-10-2010 02:32:03 15.4 C 9.33 g/m*3 15.4 C 0 km/h
1573 08-10-2010 02:44:03 15.4 C 9.33 g/m*3 15.4 C 0 km/h
1574 08-10-2010 02:56:03 15.3 C 9.14 g/m*3 15.3 C 0 km/h
1575 08-10-2010 03:08:03 15.2 C 8.96 g/m*3 15.2 C 0 km/h
Sensor: Nr:Datum:Temp:Abs-Feuchte:Windchill:Wind:
Aussen-T/F 1576 08-10-2010 03:20:03 15 C 8.98 g/m*3 15 C 0 km/h
1577 08-10-2010 03:32:03 14.9 C 8.79 g/m*3 14.9 C 0 km/h
1578 08-10-2010 03:44:03 14.8 C 8.49 g/m*3 14.8 C 0 km/h
1579 08-10-2010 03:56:03 14.7 C 8.56 g/m*3 14.7 C 0 km/h
1580 08-10-2010 04:08:03 14.7 C 8.56 g/m*3 14.7 C 0 km/h
1581 08-10-2010 04:20:03 14.6 C 8.51 g/m*3 14.6 C 0 km/h
1582 08-10-2010 04:32:04 14.5 C 8.58 g/m*3 14.5 C 0 km/h
1583 08-10-2010 04:44:04 14.4 C 8.53 g/m*3 14.4 C 0 km/h
1584 08-10-2010 04:56:04 14.4 C 8.65 g/m*3 14.4 C 0 km/h
1585 08-10-2010 05:08:04 14.3 C 8.72 g/m*3 14.3 C 0 km/h
1586 08-10-2010 05:20:04 14.3 C 8.85 g/m*3 14.3 C 0 km/h
1587 08-10-2010 05:32:04 14.3 C 8.85 g/m*3 14.3 C 0 km/h
1588 08-10-2010 05:44:04 14.1 C 8.74 g/m*3 14.1 C 0 km/h
1589 08-10-2010 05:56:04 14.2 C 8.91 g/m*3 14.2 C 0 km/h
1590 08-10-2010 06:08:04 14.1 C 8.86 g/m*3 14.1 C 0 km/h
1591 08-10-2010 06:20:04 14 C 8.93 g/m*3 14 C 0 km/h
1592 08-10-2010 06:32:04 14 C 8.93 g/m*3 14 C 0 km/h
1593 08-10-2010 06:44:04 13.9 C 8.99 g/m*3 13.9 C 0 km/h
1594 08-10-2010 06:56:04 13.9 C 9.11 g/m*3 13.9 C 0 km/h
1595 08-10-2010 07:08:04 13.9 C 9.11 g/m*3 13.9 C 0 km/h
1596 08-10-2010 07:20:01 14 C 9.17 g/m*3 14 C 0 km/h
1597 08-10-2010 07:32:01 14.1 C 9.22 g/m*3 14.1 C 0 km/h
1598 08-10-2010 07:44:01 14.1 C 9.1 g/m*3 14.1 C 0 km/h
1599 08-10-2010 07:56:01 14 C 9.05 g/m*3 14 C 0 km/h
1600 08-10-2010 08:08:02 14 C 9.05 g/m*3 14 C 0 km/h
Sensor: Nr:Datum:Temp:Abs-Feuchte:Windchill:Wind:
Aussen-T/F 1601 08-10-2010 08:20:02 14.1 C 9.1 g/m*3 14.1 C 0 km/h
1602 08-10-2010 08:32:01 14.2 C 9.28 g/m*3 14.2 C 0 km/h
1603 08-10-2010 08:44:01 14.3 C 9.34 g/m*3 14.3 C 0 km/h
1604 08-10-2010 08:56:02 14.4 C 9.39 g/m*3 14.4 C 0 km/h
1605 08-10-2010 09:08:01 14.4 C 9.27 g/m*3 14.4 C 0 km/h
1606 08-10-2010 09:20:01 14.5 C 9.33 g/m*3 14.5 C 0 km/h
1607 08-10-2010 09:32:02 14.6 C 9.51 g/m*3 14.6 C 0 km/h
1608 08-10-2010 09:44:02 14.7 C 9.44 g/m*3 14.7 C 0 km/h
1609 08-10-2010 09:56:02 14.8 C 9.5 g/m*3 14.8 C 0 km/h
1610 08-10-2010 10:08:01 14.9 C 9.43 g/m*3 14.9 C 0 km/h
1611 08-10-2010 10:20:02 15.1 C 9.42 g/m*3 15.1 C 0 km/h
1612 08-10-2010 10:32:02 15.3 C 9.53 g/m*3 15.3 C 0 km/h
1613 08-10-2010 10:44:02 15.4 C 9.33 g/m*3 15.4 C 0 km/h
1614 08-10-2010 10:56:02 15.7 C 9.63 g/m*3 15.7 C 0 km/h
1615 08-10-2010 11:08:02 15.7 C 9.23 g/m*3 15.7 C 0 km/h
1616 08-10-2010 11:20:02 15.8 C 9.42 g/m*3 15.8 C 0 km/h
1617 08-10-2010 11:32:02 15.8 C 9.29 g/m*3 15.8 C 0 km/h
1618 08-10-2010 11:44:02 15.9 C 9.21 g/m*3 15.9 C 0 km/h
1619 08-10-2010 11:56:02 16.1 C 9.32 g/m*3 16.1 C 0 km/h
1620 08-10-2010 12:08:02 16.3 C 9.43 g/m*3 16.3 C 0 km/h
1621 08-10-2010 12:20:03 16.5 C 9.13 g/m*3 16.5 C 0 km/h
1622 08-10-2010 12:32:02 16.6 C 9.04 g/m*3 16.6 C 0 km/h
1623 08-10-2010 12:44:02 16.6 C 8.9 g/m*3 16.6 C 0 km/h
1624 08-10-2010 12:56:02 16.7 C 8.95 g/m*3 16.7 C 0 km/h
1625 08-10-2010 13:08:02 16.7 C 8.81 g/m*3 16.7 C 0 km/h
Sensor: Nr:Datum:Temp:Abs-Feuchte:Windchill:Wind:
Aussen-T/F 1626 08-10-2010 13:20:02 17 C 8.83 g/m*3 17 C 0 km/h
1627 08-10-2010 13:32:02 17 C 8.83 g/m*3 17 C 0 km/h
1628 08-10-2010 13:44:02 17 C 8.54 g/m*3 17 C 0 km/h
1629 08-10-2010 13:56:02 17 C 8.83 g/m*3 17 C 0 km/h
1630 08-10-2010 14:08:02 17.6 C 9 g/m*3 17.6 C 0 km/h
1631 08-10-2010 14:20:02 18.1 C 8.81 g/m*3 18.1 C 0 km/h
1632 08-10-2010 14:32:02 18.6 C 8.75 g/m*3 18.6 C 0 km/h
1633 08-10-2010 14:44:02 19.7 C 8.66 g/m*3 19.7 C 0 km/h
1634 08-10-2010 14:56:02 19.8 C 8.54 g/m*3 19.8 C 0 km/h
1635 08-10-2010 15:08:02 19.7 C 8.66 g/m*3 19.7 C 0 km/h
1636 08-10-2010 15:20:01 19.9 C 8.25 g/m*3 19.9 C 0 km/h
1637 08-10-2010 15:32:02 20.4 C 8.67 g/m*3 20.4 C 0 km/h
1638 08-10-2010 15:44:02 20.6 C 8.59 g/m*3 20.6 C 0 km/h
1639 08-10-2010 15:56:02 21 C 8.43 g/m*3 21 C 0 km/h
1640 08-10-2010 16:08:02 22 C 8.73 g/m*3 22 C 0 km/h
1641 08-10-2010 16:20:02 22.1 C 8.98 g/m*3 22.1 C 0 km/h
1642 08-10-2010 16:32:02 22.5 C 9.19 g/m*3 22.5 C 0 km/h
1643 08-10-2010 16:44:02 22.4 C 8.74 g/m*3 22.4 C 0 km/h
1644 08-10-2010 16:56:02 22 C 9.12 g/m*3 22 C 0 km/h
1645 08-10-2010 17:08:02 22.1 C 9.17 g/m*3 22.1 C 0 km/h
1646 08-10-2010 17:20:03 22.1 C 9.17 g/m*3 22.1 C 0 km/h
1647 08-10-2010 17:32:02 21.9 C 9.26 g/m*3 21.9 C 0 km/h
1648 08-10-2010 17:44:02 21.6 C 9.29 g/m*3 21.6 C 0 km/h
1649 08-10-2010 17:56:02 21.2 C 9.27 g/m*3 21.2 C 0 km/h
1650 08-10-2010 18:08:02 20.6 C 9.49 g/m*3 20.6 C 0 km/h
Sensor: Nr:Datum:Temp:Abs-Feuchte:Windchill:Wind:
Aussen-T/F 1651 08-10-2010 18:20:03 20 C 9.51 g/m*3 20 C 0 km/h
1652 08-10-2010 18:32:02 19.3 C 9.62 g/m*3 19.3 C 0 km/h
1653 08-10-2010 18:44:02 18.1 C 9.73 g/m*3 18.1 C 0 km/h
1654 08-10-2010 18:56:02 17.3 C 9.87 g/m*3 17.3 C 0 km/h
1655 08-10-2010 19:08:02 16.9 C 10.21 g/m*3 16.9 C 0 km/h
1656 08-10-2010 19:20:02 16.1 C 10.01 g/m*3 16.1 C 0 km/h
1657 08-10-2010 19:32:02 15.8 C 9.96 g/m*3 15.8 C 0 km/h
1658 08-10-2010 19:44:02 15.4 C 9.85 g/m*3 15.4 C 0 km/h
1659 08-10-2010 19:56:02 15.2 C 9.86 g/m*3 15.2 C 0 km/h
1660 08-10-2010 20:08:02 15 C 9.75 g/m*3 15 C 0 km/h
1661 08-10-2010 20:20:02 14.9 C 9.81 g/m*3 14.9 C 0 km/h
1662 08-10-2010 20:32:02 14.8 C 9.88 g/m*3 14.8 C 0 km/h
1663 08-10-2010 20:44:02 14.7 C 9.82 g/m*3 14.7 C 0 km/h
1664 08-10-2010 20:56:02 14.5 C 9.7 g/m*3 14.5 C 0 km/h
1665 08-10-2010 21:08:02 14.4 C 9.77 g/m*3 14.4 C 0 km/h
1666 08-10-2010 21:20:02 14.2 C 9.65 g/m*3 14.2 C 0 km/h
1667 08-10-2010 21:32:02 14.1 C 9.59 g/m*3 14.1 C 0 km/h
1668 08-10-2010 21:44:02 14 C 9.65 g/m*3 14 C 0 km/h
1669 08-10-2010 21:56:01 13.7 C 9.59 g/m*3 13.7 C 0 km/h
1670 08-10-2010 22:08:01 13.5 C 9.59 g/m*3 13.5 C 0 km/h
1671 08-10-2010 22:20:02 13.5 C 9.59 g/m*3 13.5 C 0 km/h
1672 08-10-2010 22:33:02 13.3 C 9.47 g/m*3 13.3 C 0 km/h
1673 08-10-2010 22:45:02 13.1 C 9.47 g/m*3 13.1 C 0 km/h
1674 08-10-2010 22:57:02 13 C 9.41 g/m*3 13 C 0 km/h
1675 08-10-2010 23:09:02 12.9 C 9.47 g/m*3 12.9 C 0 km/h
Sensor: Nr:Datum:Temp:Abs-Feuchte:Windchill:Wind:
Aussen-T/F 1676 08-10-2010 23:21:02 12.7 C 9.35 g/m*3 12.7 C 0 km/h
1677 08-10-2010 23:33:02 12.6 C 9.29 g/m*3 12.6 C 0 km/h
1678 08-10-2010 23:45:02 12.4 C 9.18 g/m*3 12.4 C 0 km/h
1679 08-10-2010 23:57:02 12.3 C 9.23 g/m*3 12.3 C 0 km/h
1680 09-10-2010 00:09:02 12.1 C 9.12 g/m*3 12.1 C 0 km/h
1681 09-10-2010 00:21:03 12 C 9.06 g/m*3 12 C 0 km/h
1682 09-10-2010 00:33:03 11.9 C 9.11 g/m*3 11.9 C 0 km/h
1683 09-10-2010 00:45:03 11.7 C 9.1 g/m*3 11.7 C 0 km/h
1684 09-10-2010 00:57:03 11.8 C 9.16 g/m*3 11.8 C 0 km/h
1685 09-10-2010 01:09:03 11.5 C 8.99 g/m*3 11.5 C 0 km/h
1686 09-10-2010 01:21:03 11.5 C 8.99 g/m*3 11.5 C 0 km/h
1687 09-10-2010 01:33:03 11.4 C 9.03 g/m*3 11.4 C 0 km/h
1688 09-10-2010 01:45:03 11.2 C 8.92 g/m*3 11.2 C 0 km/h
1689 09-10-2010 01:57:03 11.1 C 8.86 g/m*3 11.1 C 0 km/h
1690 09-10-2010 02:09:03 11 C 8.81 g/m*3 11 C 0 km/h
1691 09-10-2010 02:21:03 10.9 C 8.85 g/m*3 10.9 C 0 km/h
1692 09-10-2010 02:33:03 10.7 C 8.64 g/m*3 10.7 C 0 km/h
1693 09-10-2010 02:45:03 10.6 C 8.59 g/m*3 10.6 C 0 km/h
1694 09-10-2010 02:57:03 10.5 C 8.53 g/m*3 10.5 C 0 km/h
1695 09-10-2010 03:09:03 10.4 C 8.48 g/m*3 10.4 C 0 km/h
1696 09-10-2010 03:21:03 10.3 C 8.43 g/m*3 10.3 C 0 km/h
1697 09-10-2010 03:33:03 10.2 C 8.37 g/m*3 10.2 C 0 km/h
1698 09-10-2010 03:45:03 10.2 C 8.47 g/m*3 10.2 C 0 km/h
1699 09-10-2010 03:57:03 10.1 C 8.42 g/m*3 10.1 C 0 km/h
1700 09-10-2010 04:09:03 10 C 8.36 g/m*3 10 C 0 km/h
Sensor: Nr:Datum:Temp:Abs-Feuchte:Windchill:Wind:
Aussen-T/F 1701 09-10-2010 04:21:03 9.8 C 8.35 g/m*3 9.8 C 0 km/h
1702 09-10-2010 04:33:04 9.8 C 8.35 g/m*3 9.8 C 0 km/h
1703 09-10-2010 04:45:04 9.7 C 8.3 g/m*3 9.7 C 0 km/h
1704 09-10-2010 04:57:04 9.6 C 8.24 g/m*3 9.6 C 0 km/h
1705 09-10-2010 05:09:04 9.6 C 8.34 g/m*3 9.6 C 0 km/h
1706 09-10-2010 05:21:04 9.5 C 8.28 g/m*3 9.5 C 0 km/h
1707 09-10-2010 05:33:04 9.4 C 8.23 g/m*3 9.4 C 0 km/h
1708 09-10-2010 05:45:04 9.5 C 8.28 g/m*3 9.5 C 0 km/h
1709 09-10-2010 05:57:04 9.6 C 8.34 g/m*3 9.6 C 0 km/h
1710 09-10-2010 06:09:04 9.6 C 8.34 g/m*3 9.6 C 0 km/h
1711 09-10-2010 06:21:04 9.5 C 8.37 g/m*3 9.5 C 0 km/h
1712 09-10-2010 06:33:04 9.4 C 8.32 g/m*3 9.4 C 0 km/h
1713 09-10-2010 06:45:04 9.3 C 8.27 g/m*3 9.3 C 0 km/h
1714 09-10-2010 06:57:04 9.3 C 8.27 g/m*3 9.3 C 0 km/h
1715 09-10-2010 07:09:04 9.3 C 8.27 g/m*3 9.3 C 0 km/h
1716 09-10-2010 07:21:04 9.2 C 8.22 g/m*3 9.2 C 0 km/h
1717 09-10-2010 07:33:04 9.1 C 8.16 g/m*3 9.1 C 0 km/h
1718 09-10-2010 07:45:04 9.2 C 8.22 g/m*3 9.2 C 0 km/h
1719 09-10-2010 07:57:04 9.4 C 8.32 g/m*3 9.4 C 0 km/h
1720 09-10-2010 08:09:04 9.2 C 8.22 g/m*3 9.2 C 0 km/h
1721 09-10-2010 08:21:04 9.2 C 8.22 g/m*3 9.2 C 0 km/h
1722 09-10-2010 08:33:02 9.2 C 8.22 g/m*3 9.2 C 0 km/h
1723 09-10-2010 08:45:02 9.2 C 8.22 g/m*3 9.2 C 0 km/h
1724 09-10-2010 08:57:02 9.2 C 8.22 g/m*3 9.2 C 0 km/h
1725 09-10-2010 09:09:02 9.2 C 8.22 g/m*3 9.2 C 0 km/h
Sensor: Nr:Datum:Temp:Abs-Feuchte:Windchill:Wind:
Aussen-T/F 1726 09-10-2010 09:21:02 9.2 C 8.22 g/m*3 9.2 C 0 km/h
1727 09-10-2010 09:33:02 9.2 C 8.13 g/m*3 9.2 C 0 km/h
1728 09-10-2010 09:45:02 9.3 C 8.27 g/m*3 9.3 C 0 km/h
1729 09-10-2010 09:57:02 9.5 C 8.37 g/m*3 9.5 C 0 km/h
1730 09-10-2010 10:09:02 9.7 C 8.48 g/m*3 9.7 C 0 km/h
1731 09-10-2010 10:21:01 10 C 8.55 g/m*3 10 C 0 km/h
1732 09-10-2010 10:33:02 10.5 C 8.92 g/m*3 10.5 C 0 km/h
1733 09-10-2010 10:45:02 10.8 C 9.09 g/m*3 10.8 C 0 km/h
1734 09-10-2010 10:57:02 11.2 C 9.33 g/m*3 11.2 C 0 km/h
1735 09-10-2010 11:09:02 11.7 C 9.62 g/m*3 11.7 C 0 km/h
1736 09-10-2010 11:21:02 12.1 C 9.65 g/m*3 12.1 C 0 km/h
1737 09-10-2010 11:33:02 12.5 C 9.68 g/m*3 12.5 C 0 km/h
1738 09-10-2010 11:45:02 12.9 C 9.47 g/m*3 12.9 C 0 km/h
1739 09-10-2010 11:57:02 13.4 C 9.18 g/m*3 13.4 C 0 km/h
1740 09-10-2010 12:09:02 13.7 C 8.76 g/m*3 13.7 C 0 km/h
1741 09-10-2010 12:21:01 14.4 C 8.28 g/m*3 14.4 C 0 km/h
1742 09-10-2010 12:33:02 14.7 C 7.81 g/m*3 14.7 C 0 km/h
1743 09-10-2010 12:45:01 15.1 C 8.39 g/m*3 15.1 C 0 km/h
1744 09-10-2010 12:57:01 15.5 C 7.67 g/m*3 15.5 C 0 km/h
1745 09-10-2010 13:09:02 16.1 C 7.95 g/m*3 16.1 C 0 km/h
1746 09-10-2010 13:21:02 16.6 C 8.05 g/m*3 16.6 C 0 km/h
1747 09-10-2010 13:33:02 17 C 8.1 g/m*3 17 C 0 km/h
1748 09-10-2010 13:45:02 17.6 C 7.8 g/m*3 17.6 C 0 km/h
1749 09-10-2010 13:57:02 18.2 C 7.46 g/m*3 18.2 C 0 km/h
1750 09-10-2010 14:09:01 19 C 6.84 g/m*3 19 C 0 km/h
Sensor: Nr:Datum:Temp:Abs-Feuchte:Windchill:Wind:
Aussen-T/F 1751 09-10-2010 14:21:02 19.5 C 7.05 g/m*3 19.5 C 0 km/h
1752 09-10-2010 14:33:02 20 C 7.09 g/m*3 20 C 0 km/h
1753 09-10-2010 14:45:02 20.4 C 6.72 g/m*3 20.4 C 0 km/h
1754 09-10-2010 14:57:02 20.9 C 7.47 g/m*3 20.9 C 0 km/h
1755 09-10-2010 15:09:02 21.4 C 6.75 g/m*3 21.4 C 0 km/h
1756 09-10-2010 15:21:02 21.8 C 6.72 g/m*3 21.8 C 0 km/h
1757 09-10-2010 15:33:02 21.7 C 5.91 g/m*3 21.7 C 0 km/h
1758 09-10-2010 15:45:02 22.1 C 6.25 g/m*3 22.1 C 0 km/h
1759 09-10-2010 15:57:02 22.3 C 5.73 g/m*3 22.3 C 0 km/h
1760 09-10-2010 16:09:01 22.4 C 6.16 g/m*3 22.4 C 0 km/h
1761 09-10-2010 16:21:02 22.4 C 6.16 g/m*3 22.4 C 0 km/h
1762 09-10-2010 16:33:02 22.4 C 6.36 g/m*3 22.4 C 0 km/h
1763 09-10-2010 16:45:01 22 C 6.21 g/m*3 22 C 0 km/h
1764 09-10-2010 16:57:01 21.6 C 6.26 g/m*3 21.6 C 0 km/h
1765 09-10-2010 17:09:02 21.3 C 5.96 g/m*3 21.3 C 0 km/h
1766 09-10-2010 17:21:01 21.3 C 6.15 g/m*3 21.3 C 0 km/h
1767 09-10-2010 17:33:01 21.1 C 6.26 g/m*3 21.1 C 0 km/h
1768 09-10-2010 17:45:01 20.6 C 6.26 g/m*3 20.6 C 0 km/h
1769 09-10-2010 17:57:01 19.7 C 6.28 g/m*3 19.7 C 0 km/h
1770 09-10-2010 18:09:02 19.1 C 6.23 g/m*3 19.1 C 0 km/h
1771 09-10-2010 18:21:01 18.2 C 6.22 g/m*3 18.2 C 0 km/h
1772 09-10-2010 18:33:01 17 C 6.37 g/m*3 17 C 0 km/h
1773 09-10-2010 18:45:01 15.8 C 6.33 g/m*3 15.8 C 0 km/h
1774 09-10-2010 18:57:01 15 C 6.03 g/m*3 15 C 0 km/h
1775 09-10-2010 19:09:02 14.6 C 6.01 g/m*3 14.6 C 0 km/h
Sensor: Nr:Datum:Temp:Abs-Feuchte:Windchill:Wind:
Aussen-T/F 1776 09-10-2010 19:21:02 14 C 6.03 g/m*3 14 C 0 km/h
1777 09-10-2010 19:33:01 13.8 C 5.96 g/m*3 13.8 C 0 km/h
1778 09-10-2010 19:45:02 13.4 C 6.28 g/m*3 13.4 C 0 km/h
1779 09-10-2010 19:57:02 13.2 C 6.32 g/m*3 13.2 C 0 km/h
1780 09-10-2010 20:09:01 13 C 6.35 g/m*3 13 C 0 km/h
1781 09-10-2010 20:21:02 13.1 C 6.39 g/m*3 13.1 C 0 km/h
1782 09-10-2010 20:33:01 13 C 6.46 g/m*3 13 C 0 km/h
1783 09-10-2010 20:45:02 12.7 C 6.79 g/m*3 12.7 C 0 km/h
1784 09-10-2010 20:57:02 12.4 C 6.88 g/m*3 12.4 C 0 km/h
1785 09-10-2010 21:09:02 12 C 6.82 g/m*3 12 C 0 km/h
1786 09-10-2010 21:21:02 11.7 C 7.01 g/m*3 11.7 C 0 km/h
1787 09-10-2010 21:33:02 11.5 C 7.02 g/m*3 11.5 C 0 km/h
1788 09-10-2010 21:45:01 11.2 C 7.1 g/m*3 11.2 C 0 km/h
1789 09-10-2010 21:57:01 11 C 7.01 g/m*3 11 C 0 km/h
1790 09-10-2010 22:09:01 11 C 7.01 g/m*3 11 C 0 km/h
1791 09-10-2010 22:21:02 10.8 C 7.12 g/m*3 10.8 C 0 km/h
1792 09-10-2010 22:33:01 10.6 C 7.03 g/m*3 10.6 C 0 km/h
1793 09-10-2010 22:46:02 10.4 C 7.04 g/m*3 10.4 C 0 km/h
1794 09-10-2010 22:58:02 10.2 C 6.95 g/m*3 10.2 C 0 km/h
1795 09-10-2010 23:10:02 10 C 6.86 g/m*3 10 C 0 km/h
1796 09-10-2010 23:22:02 9.8 C 6.96 g/m*3 9.8 C 0 km/h
1797 09-10-2010 23:34:02 9.7 C 6.91 g/m*3 9.7 C 0 km/h
1798 09-10-2010 23:46:02 9.4 C 6.96 g/m*3 9.4 C 0 km/h
1799 09-10-2010 23:58:02 9.2 C 6.88 g/m*3 9.2 C 0 km/h
1800 10-10-2010 00:10:02 9.1 C 6.92 g/m*3 9.1 C 0 km/h
Sensor: Nr:Datum:Temp:Abs-Feuchte:Windchill:Wind:
Aussen-T/F 1801 10-10-2010 00:22:02 9.1 C 7.01 g/m*3 9.1 C 0 km/h
1802 10-10-2010 00:34:02 9 C 6.96 g/m*3 9 C 0 km/h
1803 10-10-2010 00:46:02 8.8 C 7.05 g/m*3 8.8 C 0 km/h
1804 10-10-2010 00:58:02 8.7 C 7.01 g/m*3 8.7 C 0 km/h
1805 10-10-2010 01:10:03 8.5 C 6.92 g/m*3 8.5 C 0 km/h
1806 10-10-2010 01:22:03 8.5 C 7 g/m*3 8.5 C 0 km/h
1807 10-10-2010 01:34:03 8.4 C 6.96 g/m*3 8.4 C 0 km/h
1808 10-10-2010 01:46:03 8.3 C 6.91 g/m*3 8.3 C 0 km/h
1809 10-10-2010 01:58:03 8.2 C 6.87 g/m*3 8.2 C 0 km/h
1810 10-10-2010 02:10:03 8 C 6.86 g/m*3 8 C 0 km/h
1811 10-10-2010 02:22:03 7.9 C 6.9 g/m*3 7.9 C 0 km/h
1812 10-10-2010 02:34:03 7.9 C 6.9 g/m*3 7.9 C 0 km/h
1813 10-10-2010 02:46:03 7.6 C 6.77 g/m*3 7.6 C 0 km/h
1814 10-10-2010 02:58:03 7.4 C 6.68 g/m*3 7.4 C 0 km/h
1815 10-10-2010 03:10:03 7.5 C 6.8 g/m*3 7.5 C 0 km/h
1816 10-10-2010 03:22:03 7.2 C 6.67 g/m*3 7.2 C 0 km/h
1817 10-10-2010 03:34:03 7.1 C 6.63 g/m*3 7.1 C 0 km/h
1818 10-10-2010 03:46:03 7 C 6.59 g/m*3 7 C 0 km/h
1819 10-10-2010 03:58:03 6.9 C 6.62 g/m*3 6.9 C 0 km/h
1820 10-10-2010 04:10:03 7 C 6.59 g/m*3 7 C 0 km/h
1821 10-10-2010 04:22:03 6.8 C 6.65 g/m*3 6.8 C 0 km/h
1822 10-10-2010 04:34:03 6.7 C 6.61 g/m*3 6.7 C 0 km/h
1823 10-10-2010 04:46:03 6.7 C 6.61 g/m*3 6.7 C 0 km/h
1824 10-10-2010 04:58:03 6.6 C 6.57 g/m*3 6.6 C 0 km/h
1825 10-10-2010 05:10:03 6.5 C 6.52 g/m*3 6.5 C 0 km/h
Sensor: Nr:Datum:Temp:Abs-Feuchte:Windchill:Wind:
Aussen-T/F 1826 10-10-2010 05:22:03 6.4 C 6.48 g/m*3 6.4 C 0 km/h
1827 10-10-2010 05:34:03 6.2 C 6.4 g/m*3 6.2 C 0 km/h
1828 10-10-2010 05:46:04 6.2 C 6.4 g/m*3 6.2 C 0 km/h
1829 10-10-2010 05:58:04 6.1 C 6.43 g/m*3 6.1 C 0 km/h
1830 10-10-2010 06:10:04 5.9 C 6.35 g/m*3 5.9 C 0 km/h
1831 10-10-2010 06:22:04 6 C 6.39 g/m*3 6 C 0 km/h
1832 10-10-2010 06:34:04 6 C 6.39 g/m*3 6 C 0 km/h
1833 10-10-2010 06:46:04 5.8 C 6.38 g/m*3 5.8 C 0 km/h
1834 10-10-2010 06:58:04 5.6 C 6.29 g/m*3 5.6 C 0 km/h
1835 10-10-2010 07:10:02 5.5 C 6.25 g/m*3 5.5 C 0 km/h
1836 10-10-2010 07:22:03 5.6 C 6.29 g/m*3 5.6 C 0 km/h
1837 10-10-2010 07:34:02 5.4 C 6.28 g/m*3 5.4 C 0 km/h
1838 10-10-2010 07:46:02 5.4 C 6.28 g/m*3 5.4 C 0 km/h
1839 10-10-2010 07:58:02 5.6 C 6.43 g/m*3 5.6 C 0 km/h
1840 10-10-2010 08:10:01 6 C 6.53 g/m*3 6 C 0 km/h
1841 10-10-2010 08:22:01 6.2 C 6.62 g/m*3 6.2 C 0 km/h
1842 10-10-2010 08:34:01 6.4 C 6.71 g/m*3 6.4 C 0 km/h
1843 10-10-2010 08:46:01 6.5 C 6.75 g/m*3 6.5 C 0 km/h
1844 10-10-2010 08:58:01 6.7 C 6.84 g/m*3 6.7 C 0 km/h
1845 10-10-2010 09:10:02 7 C 6.82 g/m*3 7 C 0 km/h
1846 10-10-2010 09:22:01 6.9 C 6.85 g/m*3 6.9 C 0 km/h
1847 10-10-2010 09:34:01 7.1 C 6.79 g/m*3 7.1 C 0 km/h
1848 10-10-2010 09:46:01 7.5 C 6.8 g/m*3 7.5 C 0 km/h
1849 10-10-2010 09:58:01 7.8 C 6.69 g/m*3 7.8 C 0 km/h
1850 10-10-2010 10:10:01 8.1 C 6.49 g/m*3 8.1 C 0 km/h
Sensor: Nr:Datum:Temp:Abs-Feuchte:Windchill:Wind:
Aussen-T/F 1851 10-10-2010 10:22:02 8.4 C 6.45 g/m*3 8.4 C 0 km/h
1852 10-10-2010 10:34:01 8.8 C 6.7 g/m*3 8.8 C 0 km/h
1853 10-10-2010 10:46:03 9.5 C 6.74 g/m*3 9.5 C 0 km/h
1854 10-10-2010 10:58:03 9.8 C 6.59 g/m*3 9.8 C 0 km/h
1855 10-10-2010 11:10:02 10.2 C 6.47 g/m*3 10.2 C 0 km/h
1856 10-10-2010 11:22:02 10.3 C 6.7 g/m*3 10.3 C 0 km/h
1857 10-10-2010 11:34:02 10.8 C 6.72 g/m*3 10.8 C 0 km/h
1858 10-10-2010 11:46:02 11.5 C 6.51 g/m*3 11.5 C 0 km/h
1859 10-10-2010 11:58:03 11.8 C 6.42 g/m*3 11.8 C 0 km/h
1860 10-10-2010 12:10:01 12 C 6.61 g/m*3 12 C 0 km/h
1861 10-10-2010 12:22:02 12.3 C 6.73 g/m*3 12.3 C 0 km/h
1862 10-10-2010 12:34:02 12.7 C 6.68 g/m*3 12.7 C 0 km/h
1863 10-10-2010 12:46:02 13.2 C 6.2 g/m*3 13.2 C 0 km/h
1864 10-10-2010 12:58:02 13.8 C 6.08 g/m*3 13.8 C 0 km/h
1865 10-10-2010 13:10:03 14.4 C 5.69 g/m*3 14.4 C 0 km/h
1866 10-10-2010 13:22:02 15.2 C 5.58 g/m*3 15.2 C 0 km/h
1867 10-10-2010 13:34:02 16 C 5.86 g/m*3 16 C 0 km/h
1868 10-10-2010 13:46:01 16.5 C 5.76 g/m*3 16.5 C 0 km/h
1869 10-10-2010 13:58:01 17.2 C 5.42 g/m*3 17.2 C 0 km/h
1870 10-10-2010 14:10:02 17.8 C 5.01 g/m*3 17.8 C 0 km/h
1871 10-10-2010 14:22:01 18.3 C 5.16 g/m*3 18.3 C 0 km/h
1872 10-10-2010 14:34:01 18.7 C 5.76 g/m*3 18.7 C 0 km/h
1873 10-10-2010 14:46:01 19 C 5.7 g/m*3 19 C 0 km/h
1874 10-10-2010 14:58:01 19.3 C 5.64 g/m*3 19.3 C 0 km/h
1875 10-10-2010 15:10:01 19.6 C 5.91 g/m*3 19.6 C 0 km/h
Sensor: Nr:Datum:Temp:Abs-Feuchte:Windchill:Wind:
Aussen-T/F 1876 10-10-2010 15:22:02 20 C 6.05 g/m*3 20 C 0 km/h
1877 10-10-2010 15:34:01 20.4 C 6.01 g/m*3 20.4 C 0 km/h
1878 10-10-2010 15:46:02 20.9 C 6.37 g/m*3 20.9 C 0 km/h
1879 10-10-2010 15:58:02 21.1 C 5.16 g/m*3 21.1 C 0 km/h
1880 10-10-2010 16:10:01 21.1 C 5.71 g/m*3 21.1 C 0 km/h
1881 10-10-2010 16:22:02 21.4 C 5.81 g/m*3 21.4 C 0 km/h
1882 10-10-2010 16:34:01 21.3 C 5.78 g/m*3 21.3 C 0 km/h
1883 10-10-2010 16:46:02 21.3 C 5.59 g/m*3 21.3 C 0 km/h
1884 10-10-2010 16:58:02 21.3 C 5.59 g/m*3 21.3 C 0 km/h
1885 10-10-2010 17:10:02 21.2 C 5.56 g/m*3 21.2 C 0 km/h
1886 10-10-2010 17:22:02 21 C 5.86 g/m*3 21 C 0 km/h
1887 10-10-2010 17:34:02 20.8 C 5.79 g/m*3 20.8 C 0 km/h
1888 10-10-2010 17:46:01 20.4 C 5.48 g/m*3 20.4 C 0 km/h
1889 10-10-2010 17:58:01 19.8 C 5.3 g/m*3 19.8 C 0 km/h
1890 10-10-2010 18:10:02 19.1 C 5.41 g/m*3 19.1 C 0 km/h
1891 10-10-2010 18:22:01 18.3 C 5.32 g/m*3 18.3 C 0 km/h
1892 10-10-2010 18:34:02 17.1 C 5.24 g/m*3 17.1 C 0 km/h
1893 10-10-2010 18:46:01 16.2 C 5.65 g/m*3 16.2 C 0 km/h
1894 10-10-2010 18:58:01 15.3 C 5.48 g/m*3 15.3 C 0 km/h
1895 10-10-2010 19:10:02 14.8 C 5.57 g/m*3 14.8 C 0 km/h
1896 10-10-2010 19:22:01 14.5 C 5.35 g/m*3 14.5 C 0 km/h
1897 10-10-2010 19:34:02 14.2 C 5.62 g/m*3 14.2 C 0 km/h
1898 10-10-2010 19:46:01 13.7 C 5.68 g/m*3 13.7 C 0 km/h
1899 10-10-2010 19:58:01 13.7 C 5.21 g/m*3 13.7 C 0 km/h
1900 10-10-2010 20:10:02 13.4 C 5.23 g/m*3 13.4 C 0 km/h
Sensor: Nr:Datum:Temp:Abs-Feuchte:Windchill:Wind:
Aussen-T/F 1901 10-10-2010 20:22:02 13 C 5.22 g/m*3 13 C 0 km/h
1902 10-10-2010 20:34:01 13 C 4.99 g/m*3 13 C 0 km/h
1903 10-10-2010 20:46:02 12.8 C 4.7 g/m*3 12.8 C 0 km/h
1904 10-10-2010 20:58:02 12.9 C 4.4 g/m*3 12.9 C 0 km/h
1905 10-10-2010 21:10:01 12.7 C 4.23 g/m*3 12.7 C 0 km/h
1906 10-10-2010 21:22:02 12.6 C 4.09 g/m*3 12.6 C 0 km/h
1907 10-10-2010 21:34:01 12.5 C 3.85 g/m*3 12.5 C 0 km/h
1908 10-10-2010 21:46:02 12.4 C 3.93 g/m*3 12.4 C 0 km/h
1909 10-10-2010 21:58:03 12 C 3.94 g/m*3 12 C 0 km/h
1910 10-10-2010 22:11:02 11.8 C 3.89 g/m*3 11.8 C 0 km/h
1911 10-10-2010 22:23:03 11.6 C 4.16 g/m*3 11.6 C 0 km/h
1912 10-10-2010 22:35:03 11.4 C 4.11 g/m*3 11.4 C 0 km/h
1913 10-10-2010 22:47:03 11.3 C 4.18 g/m*3 11.3 C 0 km/h
1914 10-10-2010 22:59:03 11.2 C 4.26 g/m*3 11.2 C 0 km/h
1915 10-10-2010 23:11:03 11.1 C 4.33 g/m*3 11.1 C 0 km/h
1916 10-10-2010 23:23:03 10.9 C 4.48 g/m*3 10.9 C 0 km/h
1917 10-10-2010 23:35:03 10.7 C 4.52 g/m*3 10.7 C 0 km/h
1918 10-10-2010 23:47:03 10.6 C 4.59 g/m*3 10.6 C 0 km/h
1919 10-10-2010 23:59:03 10.3 C 4.69 g/m*3 10.3 C 0 km/h
1920 11-10-2010 00:11:03 10.2 C 4.85 g/m*3 10.2 C 0 km/h
1921 11-10-2010 00:23:03 10 C 4.89 g/m*3 10 C 0 km/h
1922 11-10-2010 00:35:03 9.9 C 4.95 g/m*3 9.9 C 0 km/h
1923 11-10-2010 00:47:03 10 C 4.79 g/m*3 10 C 0 km/h
1924 11-10-2010 00:59:03 9.8 C 4.92 g/m*3 9.8 C 0 km/h
1925 11-10-2010 01:11:03 9.6 C 4.95 g/m*3 9.6 C 0 km/h
Sensor: Nr:Datum:Temp:Abs-Feuchte:Windchill:Wind:
Aussen-T/F 1926 11-10-2010 01:23:03 9.5 C 4.92 g/m*3 9.5 C 0 km/h
1927 11-10-2010 01:35:03 9.4 C 4.88 g/m*3 9.4 C 0 km/h
1928 11-10-2010 01:47:03 9.3 C 4.94 g/m*3 9.3 C 0 km/h
1929 11-10-2010 01:59:03 9.4 C 4.88 g/m*3 9.4 C 0 km/h
1930 11-10-2010 02:11:03 9.4 C 4.79 g/m*3 9.4 C 0 km/h
1931 11-10-2010 02:23:03 9.4 C 4.88 g/m*3 9.4 C 0 km/h
1932 11-10-2010 02:35:03 9 C 4.85 g/m*3 9 C 0 km/h
1933 11-10-2010 02:47:04 8.9 C 4.91 g/m*3 8.9 C 0 km/h
1934 11-10-2010 02:59:04 8.7 C 4.93 g/m*3 8.7 C 0 km/h
1935 11-10-2010 03:11:04 8.5 C 4.95 g/m*3 8.5 C 0 km/h
1936 11-10-2010 03:23:04 8.3 C 4.97 g/m*3 8.3 C 0 km/h
1937 11-10-2010 03:35:04 8.2 C 5.02 g/m*3 8.2 C 0 km/h
1938 11-10-2010 03:47:04 8.1 C 4.99 g/m*3 8.1 C 0 km/h
1939 11-10-2010 03:59:04 8.1 C 4.99 g/m*3 8.1 C 0 km/h
1940 11-10-2010 04:11:04 7.7 C 5.03 g/m*3 7.7 C 0 km/h
1941 11-10-2010 04:23:04 7.5 C 5.12 g/m*3 7.5 C 0 km/h
1942 11-10-2010 04:35:04 7.5 C 5.12 g/m*3 7.5 C 0 km/h
1943 11-10-2010 04:47:04 7.6 C 5.16 g/m*3 7.6 C 0 km/h
1944 11-10-2010 04:59:04 7.6 C 5.08 g/m*3 7.6 C 0 km/h
1945 11-10-2010 05:11:04 7.1 C 5.07 g/m*3 7.1 C 0 km/h
1946 11-10-2010 05:23:04 7 C 5.27 g/m*3 7 C 0 km/h
1947 11-10-2010 05:35:04 6.6 C 5.28 g/m*3 6.6 C 0 km/h
1948 11-10-2010 05:47:04 6.3 C 5.26 g/m*3 6.3 C 0 km/h
1949 11-10-2010 05:59:04 6.2 C 5.29 g/m*3 6.2 C 0 km/h
1950 11-10-2010 06:11:04 6 C 5.23 g/m*3 6 C 0 km/h
Sensor: Nr:Datum:Temp:Abs-Feuchte:Windchill:Wind:
Aussen-T/F 1951 11-10-2010 06:23:04 5.8 C 5.23 g/m*3 5.8 C 0 km/h
1952 11-10-2010 06:35:04 5.7 C 5.34 g/m*3 5.7 C 0 km/h
1953 11-10-2010 06:47:04 5.6 C 5.37 g/m*3 5.6 C 0 km/h
1954 11-10-2010 06:59:05 5.5 C 5.41 g/m*3 5.5 C 0 km/h
1955 11-10-2010 07:11:02 5.4 C 5.37 g/m*3 5.4 C 0 km/h
1956 11-10-2010 07:23:02 5.3 C 5.41 g/m*3 5.3 C 0 km/h
1957 11-10-2010 07:35:03 5.3 C 5.41 g/m*3 5.3 C 0 km/h
1958 11-10-2010 07:47:02 5.1 C 5.34 g/m*3 5.1 C 0 km/h
1959 11-10-2010 07:59:02 5 C 5.3 g/m*3 5 C 0 km/h
1960 11-10-2010 08:11:02 4.9 C 5.33 g/m*3 4.9 C 0 km/h
1961 11-10-2010 08:23:02 4.9 C 5.4 g/m*3 4.9 C 0 km/h
1962 11-10-2010 08:35:02 5 C 5.37 g/m*3 5 C 0 km/h
1963 11-10-2010 08:47:02 5 C 5.44 g/m*3 5 C 0 km/h
1964 11-10-2010 08:59:02 5 C 5.44 g/m*3 5 C 0 km/h
1965 11-10-2010 09:11:02 5.3 C 5.61 g/m*3 5.3 C 0 km/h
1966 11-10-2010 09:23:02 5.4 C 5.65 g/m*3 5.4 C 0 km/h
1967 11-10-2010 09:35:02 5.6 C 5.73 g/m*3 5.6 C 0 km/h
1968 11-10-2010 09:47:01 5.8 C 5.73 g/m*3 5.8 C 0 km/h
1969 11-10-2010 09:59:01 5.9 C 5.77 g/m*3 5.9 C 0 km/h
1970 11-10-2010 10:11:01 6.1 C 5.77 g/m*3 6.1 C 0 km/h
1971 11-10-2010 10:23:01 6.5 C 6 g/m*3 6.5 C 0 km/h
1972 11-10-2010 10:35:01 7.1 C 6.16 g/m*3 7.1 C 0 km/h
1973 11-10-2010 10:47:02 7.7 C 6.32 g/m*3 7.7 C 0 km/h
1974 11-10-2010 10:59:02 8.2 C 6.28 g/m*3 8.2 C 0 km/h
1975 11-10-2010 11:11:02 8.7 C 6.31 g/m*3 8.7 C 0 km/h
Sensor: Nr:Datum:Temp:Abs-Feuchte:Windchill:Wind:
Aussen-T/F 1976 11-10-2010 11:23:03 9 C 6.26 g/m*3 9 C 0 km/h
1977 11-10-2010 11:35:02 9.4 C 6.33 g/m*3 9.4 C 0 km/h
1978 11-10-2010 11:47:01 9.9 C 6.44 g/m*3 9.9 C 0 km/h
1979 11-10-2010 11:59:01 10.3 C 6.42 g/m*3 10.3 C 0 km/h
1980 11-10-2010 12:11:02 10.7 C 6.38 g/m*3 10.7 C 0 km/h
1981 11-10-2010 12:23:01 11.3 C 6.43 g/m*3 11.3 C 0 km/h
1982 11-10-2010 12:35:01 11.6 C 6.44 g/m*3 11.6 C 0 km/h
1983 11-10-2010 12:47:01 12 C 6.39 g/m*3 12 C 0 km/h
1984 11-10-2010 12:59:01 12.5 C 6.6 g/m*3 12.5 C 0 km/h
1985 11-10-2010 13:11:01 13.8 C 6.2 g/m*3 13.8 C 0 km/h
1986 11-10-2010 13:23:02 14.5 C 6.09 g/m*3 14.5 C 0 km/h
1987 11-10-2010 13:35:01 14.9 C 5.99 g/m*3 14.9 C 0 km/h
1988 11-10-2010 13:47:02 15.4 C 5.65 g/m*3 15.4 C 0 km/h
1989 11-10-2010 13:59:02 16 C 5.45 g/m*3 16 C 0 km/h
1990 11-10-2010 14:11:02 16.7 C 4.97 g/m*3 16.7 C 0 km/h
1991 11-10-2010 14:23:02 17.1 C 5.82 g/m*3 17.1 C 0 km/h
1992 11-10-2010 14:35:01 17.4 C 5.48 g/m*3 17.4 C 0 km/h
1993 11-10-2010 14:47:01 17.9 C 5.5 g/m*3 17.9 C 0 km/h
1994 11-10-2010 14:59:02 18.3 C 5.47 g/m*3 18.3 C 0 km/h
1995 11-10-2010 15:11:01 18.8 C 5.31 g/m*3 18.8 C 0 km/h
1996 11-10-2010 15:23:01 19.4 C 5.51 g/m*3 19.4 C 0 km/h
1997 11-10-2010 15:35:01 19.8 C 5.12 g/m*3 19.8 C 0 km/h
1998 11-10-2010 15:47:01 20.3 C 4.57 g/m*3 20.3 C 0 km/h
1999 11-10-2010 15:59:01 20.6 C 4.65 g/m*3 20.6 C 0 km/h
2000 11-10-2010 16:11:02 20.8 C 4.71 g/m*3 20.8 C 0 km/h
Sensor: Nr:Datum:Temp:Abs-Feuchte:Windchill:Wind:
Aussen-T/F 2001 11-10-2010 16:23:01 21.1 C 4.97 g/m*3 21.1 C 0 km/h
2002 11-10-2010 16:35:01 21.2 C 4.63 g/m*3 21.2 C 0 km/h
2003 11-10-2010 16:47:01 21 C 4.58 g/m*3 21 C 0 km/h
2004 11-10-2010 16:59:01 20.7 C 4.14 g/m*3 20.7 C 0 km/h
2005 11-10-2010 17:11:02 20.5 C 3.74 g/m*3 20.5 C 0 km/h
2006 11-10-2010 17:23:01 20 C 3.63 g/m*3 20 C 0 km/h
2007 11-10-2010 17:35:01 19.5 C 3.36 g/m*3 19.5 C 0 km/h
2008 11-10-2010 17:47:01 19.1 C 3.44 g/m*3 19.1 C 0 km/h
2009 11-10-2010 17:59:01 18.7 C 3.84 g/m*3 18.7 C 0 km/h
2010 11-10-2010 18:11:01 18 C 4.45 g/m*3 18 C 0 km/h
2011 11-10-2010 18:23:02 16.9 C 4.31 g/m*3 16.9 C 0 km/h
2012 11-10-2010 18:35:01 15.7 C 3.88 g/m*3 15.7 C 0 km/h
2013 11-10-2010 18:47:03 15.1 C 3.61 g/m*3 15.1 C 0 km/h
2014 11-10-2010 18:59:03 14.9 C 3.7 g/m*3 14.9 C 0 km/h
2015 11-10-2010 19:11:02 14.4 C 3.71 g/m*3 14.4 C 0 km/h
2016 11-10-2010 19:23:02 13.7 C 4.14 g/m*3 13.7 C 0 km/h
2017 11-10-2010 19:35:02 13.2 C 4.48 g/m*3 13.2 C 0 km/h
2018 11-10-2010 19:47:02 12.5 C 4.51 g/m*3 12.5 C 0 km/h
2019 11-10-2010 19:59:03 12.1 C 4.72 g/m*3 12.1 C 0 km/h
2020 11-10-2010 20:11:02 11.9 C 4.77 g/m*3 11.9 C 0 km/h
2021 11-10-2010 20:23:02 11.8 C 4.84 g/m*3 11.8 C 0 km/h
2022 11-10-2010 20:35:02 11.3 C 4.79 g/m*3 11.3 C 0 km/h
2023 11-10-2010 20:47:01 11 C 4.7 g/m*3 11 C 0 km/h
2024 11-10-2010 20:59:01 10.6 C 4.98 g/m*3 10.6 C 0 km/h
2025 11-10-2010 21:11:02 10.3 C 5.08 g/m*3 10.3 C 0 km/h
Sensor: Nr:Datum:Temp:Abs-Feuchte:Windchill:Wind:
Aussen-T/F 2026 11-10-2010 21:23:01 10.1 C 4.82 g/m*3 10.1 C 0 km/h
2027 11-10-2010 21:35:02 9.9 C 4.95 g/m*3 9.9 C 0 km/h
2028 11-10-2010 21:48:03 9.8 C 5.01 g/m*3 9.8 C 0 km/h
2029 11-10-2010 22:00:03 9.6 C 4.95 g/m*3 9.6 C 0 km/h
2030 11-10-2010 22:12:03 9.4 C 4.88 g/m*3 9.4 C 0 km/h
2031 11-10-2010 22:24:03 9.3 C 4.76 g/m*3 9.3 C 0 km/h
2032 11-10-2010 22:36:03 8.9 C 4.82 g/m*3 8.9 C 0 km/h
2033 11-10-2010 22:48:03 8.8 C 4.79 g/m*3 8.8 C 0 km/h
2034 11-10-2010 23:00:03 8.7 C 5.02 g/m*3 8.7 C 0 km/h
2035 11-10-2010 23:12:04 8.4 C 4.84 g/m*3 8.4 C 0 km/h
2036 11-10-2010 23:24:04 8.2 C 4.86 g/m*3 8.2 C 0 km/h
2037 11-10-2010 23:36:04 8.1 C 4.83 g/m*3 8.1 C 0 km/h
2038 11-10-2010 23:48:04 7.8 C 4.82 g/m*3 7.8 C 0 km/h
2039 12-10-2010 00:00:04 7.4 C 4.93 g/m*3 7.4 C 0 km/h
2040 12-10-2010 00:12:04 7.3 C 4.98 g/m*3 7.3 C 0 km/h
2041 12-10-2010 00:24:04 7.2 C 4.95 g/m*3 7.2 C 0 km/h
2042 12-10-2010 00:36:04 7.1 C 5.07 g/m*3 7.1 C 0 km/h
2043 12-10-2010 00:48:04 6.8 C 5.12 g/m*3 6.8 C 0 km/h
2044 12-10-2010 01:00:04 6.7 C 5.09 g/m*3 6.7 C 0 km/h
2045 12-10-2010 01:12:04 6.5 C 5.1 g/m*3 6.5 C 0 km/h
2046 12-10-2010 01:24:04 6.4 C 5.14 g/m*3 6.4 C 0 km/h
2047 12-10-2010 01:36:04 6.3 C 5.18 g/m*3 6.3 C 0 km/h
2048 12-10-2010 01:48:04 6.1 C 5.11 g/m*3 6.1 C 0 km/h
2049 12-10-2010 02:00:04 6 C 5.15 g/m*3 6 C 0 km/h
2050 12-10-2010 02:12:04 5.8 C 5.23 g/m*3 5.8 C 0 km/h
Sensor: Nr:Datum:Temp:Abs-Feuchte:Windchill:Wind:
Aussen-T/F 2051 12-10-2010 02:24:04 5.8 C 5.3 g/m*3 5.8 C 0 km/h
2052 12-10-2010 02:36:04 5.6 C 5.23 g/m*3 5.6 C 0 km/h
2053 12-10-2010 02:48:04 5.5 C 5.27 g/m*3 5.5 C 0 km/h
2054 12-10-2010 03:00:04 5.2 C 5.16 g/m*3 5.2 C 0 km/h
2055 12-10-2010 03:12:04 5.3 C 5.41 g/m*3 5.3 C 0 km/h
2056 12-10-2010 03:24:05 5.1 C 5.4 g/m*3 5.1 C 0 km/h
2057 12-10-2010 03:36:05 4.9 C 5.33 g/m*3 4.9 C 0 km/h
2058 12-10-2010 03:48:05 4.7 C 5.26 g/m*3 4.7 C 0 km/h
2059 12-10-2010 04:00:05 4.6 C 5.29 g/m*3 4.6 C 0 km/h
2060 12-10-2010 04:12:05 4.4 C 5.22 g/m*3 4.4 C 0 km/h
2061 12-10-2010 04:24:05 4.5 C 5.39 g/m*3 4.5 C 0 km/h
2062 12-10-2010 04:36:05 4.4 C 5.42 g/m*3 4.4 C 0 km/h
2063 12-10-2010 04:48:05 4.2 C 5.35 g/m*3 4.2 C 0 km/h
2064 12-10-2010 05:00:05 4.1 C 5.38 g/m*3 4.1 C 0 km/h
2065 12-10-2010 05:12:05 4 C 5.34 g/m*3 4 C 0 km/h
2066 12-10-2010 05:24:05 3.7 C 5.3 g/m*3 3.7 C 0 km/h
2067 12-10-2010 05:36:05 3.6 C 5.26 g/m*3 3.6 C 0 km/h
2068 12-10-2010 05:48:05 3.6 C 5.26 g/m*3 3.6 C 0 km/h
2069 12-10-2010 06:00:05 3.6 C 5.26 g/m*3 3.6 C 0 km/h
2070 12-10-2010 06:12:05 3.5 C 5.29 g/m*3 3.5 C 0 km/h
2071 12-10-2010 06:24:05 3.4 C 5.25 g/m*3 3.4 C 0 km/h
2072 12-10-2010 06:36:05 3.4 C 5.25 g/m*3 3.4 C 0 km/h
2073 12-10-2010 06:48:02 3.4 C 5.25 g/m*3 3.4 C 0 km/h
2074 12-10-2010 07:00:02 3.2 C 5.18 g/m*3 3.2 C 0 km/h
2075 12-10-2010 07:12:03 3.1 C 5.15 g/m*3 3.1 C 0 km/h
Sensor: Nr:Datum:Temp:Abs-Feuchte:Windchill:Wind:
Aussen-T/F 2076 12-10-2010 07:24:02 3 C 5.17 g/m*3 3 C 0 km/h
2077 12-10-2010 07:36:02 2.8 C 5.16 g/m*3 2.8 C 0 km/h
2078 12-10-2010 07:48:01 2.6 C 5.09 g/m*3 2.6 C 0 km/h
2079 12-10-2010 08:00:01 2.7 C 5.13 g/m*3 2.7 C 0 km/h
2080 12-10-2010 08:12:02 3.2 C 5.36 g/m*3 3.2 C 0 km/h
2081 12-10-2010 08:24:02 3.6 C 5.57 g/m*3 3.6 C 0 km/h
2082 12-10-2010 08:36:02 4 C 5.72 g/m*3 4 C 0 km/h
2083 12-10-2010 08:48:02 4.3 C 5.84 g/m*3 4.3 C 0 km/h
2084 12-10-2010 09:00:02 4.5 C 5.85 g/m*3 4.5 C 0 km/h
2085 12-10-2010 09:12:02 4.7 C 5.93 g/m*3 4.7 C 0 km/h
2086 12-10-2010 09:24:02 4.8 C 5.9 g/m*3 4.8 C 0 km/h
2087 12-10-2010 09:36:02 5.2 C 5.99 g/m*3 5.2 C 0 km/h
2088 12-10-2010 09:48:02 5.3 C 5.96 g/m*3 5.3 C 0 km/h
2089 12-10-2010 10:00:02 5.3 C 5.89 g/m*3 5.3 C 0 km/h
2090 12-10-2010 10:12:02 5.6 C 6.01 g/m*3 5.6 C 0 km/h
2091 12-10-2010 10:24:02 5.7 C 6.05 g/m*3 5.7 C 0 km/h
2092 12-10-2010 10:36:02 6 C 6.1 g/m*3 6 C 0 km/h
2093 12-10-2010 10:48:02 6.5 C 6.3 g/m*3 6.5 C 0 km/h
2094 12-10-2010 11:00:02 6.5 C 6.3 g/m*3 6.5 C 0 km/h
2095 12-10-2010 11:12:02 6.6 C 6.34 g/m*3 6.6 C 0 km/h
2096 12-10-2010 11:24:02 7 C 6.43 g/m*3 7 C 0 km/h
2097 12-10-2010 11:36:02 7.7 C 6.41 g/m*3 7.7 C 0 km/h
2098 12-10-2010 11:48:02 8 C 6.28 g/m*3 8 C 0 km/h
2099 12-10-2010 12:00:02 8.4 C 6.28 g/m*3 8.4 C 0 km/h
2100 12-10-2010 12:12:02 9 C 6.17 g/m*3 9 C 0 km/h
Sensor: Nr:Datum:Temp:Abs-Feuchte:Windchill:Wind:
Aussen-T/F 2101 12-10-2010 12:24:02 9.6 C 6.14 g/m*3 9.6 C 0 km/h
2102 12-10-2010 12:36:02 10.2 C 6.09 g/m*3 10.2 C 0 km/h
2103 12-10-2010 12:48:02 10.6 C 6.15 g/m*3 10.6 C 0 km/h
2104 12-10-2010 13:00:02 11.5 C 5.78 g/m*3 11.5 C 0 km/h
2105 12-10-2010 13:12:01 12.2 C 5.5 g/m*3 12.2 C 0 km/h
2106 12-10-2010 13:24:02 12.7 C 5.79 g/m*3 12.7 C 0 km/h
2107 12-10-2010 13:36:02 13 C 5.78 g/m*3 13 C 0 km/h
2108 12-10-2010 13:48:02 13.5 C 5.73 g/m*3 13.5 C 0 km/h
2109 12-10-2010 14:00:02 14.1 C 5.83 g/m*3 14.1 C 0 km/h
2110 12-10-2010 14:12:03 15 C 5.39 g/m*3 15 C 0 km/h
2111 12-10-2010 14:24:02 15.4 C 5.65 g/m*3 15.4 C 0 km/h
2112 12-10-2010 14:36:02 15.6 C 5.72 g/m*3 15.6 C 0 km/h
2113 12-10-2010 14:48:01 16.2 C 5.65 g/m*3 16.2 C 0 km/h
2114 12-10-2010 15:00:01 16.4 C 5.58 g/m*3 16.4 C 0 km/h
2115 12-10-2010 15:12:02 17 C 5.5 g/m*3 17 C 0 km/h
2116 12-10-2010 15:24:01 16.8 C 5.29 g/m*3 16.8 C 0 km/h
2117 12-10-2010 15:36:01 17.2 C 5.42 g/m*3 17.2 C 0 km/h
2118 12-10-2010 15:48:01 17.3 C 5.3 g/m*3 17.3 C 0 km/h
2119 12-10-2010 16:00:01 17.5 C 5.52 g/m*3 17.5 C 0 km/h
2120 12-10-2010 16:12:02 17.8 C 5.31 g/m*3 17.8 C 0 km/h
2121 12-10-2010 16:24:02 17.4 C 5.48 g/m*3 17.4 C 0 km/h
2122 12-10-2010 16:36:01 17.7 C 5.43 g/m*3 17.7 C 0 km/h
2123 12-10-2010 16:48:02 17.9 C 5.34 g/m*3 17.9 C 0 km/h
2124 12-10-2010 17:00:02 17.9 C 4.89 g/m*3 17.9 C 0 km/h
2125 12-10-2010 17:12:01 17.8 C 4.86 g/m*3 17.8 C 0 km/h
Sensor: Nr:Datum:Temp:Abs-Feuchte:Windchill:Wind:
Aussen-T/F 2126 12-10-2010 17:24:02 17.4 C 4.45 g/m*3 17.4 C 0 km/h
2127 12-10-2010 17:36:01 16.6 C 4.24 g/m*3 16.6 C 0 km/h
2128 12-10-2010 17:48:02 16.4 C 4.47 g/m*3 16.4 C 0 km/h
2129 12-10-2010 18:00:02 16 C 4.9 g/m*3 16 C 0 km/h
2130 12-10-2010 18:12:02 15.4 C 5.39 g/m*3 15.4 C 0 km/h
2131 12-10-2010 18:24:02 14.4 C 5.69 g/m*3 14.4 C 0 km/h
2132 12-10-2010 18:36:03 13.7 C 5.92 g/m*3 13.7 C 0 km/h
2133 12-10-2010 18:48:02 13 C 6.12 g/m*3 13 C 0 km/h
2134 12-10-2010 19:00:02 12.3 C 6.3 g/m*3 12.3 C 0 km/h
2135 12-10-2010 19:12:02 11.8 C 6.42 g/m*3 11.8 C 0 km/h
2136 12-10-2010 19:24:02 11.3 C 6.43 g/m*3 11.3 C 0 km/h
2137 12-10-2010 19:36:02 10.9 C 6.56 g/m*3 10.9 C 0 km/h
2138 12-10-2010 19:48:02 10.8 C 6.52 g/m*3 10.8 C 0 km/h
2139 12-10-2010 20:00:02 10.4 C 6.46 g/m*3 10.4 C 0 km/h
2140 12-10-2010 20:12:01 10.1 C 6.43 g/m*3 10.1 C 0 km/h
2141 12-10-2010 20:24:02 9.9 C 6.54 g/m*3 9.9 C 0 km/h
2142 12-10-2010 20:36:01 9.5 C 6.46 g/m*3 9.5 C 0 km/h
2143 12-10-2010 20:48:02 9.3 C 6.47 g/m*3 9.3 C 0 km/h
2144 12-10-2010 21:00:02 8.9 C 6.39 g/m*3 8.9 C 0 km/h
2145 12-10-2010 21:12:02 8.6 C 6.27 g/m*3 8.6 C 0 km/h
2146 12-10-2010 21:24:02 8.3 C 6.24 g/m*3 8.3 C 0 km/h
2147 12-10-2010 21:36:02 8.1 C 6.16 g/m*3 8.1 C 0 km/h
2148 12-10-2010 21:48:02 7.9 C 6.24 g/m*3 7.9 C 0 km/h
2149 12-10-2010 22:00:02 7.7 C 6.16 g/m*3 7.7 C 0 km/h
2150 12-10-2010 22:12:01 7.5 C 6.08 g/m*3 7.5 C 0 km/h
Sensor: Nr:Datum:Temp:Abs-Feuchte:Windchill:Wind:
Aussen-T/F 2151 12-10-2010 22:25:03 7.6 C 6.2 g/m*3 7.6 C 0 km/h
2152 12-10-2010 22:37:03 7.9 C 6.24 g/m*3 7.9 C 0 km/h
2153 12-10-2010 22:49:03 8 C 6.04 g/m*3 8 C 0 km/h
2154 12-10-2010 23:01:03 7.9 C 6 g/m*3 7.9 C 0 km/h
2155 12-10-2010 23:13:03 7.7 C 5.92 g/m*3 7.7 C 0 km/h
2156 12-10-2010 23:25:03 7.8 C 6.04 g/m*3 7.8 C 0 km/h
2157 12-10-2010 23:37:03 7.8 C 6.04 g/m*3 7.8 C 0 km/h
2158 12-10-2010 23:49:03 7.7 C 6 g/m*3 7.7 C 0 km/h
2159 13-10-2010 00:01:03 7.7 C 5.92 g/m*3 7.7 C 0 km/h
2160 13-10-2010 00:13:03 7.7 C 5.92 g/m*3 7.7 C 0 km/h
2161 13-10-2010 00:25:03 7.9 C 5.91 g/m*3 7.9 C 0 km/h
2162 13-10-2010 00:37:03 7.4 C 5.81 g/m*3 7.4 C 0 km/h
2163 13-10-2010 00:49:03 7.3 C 5.77 g/m*3 7.3 C 0 km/h
2164 13-10-2010 01:01:03 7.3 C 5.85 g/m*3 7.3 C 0 km/h
2165 13-10-2010 01:13:03 7.3 C 5.85 g/m*3 7.3 C 0 km/h
2166 13-10-2010 01:25:04 7 C 5.73 g/m*3 7 C 0 km/h
2167 13-10-2010 01:37:04 6.8 C 5.81 g/m*3 6.8 C 0 km/h
2168 13-10-2010 01:49:04 6.7 C 5.85 g/m*3 6.7 C 0 km/h
2169 13-10-2010 02:01:04 6.9 C 5.93 g/m*3 6.9 C 0 km/h
2170 13-10-2010 02:13:04 6.9 C 5.85 g/m*3 6.9 C 0 km/h
2171 13-10-2010 02:25:04 6.8 C 5.81 g/m*3 6.8 C 0 km/h
2172 13-10-2010 02:37:04 6.9 C 5.85 g/m*3 6.9 C 0 km/h
2173 13-10-2010 02:49:04 6.5 C 5.7 g/m*3 6.5 C 0 km/h
2174 13-10-2010 03:01:04 6.4 C 5.74 g/m*3 6.4 C 0 km/h
2175 13-10-2010 03:13:04 6.4 C 5.74 g/m*3 6.4 C 0 km/h
Sensor: Nr:Datum:Temp:Abs-Feuchte:Windchill:Wind:
Aussen-T/F 2176 13-10-2010 03:25:04 6.5 C 5.7 g/m*3 6.5 C 0 km/h
2177 13-10-2010 03:37:04 6.5 C 5.7 g/m*3 6.5 C 0 km/h
2178 13-10-2010 03:49:04 6.4 C 5.59 g/m*3 6.4 C 0 km/h
2179 13-10-2010 04:01:04 6.2 C 5.52 g/m*3 6.2 C 0 km/h
2180 13-10-2010 04:13:04 6.1 C 5.55 g/m*3 6.1 C 0 km/h
2181 13-10-2010 04:25:04 6.2 C 5.66 g/m*3 6.2 C 0 km/h
2182 13-10-2010 04:37:04 6.2 C 5.59 g/m*3 6.2 C 0 km/h
2183 13-10-2010 04:49:04 6.3 C 5.63 g/m*3 6.3 C 0 km/h
2184 13-10-2010 05:01:04 6.3 C 5.63 g/m*3 6.3 C 0 km/h
2185 13-10-2010 05:13:04 6.2 C 5.59 g/m*3 6.2 C 0 km/h
2186 13-10-2010 05:25:04 6.1 C 5.55 g/m*3 6.1 C 0 km/h
2187 13-10-2010 05:37:05 6 C 5.59 g/m*3 6 C 0 km/h
2188 13-10-2010 05:49:05 5.9 C 5.62 g/m*3 5.9 C 0 km/h
2189 13-10-2010 06:01:05 6 C 5.66 g/m*3 6 C 0 km/h
2190 13-10-2010 06:13:05 6 C 5.59 g/m*3 6 C 0 km/h
2191 13-10-2010 06:25:05 5.8 C 5.59 g/m*3 5.8 C 0 km/h
2192 13-10-2010 06:37:05 5.8 C 5.59 g/m*3 5.8 C 0 km/h
2193 13-10-2010 06:49:02 5.6 C 5.59 g/m*3 5.6 C 0 km/h
2194 13-10-2010 07:01:02 5.5 C 5.55 g/m*3 5.5 C 0 km/h
2195 13-10-2010 07:13:02 5.4 C 5.51 g/m*3 5.4 C 0 km/h
2196 13-10-2010 07:25:02 5.2 C 5.44 g/m*3 5.2 C 0 km/h
2197 13-10-2010 07:37:02 5.4 C 5.58 g/m*3 5.4 C 0 km/h
2198 13-10-2010 07:49:01 5.6 C 5.59 g/m*3 5.6 C 0 km/h
2199 13-10-2010 08:01:02 5.7 C 5.55 g/m*3 5.7 C 0 km/h
2200 13-10-2010 08:13:02 5.6 C 5.51 g/m*3 5.6 C 0 km/h
Sensor: Nr:Datum:Temp:Abs-Feuchte:Windchill:Wind:
Aussen-T/F 2201 13-10-2010 08:25:02 5.6 C 5.51 g/m*3 5.6 C 0 km/h
2202 13-10-2010 08:37:01 5.6 C 5.44 g/m*3 5.6 C 0 km/h
2203 13-10-2010 08:49:02 5.6 C 5.44 g/m*3 5.6 C 0 km/h
2204 13-10-2010 09:01:02 5.7 C 5.48 g/m*3 5.7 C 0 km/h
2205 13-10-2010 09:13:02 5.7 C 5.48 g/m*3 5.7 C 0 km/h
2206 13-10-2010 09:25:02 5.8 C 5.44 g/m*3 5.8 C 0 km/h
2207 13-10-2010 09:37:03 6 C 5.44 g/m*3 6 C 0 km/h
2208 13-10-2010 09:49:02 6.1 C 5.41 g/m*3 6.1 C 0 km/h
2209 13-10-2010 10:01:02 6.4 C 5.44 g/m*3 6.4 C 0 km/h
2210 13-10-2010 10:13:02 6.6 C 5.36 g/m*3 6.6 C 0 km/h
2211 13-10-2010 10:25:01 6.7 C 5.32 g/m*3 6.7 C 0 km/h
2212 13-10-2010 10:37:02 6.8 C 5.2 g/m*3 6.8 C 0 km/h
2213 13-10-2010 10:49:02 6.8 C 5.2 g/m*3 6.8 C 0 km/h
2214 13-10-2010 11:01:02 7 C 5.11 g/m*3 7 C 0 km/h
2215 13-10-2010 11:13:02 7 C 5.04 g/m*3 7 C 0 km/h
2216 13-10-2010 11:25:02 6.8 C 5.05 g/m*3 6.8 C 0 km/h
2217 13-10-2010 11:37:02 7.1 C 5.15 g/m*3 7.1 C 0 km/h
2218 13-10-2010 11:49:02 7.3 C 5.06 g/m*3 7.3 C 0 km/h
2219 13-10-2010 12:01:02 7.7 C 5.11 g/m*3 7.7 C 0 km/h
2220 13-10-2010 12:13:02 7.9 C 5.01 g/m*3 7.9 C 0 km/h
2221 13-10-2010 12:25:02 8 C 5.04 g/m*3 8 C 0 km/h
2222 13-10-2010 12:37:02 8.4 C 5.01 g/m*3 8.4 C 0 km/h
2223 13-10-2010 12:49:02 8.7 C 5.1 g/m*3 8.7 C 0 km/h
2224 13-10-2010 13:01:02 9 C 4.94 g/m*3 9 C 0 km/h
2225 13-10-2010 13:13:02 8.8 C 4.87 g/m*3 8.8 C 0 km/h
Sensor: Nr:Datum:Temp:Abs-Feuchte:Windchill:Wind:
Aussen-T/F 2226 13-10-2010 13:25:02 9 C 4.94 g/m*3 9 C 0 km/h
2227 13-10-2010 13:37:02 8.5 C 4.87 g/m*3 8.5 C 0 km/h
2228 13-10-2010 13:49:02 8.7 C 4.84 g/m*3 8.7 C 0 km/h
2229 13-10-2010 14:01:02 9.6 C 5.13 g/m*3 9.6 C 0 km/h
2230 13-10-2010 14:13:02 9.4 C 4.79 g/m*3 9.4 C 0 km/h
2231 13-10-2010 14:25:02 9.6 C 4.86 g/m*3 9.6 C 0 km/h
2232 13-10-2010 14:37:01 9.7 C 4.98 g/m*3 9.7 C 0 km/h
2233 13-10-2010 14:49:02 10.7 C 5.01 g/m*3 10.7 C 0 km/h
2234 13-10-2010 15:01:01 11.3 C 5 g/m*3 11.3 C 0 km/h
2235 13-10-2010 15:13:01 11.2 C 4.87 g/m*3 11.2 C 0 km/h
2236 13-10-2010 15:25:01 11.9 C 5.08 g/m*3 11.9 C 0 km/h
2237 13-10-2010 15:37:02 12 C 4.8 g/m*3 12 C 0 km/h
2238 13-10-2010 15:49:02 12.5 C 4.95 g/m*3 12.5 C 0 km/h
2239 13-10-2010 16:01:02 12.1 C 4.93 g/m*3 12.1 C 0 km/h
2240 13-10-2010 16:13:02 11.9 C 4.98 g/m*3 11.9 C 0 km/h
2241 13-10-2010 16:25:01 12.1 C 4.93 g/m*3 12.1 C 0 km/h
2242 13-10-2010 16:37:02 11.8 C 5.05 g/m*3 11.8 C 0 km/h
2243 13-10-2010 16:49:02 12.4 C 5.14 g/m*3 12.4 C 0 km/h
2244 13-10-2010 17:01:02 12.3 C 4.99 g/m*3 12.3 C 0 km/h
2245 13-10-2010 17:13:02 12.2 C 5.07 g/m*3 12.2 C 0 km/h
2246 13-10-2010 17:25:01 12.5 C 5.39 g/m*3 12.5 C 0 km/h
2247 13-10-2010 17:37:02 12.5 C 5.28 g/m*3 12.5 C 0 km/h
2248 13-10-2010 17:49:01 12.2 C 5.4 g/m*3 12.2 C 0 km/h
2249 13-10-2010 18:01:02 11.6 C 5.4 g/m*3 11.6 C 0 km/h
2250 13-10-2010 18:13:02 10.9 C 5.47 g/m*3 10.9 C 0 km/h
Sensor: Nr:Datum:Temp:Abs-Feuchte:Windchill:Wind:
Aussen-T/F 2251 13-10-2010 18:25:02 9.8 C 5.47 g/m*3 9.8 C 0 km/h
2252 13-10-2010 18:37:02 9 C 5.47 g/m*3 9 C 0 km/h
2253 13-10-2010 18:49:02 8.4 C 5.6 g/m*3 8.4 C 0 km/h
2254 13-10-2010 19:01:01 7.9 C 5.67 g/m*3 7.9 C 0 km/h
2255 13-10-2010 19:13:01 7.6 C 5.72 g/m*3 7.6 C 0 km/h
2256 13-10-2010 19:25:02 7.4 C 5.73 g/m*3 7.4 C 0 km/h
2257 13-10-2010 19:37:01 7.3 C 5.85 g/m*3 7.3 C 0 km/h
2258 13-10-2010 19:49:02 7.2 C 5.81 g/m*3 7.2 C 0 km/h
2259 13-10-2010 20:01:02 7.3 C 5.85 g/m*3 7.3 C 0 km/h
2260 13-10-2010 20:13:02 7 C 5.73 g/m*3 7 C 0 km/h
2261 13-10-2010 20:25:02 7 C 5.81 g/m*3 7 C 0 km/h
2262 13-10-2010 20:37:03 6.9 C 5.85 g/m*3 6.9 C 0 km/h
2263 13-10-2010 20:49:02 6.6 C 5.81 g/m*3 6.6 C 0 km/h
2264 13-10-2010 21:01:02 6.3 C 5.77 g/m*3 6.3 C 0 km/h
2265 13-10-2010 21:13:02 6 C 5.73 g/m*3 6 C 0 km/h
2266 13-10-2010 21:25:01 5.8 C 5.73 g/m*3 5.8 C 0 km/h
2267 13-10-2010 21:37:02 5.6 C 5.73 g/m*3 5.6 C 0 km/h
2268 13-10-2010 21:49:02 5.4 C 5.65 g/m*3 5.4 C 0 km/h
2269 13-10-2010 22:02:03 5.4 C 5.72 g/m*3 5.4 C 0 km/h
2270 13-10-2010 22:14:03 5.3 C 5.75 g/m*3 5.3 C 0 km/h
2271 13-10-2010 22:26:03 5.2 C 5.71 g/m*3 5.2 C 0 km/h
2272 13-10-2010 22:38:03 5.1 C 5.75 g/m*3 5.1 C 0 km/h
2273 13-10-2010 22:50:03 4.8 C 5.7 g/m*3 4.8 C 0 km/h
2274 13-10-2010 23:02:03 4.7 C 5.66 g/m*3 4.7 C 0 km/h
2275 13-10-2010 23:14:03 4.6 C 5.62 g/m*3 4.6 C 0 km/h
Sensor: Nr:Datum:Temp:Abs-Feuchte:Windchill:Wind:
Aussen-T/F 2276 13-10-2010 23:26:03 4.6 C 5.62 g/m*3 4.6 C 0 km/h
2277 13-10-2010 23:38:03 4.5 C 5.59 g/m*3 4.5 C 0 km/h
2278 13-10-2010 23:50:03 4.2 C 5.54 g/m*3 4.2 C 0 km/h
2279 14-10-2010 00:02:03 4.1 C 5.5 g/m*3 4.1 C 0 km/h
2280 14-10-2010 00:14:03 4.1 C 5.57 g/m*3 4.1 C 0 km/h
2281 14-10-2010 00:26:03 3.9 C 5.56 g/m*3 3.9 C 0 km/h
2282 14-10-2010 00:38:03 3.7 C 5.48 g/m*3 3.7 C 0 km/h
2283 14-10-2010 00:50:03 3.6 C 5.45 g/m*3 3.6 C 0 km/h
2284 14-10-2010 01:02:04 3.4 C 5.44 g/m*3 3.4 C 0 km/h
2285 14-10-2010 01:14:04 3.4 C 5.44 g/m*3 3.4 C 0 km/h
2286 14-10-2010 01:26:04 3.3 C 5.4 g/m*3 3.3 C 0 km/h
2287 14-10-2010 01:38:04 3.3 C 5.46 g/m*3 3.3 C 0 km/h
2288 14-10-2010 01:50:04 3.5 C 5.6 g/m*3 3.5 C 0 km/h
2289 14-10-2010 02:02:04 3.6 C 5.63 g/m*3 3.6 C 0 km/h
2290 14-10-2010 02:14:04 3.5 C 5.6 g/m*3 3.5 C 0 km/h
2291 14-10-2010 02:26:04 3.6 C 5.63 g/m*3 3.6 C 0 km/h
2292 14-10-2010 02:38:04 3.7 C 5.73 g/m*3 3.7 C 0 km/h
2293 14-10-2010 02:50:04 3.7 C 5.67 g/m*3 3.7 C 0 km/h
2294 14-10-2010 03:02:04 3.6 C 5.63 g/m*3 3.6 C 0 km/h
2295 14-10-2010 03:14:04 3.5 C 5.6 g/m*3 3.5 C 0 km/h
2296 14-10-2010 03:26:04 3.6 C 5.57 g/m*3 3.6 C 0 km/h
2297 14-10-2010 03:38:04 3.5 C 5.53 g/m*3 3.5 C 0 km/h
2298 14-10-2010 03:50:04 3.4 C 5.5 g/m*3 3.4 C 0 km/h
2299 14-10-2010 04:02:04 3.4 C 5.5 g/m*3 3.4 C 0 km/h
2300 14-10-2010 04:14:04 3.5 C 5.53 g/m*3 3.5 C 0 km/h
Sensor: Nr:Datum:Temp:Abs-Feuchte:Windchill:Wind:
Aussen-T/F 2301 14-10-2010 04:26:04 3.6 C 5.57 g/m*3 3.6 C 0 km/h
2302 14-10-2010 04:38:04 3.6 C 5.57 g/m*3 3.6 C 0 km/h
2303 14-10-2010 04:50:04 3.6 C 5.57 g/m*3 3.6 C 0 km/h
2304 14-10-2010 05:02:05 3.5 C 5.53 g/m*3 3.5 C 0 km/h
2305 14-10-2010 05:14:05 3.6 C 5.63 g/m*3 3.6 C 0 km/h
2306 14-10-2010 05:26:05 3.6 C 5.63 g/m*3 3.6 C 0 km/h
2307 14-10-2010 05:38:05 3.6 C 5.63 g/m*3 3.6 C 0 km/h
2308 14-10-2010 05:50:05 3.8 C 5.71 g/m*3 3.8 C 0 km/h
2309 14-10-2010 06:02:05 3.9 C 5.75 g/m*3 3.9 C 0 km/h
2310 14-10-2010 06:14:05 3.9 C 5.75 g/m*3 3.9 C 0 km/h
2311 14-10-2010 06:26:05 3.9 C 5.68 g/m*3 3.9 C 0 km/h
2312 14-10-2010 06:38:05 3.9 C 5.68 g/m*3 3.9 C 0 km/h
2313 14-10-2010 06:50:01 4 C 5.66 g/m*3 4 C 0 km/h
2314 14-10-2010 07:02:02 4 C 5.66 g/m*3 4 C 0 km/h
2315 14-10-2010 07:14:02 4 C 5.72 g/m*3 4 C 0 km/h
2316 14-10-2010 07:26:02 4.1 C 5.76 g/m*3 4.1 C 0 km/h
2317 14-10-2010 07:38:01 4.2 C 5.8 g/m*3 4.2 C 0 km/h
2318 14-10-2010 07:50:02 4.3 C 5.84 g/m*3 4.3 C 0 km/h
2319 14-10-2010 08:02:01 4.4 C 5.88 g/m*3 4.4 C 0 km/h
2320 14-10-2010 08:14:01 4.5 C 5.85 g/m*3 4.5 C 0 km/h
2321 14-10-2010 08:26:01 4.5 C 5.85 g/m*3 4.5 C 0 km/h
2322 14-10-2010 08:38:02 4.4 C 5.81 g/m*3 4.4 C 0 km/h
2323 14-10-2010 08:50:02 4.4 C 5.81 g/m*3 4.4 C 0 km/h
2324 14-10-2010 09:02:02 4.5 C 5.85 g/m*3 4.5 C 0 km/h
2325 14-10-2010 09:14:02 4.4 C 5.81 g/m*3 4.4 C 0 km/h
Sensor: Nr:Datum:Temp:Abs-Feuchte:Windchill:Wind:
Aussen-T/F 2326 14-10-2010 09:26:02 4.6 C 5.89 g/m*3 4.6 C 0 km/h
2327 14-10-2010 09:38:02 4.6 C 5.89 g/m*3 4.6 C 0 km/h
2328 14-10-2010 09:50:02 4.7 C 5.86 g/m*3 4.7 C 0 km/h
2329 14-10-2010 10:02:02 5 C 5.91 g/m*3 5 C 0 km/h
2330 14-10-2010 10:14:02 5 C 5.91 g/m*3 5 C 0 km/h
2331 14-10-2010 10:26:02 5 C 5.78 g/m*3 5 C 0 km/h
2332 14-10-2010 10:38:02 5.2 C 5.85 g/m*3 5.2 C 0 km/h
2333 14-10-2010 10:50:02 5.6 C 5.94 g/m*3 5.6 C 0 km/h
2334 14-10-2010 11:02:02 6 C 5.95 g/m*3 6 C 0 km/h
2335 14-10-2010 11:14:02 5.9 C 5.77 g/m*3 5.9 C 0 km/h
2336 14-10-2010 11:26:02 6.2 C 5.74 g/m*3 6.2 C 0 km/h
2337 14-10-2010 11:38:02 6.1 C 5.55 g/m*3 6.1 C 0 km/h
2338 14-10-2010 11:50:02 6.8 C 5.74 g/m*3 6.8 C 0 km/h
2339 14-10-2010 12:02:02 7 C 5.58 g/m*3 7 C 0 km/h
2340 14-10-2010 12:14:02 7.5 C 5.68 g/m*3 7.5 C 0 km/h
2341 14-10-2010 12:26:02 8 C 5.62 g/m*3 8 C 0 km/h
2342 14-10-2010 12:38:01 8.4 C 5.51 g/m*3 8.4 C 0 km/h
2343 14-10-2010 12:50:02 8.4 C 5.51 g/m*3 8.4 C 0 km/h
2344 14-10-2010 13:02:01 9.2 C 5.63 g/m*3 9.2 C 0 km/h
2345 14-10-2010 13:14:01 8.7 C 5.36 g/m*3 8.7 C 0 km/h
2346 14-10-2010 13:26:02 9.4 C 5.61 g/m*3 9.4 C 0 km/h
2347 14-10-2010 13:38:02 9.6 C 5.59 g/m*3 9.6 C 0 km/h
2348 14-10-2010 13:50:02 9.9 C 5.7 g/m*3 9.9 C 0 km/h
2349 14-10-2010 14:02:03 10.8 C 5.83 g/m*3 10.8 C 0 km/h
2350 14-10-2010 14:14:03 11.4 C 5.85 g/m*3 11.4 C 0 km/h
Sensor: Nr:Datum:Temp:Abs-Feuchte:Windchill:Wind:
Aussen-T/F 2351 14-10-2010 14:26:02 11.9 C 5.82 g/m*3 11.9 C 0 km/h
2352 14-10-2010 14:38:02 12.3 C 5.86 g/m*3 12.3 C 0 km/h
2353 14-10-2010 14:50:01 12.9 C 5.86 g/m*3 12.9 C 0 km/h
2354 14-10-2010 15:02:02 13.1 C 5.71 g/m*3 13.1 C 0 km/h
2355 14-10-2010 15:14:02 13.8 C 5.84 g/m*3 13.8 C 0 km/h
2356 14-10-2010 15:26:01 14 C 5.67 g/m*3 14 C 0 km/h
2357 14-10-2010 15:38:01 14.4 C 5.81 g/m*3 14.4 C 0 km/h
2358 14-10-2010 15:50:01 14.4 C 5.56 g/m*3 14.4 C 0 km/h
2359 14-10-2010 16:02:02 14.7 C 5.67 g/m*3 14.7 C 0 km/h
2360 14-10-2010 16:14:02 14.7 C 5.67 g/m*3 14.7 C 0 km/h
2361 14-10-2010 16:26:02 14.4 C 5.81 g/m*3 14.4 C 0 km/h
2362 14-10-2010 16:38:01 14 C 6.03 g/m*3 14 C 0 km/h
2363 14-10-2010 16:50:02 14.2 C 5.98 g/m*3 14.2 C 0 km/h
2364 14-10-2010 17:02:01 13.5 C 5.5 g/m*3 13.5 C 0 km/h
2365 14-10-2010 17:14:01 13.4 C 5.46 g/m*3 13.4 C 0 km/h
2366 14-10-2010 17:26:02 13.4 C 5.46 g/m*3 13.4 C 0 km/h
2367 14-10-2010 17:38:01 13 C 5.33 g/m*3 13 C 0 km/h
2368 14-10-2010 17:50:02 12.9 C 5.75 g/m*3 12.9 C 0 km/h
2369 14-10-2010 18:02:02 12 C 5.75 g/m*3 12 C 0 km/h
2370 14-10-2010 18:14:02 11.6 C 5.92 g/m*3 11.6 C 0 km/h
2371 14-10-2010 18:26:02 10.9 C 5.97 g/m*3 10.9 C 0 km/h
2372 14-10-2010 18:38:03 10.5 C 6.01 g/m*3 10.5 C 0 km/h
2373 14-10-2010 18:50:02 10.2 C 6.09 g/m*3 10.2 C 0 km/h
2374 14-10-2010 19:02:02 10.2 C 6.19 g/m*3 10.2 C 0 km/h
2375 14-10-2010 19:14:02 10.2 C 6.19 g/m*3 10.2 C 0 km/h
Sensor: Nr:Datum:Temp:Abs-Feuchte:Windchill:Wind:
Aussen-T/F 2376 14-10-2010 19:26:02 10.3 C 6.22 g/m*3 10.3 C 0 km/h
2377 14-10-2010 19:38:02 10.3 C 6.32 g/m*3 10.3 C 0 km/h
2378 14-10-2010 19:50:02 10.3 C 6.32 g/m*3 10.3 C 0 km/h
2379 14-10-2010 20:02:02 10.3 C 6.32 g/m*3 10.3 C 0 km/h
2380 14-10-2010 20:14:02 10.2 C 6.19 g/m*3 10.2 C 0 km/h
2381 14-10-2010 20:26:02 10.2 C 6.19 g/m*3 10.2 C 0 km/h
2382 14-10-2010 20:38:02 10.2 C 6.28 g/m*3 10.2 C 0 km/h
2383 14-10-2010 20:50:02 10.1 C 6.24 g/m*3 10.1 C 0 km/h
2384 14-10-2010 21:02:02 9.9 C 6.26 g/m*3 9.9 C 0 km/h
2385 14-10-2010 21:14:02 9.7 C 6.27 g/m*3 9.7 C 0 km/h
2386 14-10-2010 21:26:02 9.8 C 6.4 g/m*3 9.8 C 0 km/h
2387 14-10-2010 21:38:02 9.8 C 6.4 g/m*3 9.8 C 0 km/h
2388 14-10-2010 21:51:04 9.8 C 6.31 g/m*3 9.8 C 0 km/h
2389 14-10-2010 22:03:04 9.7 C 6.36 g/m*3 9.7 C 0 km/h
2390 14-10-2010 22:15:04 9.7 C 6.45 g/m*3 9.7 C 0 km/h
2391 14-10-2010 22:27:04 9.8 C 6.59 g/m*3 9.8 C 0 km/h
2392 14-10-2010 22:39:05 9.8 C 6.59 g/m*3 9.8 C 0 km/h
2393 14-10-2010 22:51:05 9.7 C 6.55 g/m*3 9.7 C 0 km/h
2394 14-10-2010 23:03:05 9.7 C 6.64 g/m*3 9.7 C 0 km/h
2395 14-10-2010 23:15:05 9.7 C 6.64 g/m*3 9.7 C 0 km/h
2396 14-10-2010 23:27:05 9.7 C 6.73 g/m*3 9.7 C 0 km/h
2397 14-10-2010 23:39:05 9.7 C 6.73 g/m*3 9.7 C 0 km/h
2398 14-10-2010 23:51:05 9.6 C 6.69 g/m*3 9.6 C 0 km/h
2399 15-10-2010 00:03:05 9.5 C 6.74 g/m*3 9.5 C 0 km/h
2400 15-10-2010 00:15:05 9.5 C 6.74 g/m*3 9.5 C 0 km/h
Sensor: Nr:Datum:Temp:Abs-Feuchte:Windchill:Wind:
Aussen-T/F 2401 15-10-2010 00:27:05 9.5 C 6.74 g/m*3 9.5 C 0 km/h
2402 15-10-2010 00:39:05 9.5 C 6.74 g/m*3 9.5 C 0 km/h
2403 15-10-2010 00:51:05 9.5 C 6.83 g/m*3 9.5 C 0 km/h
2404 15-10-2010 01:03:05 9.5 C 6.83 g/m*3 9.5 C 0 km/h
2405 15-10-2010 01:15:05 9.5 C 6.83 g/m*3 9.5 C 0 km/h
2406 15-10-2010 01:27:05 9.5 C 6.92 g/m*3 9.5 C 0 km/h
2407 15-10-2010 01:39:05 9.4 C 6.87 g/m*3 9.4 C 0 km/h
2408 15-10-2010 01:51:05 9.2 C 6.97 g/m*3 9.2 C 0 km/h
2409 15-10-2010 02:03:05 9.2 C 7.05 g/m*3 9.2 C 0 km/h
2410 15-10-2010 02:15:05 9.2 C 7.05 g/m*3 9.2 C 0 km/h
2411 15-10-2010 02:27:05 9.3 C 7.19 g/m*3 9.3 C 0 km/h
2412 15-10-2010 02:39:05 9.2 C 7.14 g/m*3 9.2 C 0 km/h
2413 15-10-2010 02:51:06 9.3 C 7.19 g/m*3 9.3 C 0 km/h
2414 15-10-2010 03:03:06 9.3 C 7.19 g/m*3 9.3 C 0 km/h
2415 15-10-2010 03:15:06 9.3 C 7.28 g/m*3 9.3 C 0 km/h
2416 15-10-2010 03:27:06 9.2 C 7.14 g/m*3 9.2 C 0 km/h
2417 15-10-2010 03:39:06 9.3 C 7.28 g/m*3 9.3 C 0 km/h
2418 15-10-2010 03:51:06 9.3 C 7.37 g/m*3 9.3 C 0 km/h
2419 15-10-2010 04:03:06 9.3 C 7.37 g/m*3 9.3 C 0 km/h
2420 15-10-2010 04:15:06 9.2 C 7.32 g/m*3 9.2 C 0 km/h
2421 15-10-2010 04:27:06 9.3 C 7.37 g/m*3 9.3 C 0 km/h
2422 15-10-2010 04:39:06 9.3 C 7.37 g/m*3 9.3 C 0 km/h
2423 15-10-2010 04:51:06 9.3 C 7.37 g/m*3 9.3 C 0 km/h
2424 15-10-2010 05:03:06 9.2 C 7.32 g/m*3 9.2 C 0 km/h
2425 15-10-2010 05:15:06 9.2 C 7.32 g/m*3 9.2 C 0 km/h
Sensor: Nr:Datum:Temp:Abs-Feuchte:Windchill:Wind:
Aussen-T/F 2426 15-10-2010 05:27:06 9.2 C 7.41 g/m*3 9.2 C 0 km/h
2427 15-10-2010 05:39:06 9.2 C 7.5 g/m*3 9.2 C 0 km/h
2428 15-10-2010 05:51:06 9.2 C 7.5 g/m*3 9.2 C 0 km/h
2429 15-10-2010 06:03:06 9.3 C 7.55 g/m*3 9.3 C 0 km/h
2430 15-10-2010 06:15:06 9.3 C 7.64 g/m*3 9.3 C 0 km/h
2431 15-10-2010 06:27:06 9.3 C 7.64 g/m*3 9.3 C 0 km/h
2432 15-10-2010 06:39:06 9.3 C 7.73 g/m*3 9.3 C 0 km/h
2433 15-10-2010 06:51:07 9.3 C 7.73 g/m*3 9.3 C 0 km/h
2434 15-10-2010 07:03:03 9.3 C 7.73 g/m*3 9.3 C 0 km/h
2435 15-10-2010 07:15:04 9.3 C 7.73 g/m*3 9.3 C 0 km/h
2436 15-10-2010 07:27:04 9.3 C 7.73 g/m*3 9.3 C 0 km/h
2437 15-10-2010 07:39:03 9.3 C 7.73 g/m*3 9.3 C 0 km/h
2438 15-10-2010 07:51:02 9.2 C 7.77 g/m*3 9.2 C 0 km/h
2439 15-10-2010 08:03:01 9.2 C 7.77 g/m*3 9.2 C 0 km/h
2440 15-10-2010 08:15:02 9.2 C 7.86 g/m*3 9.2 C 0 km/h
2441 15-10-2010 08:27:02 9.2 C 7.86 g/m*3 9.2 C 0 km/h
2442 15-10-2010 08:39:01 9.3 C 7.91 g/m*3 9.3 C 0 km/h
2443 15-10-2010 08:51:01 9.3 C 7.91 g/m*3 9.3 C 0 km/h
2444 15-10-2010 09:03:01 9.5 C 8.01 g/m*3 9.5 C 0 km/h
2445 15-10-2010 09:15:02 9.6 C 8.15 g/m*3 9.6 C 0 km/h
2446 15-10-2010 09:27:02 9.7 C 8.2 g/m*3 9.7 C 0 km/h
2447 15-10-2010 09:39:01 10.1 C 8.32 g/m*3 10.1 C 0 km/h
2448 15-10-2010 09:51:02 10.2 C 8.28 g/m*3 10.2 C 0 km/h
2449 15-10-2010 10:03:01 10.4 C 8.19 g/m*3 10.4 C 0 km/h
2450 15-10-2010 10:15:01 10.5 C 8.15 g/m*3 10.5 C 0 km/h
Sensor: Nr:Datum:Temp:Abs-Feuchte:Windchill:Wind:
Aussen-T/F 2451 15-10-2010 10:27:01 10.7 C 8.05 g/m*3 10.7 C 0 km/h
2452 15-10-2010 10:39:01 10.9 C 7.96 g/m*3 10.9 C 0 km/h
2453 15-10-2010 10:51:02 11.1 C 7.96 g/m*3 11.1 C 0 km/h
2454 15-10-2010 11:03:01 11.2 C 7.91 g/m*3 11.2 C 0 km/h
2455 15-10-2010 11:15:02 11.3 C 7.75 g/m*3 11.3 C 0 km/h
2456 15-10-2010 11:27:02 11.4 C 7.7 g/m*3 11.4 C 0 km/h
2457 15-10-2010 11:39:02 11.8 C 7.79 g/m*3 11.8 C 0 km/h
2458 15-10-2010 11:51:02 11.9 C 7.63 g/m*3 11.9 C 0 km/h
2459 15-10-2010 12:03:03 12.3 C 7.6 g/m*3 12.3 C 0 km/h
2460 15-10-2010 12:15:02 12 C 7.25 g/m*3 12 C 0 km/h
2461 15-10-2010 12:27:02 11.9 C 7.31 g/m*3 11.9 C 0 km/h
2462 15-10-2010 12:39:02 12.8 C 7.39 g/m*3 12.8 C 0 km/h
2463 15-10-2010 12:51:01 13.1 C 7.07 g/m*3 13.1 C 0 km/h
2464 15-10-2010 13:03:02 12.9 C 6.99 g/m*3 12.9 C 0 km/h
2465 15-10-2010 13:15:01 12.9 C 6.99 g/m*3 12.9 C 0 km/h
2466 15-10-2010 13:27:01 13.4 C 6.97 g/m*3 13.4 C 0 km/h
2467 15-10-2010 13:39:01 14 C 6.88 g/m*3 14 C 0 km/h
2468 15-10-2010 13:51:01 13.7 C 6.63 g/m*3 13.7 C 0 km/h
2469 15-10-2010 14:03:01 13.4 C 6.63 g/m*3 13.4 C 0 km/h
2470 15-10-2010 14:15:02 12.9 C 6.76 g/m*3 12.9 C 0 km/h
2471 15-10-2010 14:27:02 12.7 C 6.9 g/m*3 12.7 C 0 km/h
2472 15-10-2010 14:39:01 12.4 C 6.66 g/m*3 12.4 C 0 km/h
2473 15-10-2010 14:51:03 12.5 C 6.82 g/m*3 12.5 C 0 km/h
2474 15-10-2010 15:03:02 13 C 6.8 g/m*3 13 C 0 km/h
2475 15-10-2010 15:15:02 12.9 C 6.76 g/m*3 12.9 C 0 km/h
Sensor: Nr:Datum:Temp:Abs-Feuchte:Windchill:Wind:
Aussen-T/F 2476 15-10-2010 15:27:02 12.9 C 6.76 g/m*3 12.9 C 0 km/h
2477 15-10-2010 15:39:03 13 C 6.58 g/m*3 13 C 0 km/h
2478 15-10-2010 15:51:02 12.5 C 6.49 g/m*3 12.5 C 0 km/h
2479 15-10-2010 16:03:02 12.5 C 6.71 g/m*3 12.5 C 0 km/h
2480 15-10-2010 16:15:02 12.4 C 6.77 g/m*3 12.4 C 0 km/h
2481 15-10-2010 16:27:02 12.2 C 6.69 g/m*3 12.2 C 0 km/h
2482 15-10-2010 16:39:02 12.1 C 6.86 g/m*3 12.1 C 0 km/h
2483 15-10-2010 16:51:02 12 C 6.93 g/m*3 12 C 0 km/h
2484 15-10-2010 17:03:02 11.8 C 7.05 g/m*3 11.8 C 0 km/h
2485 15-10-2010 17:15:02 11.7 C 7.11 g/m*3 11.7 C 0 km/h
2486 15-10-2010 17:27:02 11.5 C 7.13 g/m*3 11.5 C 0 km/h
2487 15-10-2010 17:39:02 11.5 C 7.02 g/m*3 11.5 C 0 km/h
2488 15-10-2010 17:51:02 11.3 C 7.04 g/m*3 11.3 C 0 km/h
2489 15-10-2010 18:03:02 11.1 C 7.05 g/m*3 11.1 C 0 km/h
2490 15-10-2010 18:15:03 11 C 7.01 g/m*3 11 C 0 km/h
2491 15-10-2010 18:27:03 10.9 C 7.06 g/m*3 10.9 C 0 km/h
2492 15-10-2010 18:39:02 10.7 C 6.97 g/m*3 10.7 C 0 km/h
2493 15-10-2010 18:51:01 10.7 C 7.07 g/m*3 10.7 C 0 km/h
2494 15-10-2010 19:03:02 10.6 C 7.03 g/m*3 10.6 C 0 km/h
2495 15-10-2010 19:15:01 10.5 C 6.98 g/m*3 10.5 C 0 km/h
2496 15-10-2010 19:27:01 10.5 C 7.08 g/m*3 10.5 C 0 km/h
2497 15-10-2010 19:39:01 10.5 C 6.98 g/m*3 10.5 C 0 km/h
2498 15-10-2010 19:51:01 10.5 C 6.98 g/m*3 10.5 C 0 km/h
2499 15-10-2010 20:03:01 10.4 C 6.94 g/m*3 10.4 C 0 km/h
2500 15-10-2010 20:15:02 10.3 C 6.99 g/m*3 10.3 C 0 km/h
Sensor: Nr:Datum:Temp:Abs-Feuchte:Windchill:Wind:
Aussen-T/F 2501 15-10-2010 20:27:02 10.2 C 6.95 g/m*3 10.2 C 0 km/h
2502 15-10-2010 20:39:01 10.4 C 7.13 g/m*3 10.4 C 0 km/h
2503 15-10-2010 20:51:03 10.5 C 7.08 g/m*3 10.5 C 0 km/h
2504 15-10-2010 21:03:02 10.5 C 7.08 g/m*3 10.5 C 0 km/h
2505 15-10-2010 21:15:02 10.4 C 7.04 g/m*3 10.4 C 0 km/h
2506 15-10-2010 21:27:02 10.2 C 7.04 g/m*3 10.2 C 0 km/h
2507 15-10-2010 21:39:03 9.8 C 7.33 g/m*3 9.8 C 0 km/h
2508 15-10-2010 21:51:02 9.6 C 7.42 g/m*3 9.6 C 0 km/h
2509 15-10-2010 22:03:02 9.5 C 7.55 g/m*3 9.5 C 0 km/h
2510 15-10-2010 22:15:02 9.3 C 7.55 g/m*3 9.3 C 0 km/h
2511 15-10-2010 22:27:02 9.3 C 7.64 g/m*3 9.3 C 0 km/h
2512 15-10-2010 22:39:01 9.2 C 7.77 g/m*3 9.2 C 0 km/h
2513 15-10-2010 22:52:04 9.2 C 7.86 g/m*3 9.2 C 0 km/h
2514 15-10-2010 23:04:04 9.2 C 7.95 g/m*3 9.2 C 0 km/h
2515 15-10-2010 23:16:04 9.3 C 8 g/m*3 9.3 C 0 km/h
2516 15-10-2010 23:28:04 9.3 C 8.09 g/m*3 9.3 C 0 km/h
2517 15-10-2010 23:40:04 9.1 C 8.07 g/m*3 9.1 C 0 km/h
2518 15-10-2010 23:52:04 9.1 C 8.07 g/m*3 9.1 C 0 km/h
2519 16-10-2010 00:04:04 9.1 C 8.16 g/m*3 9.1 C 0 km/h
2520 16-10-2010 00:16:04 9 C 8.11 g/m*3 9 C 0 km/h
2521 16-10-2010 00:28:04 9 C 8.11 g/m*3 9 C 0 km/h
2522 16-10-2010 00:40:04 9 C 8.2 g/m*3 9 C 0 km/h
2523 16-10-2010 00:52:04 9 C 8.2 g/m*3 9 C 0 km/h
2524 16-10-2010 01:04:04 8.9 C 8.23 g/m*3 8.9 C 0 km/h
2525 16-10-2010 01:16:04 8.9 C 8.23 g/m*3 8.9 C 0 km/h
Sensor: Nr:Datum:Temp:Abs-Feuchte:Windchill:Wind:
Aussen-T/F 2526 16-10-2010 01:28:04 8.8 C 8.18 g/m*3 8.8 C 0 km/h
2527 16-10-2010 01:40:04 8.8 C 8.18 g/m*3 8.8 C 0 km/h
2528 16-10-2010 01:52:04 8.7 C 8.13 g/m*3 8.7 C 0 km/h
2529 16-10-2010 02:04:04 8.7 C 8.13 g/m*3 8.7 C 0 km/h
2530 16-10-2010 02:16:05 8.8 C 8.18 g/m*3 8.8 C 0 km/h
2531 16-10-2010 02:28:05 8.8 C 8.27 g/m*3 8.8 C 0 km/h
2532 16-10-2010 02:40:05 8.8 C 8.27 g/m*3 8.8 C 0 km/h
2533 16-10-2010 02:52:05 8.8 C 8.27 g/m*3 8.8 C 0 km/h
2534 16-10-2010 03:04:05 8.7 C 8.22 g/m*3 8.7 C 0 km/h
2535 16-10-2010 03:16:05 8.7 C 8.22 g/m*3 8.7 C 0 km/h
2536 16-10-2010 03:28:05 8.7 C 8.22 g/m*3 8.7 C 0 km/h
2537 16-10-2010 03:40:05 8.7 C 8.22 g/m*3 8.7 C 0 km/h
2538 16-10-2010 03:52:05 8.6 C 8.16 g/m*3 8.6 C 0 km/h
2539 16-10-2010 04:04:05 8.6 C 8.16 g/m*3 8.6 C 0 km/h
2540 16-10-2010 04:16:05 8.6 C 8.16 g/m*3 8.6 C 0 km/h
2541 16-10-2010 04:28:05 8.5 C 8.11 g/m*3 8.5 C 0 km/h
2542 16-10-2010 04:40:05 8.5 C 8.11 g/m*3 8.5 C 0 km/h
2543 16-10-2010 04:52:05 8.5 C 8.11 g/m*3 8.5 C 0 km/h
2544 16-10-2010 05:04:05 8.5 C 8.11 g/m*3 8.5 C 0 km/h
2545 16-10-2010 05:16:05 8.4 C 8.06 g/m*3 8.4 C 0 km/h
2546 16-10-2010 05:28:05 8.3 C 8.01 g/m*3 8.3 C 0 km/h
2547 16-10-2010 05:40:05 8.3 C 8.01 g/m*3 8.3 C 0 km/h
2548 16-10-2010 05:52:05 8.3 C 8.01 g/m*3 8.3 C 0 km/h
2549 16-10-2010 06:04:05 8.3 C 8.01 g/m*3 8.3 C 0 km/h
2550 16-10-2010 06:16:05 8.4 C 8.06 g/m*3 8.4 C 0 km/h
Sensor: Nr:Datum:Temp:Abs-Feuchte:Windchill:Wind:
Aussen-T/F 2551 16-10-2010 06:28:05 8.3 C 8.01 g/m*3 8.3 C 0 km/h
2552 16-10-2010 06:40:06 8.3 C 8.01 g/m*3 8.3 C 0 km/h
2553 16-10-2010 06:52:06 8.2 C 7.96 g/m*3 8.2 C 0 km/h
2554 16-10-2010 07:04:06 8.2 C 7.96 g/m*3 8.2 C 0 km/h
2555 16-10-2010 07:16:06 8.2 C 7.96 g/m*3 8.2 C 0 km/h
2556 16-10-2010 07:28:06 8.1 C 7.9 g/m*3 8.1 C 0 km/h
2557 16-10-2010 07:40:04 8.1 C 7.82 g/m*3 8.1 C 0 km/h
2558 16-10-2010 07:52:02 8 C 7.77 g/m*3 8 C 0 km/h
2559 16-10-2010 08:04:02 8.1 C 7.82 g/m*3 8.1 C 0 km/h
2560 16-10-2010 08:16:01 8.1 C 7.82 g/m*3 8.1 C 0 km/h
2561 16-10-2010 08:28:01 8.1 C 7.74 g/m*3 8.1 C 0 km/h
2562 16-10-2010 08:40:01 8.1 C 7.74 g/m*3 8.1 C 0 km/h
2563 16-10-2010 08:52:01 8.1 C 7.74 g/m*3 8.1 C 0 km/h
2564 16-10-2010 09:04:01 8.2 C 7.79 g/m*3 8.2 C 0 km/h
2565 16-10-2010 09:16:02 8.2 C 7.79 g/m*3 8.2 C 0 km/h
2566 16-10-2010 09:28:02 8.2 C 7.79 g/m*3 8.2 C 0 km/h
2567 16-10-2010 09:40:01 8.2 C 7.79 g/m*3 8.2 C 0 km/h
2568 16-10-2010 09:52:02 8.4 C 7.89 g/m*3 8.4 C 0 km/h
2569 16-10-2010 10:04:02 8.5 C 7.94 g/m*3 8.5 C 0 km/h
2570 16-10-2010 10:16:02 8.6 C 7.99 g/m*3 8.6 C 0 km/h
2571 16-10-2010 10:28:02 8.8 C 8.18 g/m*3 8.8 C 0 km/h
2572 16-10-2010 10:40:01 8.6 C 7.99 g/m*3 8.6 C 0 km/h
2573 16-10-2010 10:52:02 8.7 C 8.04 g/m*3 8.7 C 0 km/h
2574 16-10-2010 11:04:01 8.9 C 8.15 g/m*3 8.9 C 0 km/h
2575 16-10-2010 11:16:01 8.8 C 8.09 g/m*3 8.8 C 0 km/h
Sensor: Nr:Datum:Temp:Abs-Feuchte:Windchill:Wind:
Aussen-T/F 2576 16-10-2010 11:28:01 9 C 8.11 g/m*3 9 C 0 km/h
2577 16-10-2010 11:40:01 9.1 C 8.16 g/m*3 9.1 C 0 km/h
2578 16-10-2010 11:52:01 9 C 8.02 g/m*3 9 C 0 km/h
2579 16-10-2010 12:04:02 9.3 C 8.18 g/m*3 9.3 C 0 km/h
2580 16-10-2010 12:16:01 9.1 C 7.99 g/m*3 9.1 C 0 km/h
2581 16-10-2010 12:28:01 9.1 C 7.9 g/m*3 9.1 C 0 km/h
2582 16-10-2010 12:40:01 9.7 C 8.3 g/m*3 9.7 C 0 km/h
2583 16-10-2010 12:52:01 9.7 C 8.2 g/m*3 9.7 C 0 km/h
2584 16-10-2010 13:04:02 9.6 C 8.15 g/m*3 9.6 C 0 km/h
2585 16-10-2010 13:16:01 9.9 C 8.31 g/m*3 9.9 C 0 km/h
2586 16-10-2010 13:28:01 9.8 C 8.26 g/m*3 9.8 C 0 km/h
2587 16-10-2010 13:40:02 9.6 C 8.06 g/m*3 9.6 C 0 km/h
2588 16-10-2010 13:52:02 9.7 C 8.02 g/m*3 9.7 C 0 km/h
2589 16-10-2010 14:04:02 9.9 C 8.12 g/m*3 9.9 C 0 km/h
2590 16-10-2010 14:16:01 10 C 7.89 g/m*3 10 C 0 km/h
2591 16-10-2010 14:28:01 10.1 C 7.94 g/m*3 10.1 C 0 km/h
2592 16-10-2010 14:40:02 10 C 7.8 g/m*3 10 C 0 km/h
2593 16-10-2010 14:52:01 9.8 C 7.7 g/m*3 9.8 C 0 km/h
2594 16-10-2010 15:04:02 9.8 C 7.79 g/m*3 9.8 C 0 km/h
2595 16-10-2010 15:16:02 9.9 C 7.84 g/m*3 9.9 C 0 km/h
2596 16-10-2010 15:28:02 10.3 C 7.95 g/m*3 10.3 C 0 km/h
2597 16-10-2010 15:40:02 10.1 C 7.66 g/m*3 10.1 C 0 km/h
2598 16-10-2010 15:52:01 10.3 C 7.85 g/m*3 10.3 C 0 km/h
2599 16-10-2010 16:04:02 10.2 C 7.8 g/m*3 10.2 C 0 km/h
2600 16-10-2010 16:16:02 10.2 C 7.8 g/m*3 10.2 C 0 km/h
Sensor: Nr:Datum:Temp:Abs-Feuchte:Windchill:Wind:
Aussen-T/F 2601 16-10-2010 16:28:02 9.9 C 7.84 g/m*3 9.9 C 0 km/h
2602 16-10-2010 16:40:01 9.6 C 7.79 g/m*3 9.6 C 0 km/h
2603 16-10-2010 16:52:02 9.6 C 7.97 g/m*3 9.6 C 0 km/h
2604 16-10-2010 17:04:01 9.6 C 8.06 g/m*3 9.6 C 0 km/h
2605 16-10-2010 17:16:02 9.6 C 8.15 g/m*3 9.6 C 0 km/h
2606 16-10-2010 17:28:02 9.2 C 7.86 g/m*3 9.2 C 0 km/h
2607 16-10-2010 17:40:01 9.3 C 7.82 g/m*3 9.3 C 0 km/h
2608 16-10-2010 17:52:02 9.1 C 7.63 g/m*3 9.1 C 0 km/h
2609 16-10-2010 18:04:02 8.9 C 7.36 g/m*3 8.9 C 0 km/h
2610 16-10-2010 18:16:02 8.7 C 7.18 g/m*3 8.7 C 0 km/h
2611 16-10-2010 18:28:02 8.4 C 6.96 g/m*3 8.4 C 0 km/h
2612 16-10-2010 18:40:03 8.1 C 6.74 g/m*3 8.1 C 0 km/h
2613 16-10-2010 18:52:02 7.8 C 6.69 g/m*3 7.8 C 0 km/h
2614 16-10-2010 19:04:01 7.5 C 6.56 g/m*3 7.5 C 0 km/h
2615 16-10-2010 19:16:02 7.2 C 6.59 g/m*3 7.2 C 0 km/h
2616 16-10-2010 19:28:02 7 C 6.59 g/m*3 7 C 0 km/h
2617 16-10-2010 19:40:01 6.7 C 6.61 g/m*3 6.7 C 0 km/h
2618 16-10-2010 19:52:02 6.4 C 6.41 g/m*3 6.4 C 0 km/h
2619 16-10-2010 20:04:01 6.5 C 6.45 g/m*3 6.5 C 0 km/h
2620 16-10-2010 20:16:01 6.5 C 6.3 g/m*3 6.5 C 0 km/h
2621 16-10-2010 20:28:01 6.6 C 6.27 g/m*3 6.6 C 0 km/h
2622 16-10-2010 20:40:02 6.6 C 6.27 g/m*3 6.6 C 0 km/h
2623 16-10-2010 20:52:02 6.6 C 6.27 g/m*3 6.6 C 0 km/h
2624 16-10-2010 21:04:02 6.5 C 6.22 g/m*3 6.5 C 0 km/h
2625 16-10-2010 21:16:01 6.3 C 6.14 g/m*3 6.3 C 0 km/h
Sensor: Nr:Datum:Temp:Abs-Feuchte:Windchill:Wind:
Aussen-T/F 2626 16-10-2010 21:28:01 6.3 C 6.22 g/m*3 6.3 C 0 km/h
2627 16-10-2010 21:40:02 6.2 C 6.25 g/m*3 6.2 C 0 km/h
2628 16-10-2010 21:52:02 6.1 C 6.21 g/m*3 6.1 C 0 km/h
2629 16-10-2010 22:04:02 6 C 6.24 g/m*3 6 C 0 km/h
2630 16-10-2010 22:16:02 5.9 C 6.35 g/m*3 5.9 C 0 km/h
2631 16-10-2010 22:28:02 5.8 C 6.38 g/m*3 5.8 C 0 km/h
2632 16-10-2010 22:40:02 5.9 C 6.42 g/m*3 5.9 C 0 km/h
2633 16-10-2010 22:52:02 5.9 C 6.49 g/m*3 5.9 C 0 km/h
2634 16-10-2010 23:04:02 5.9 C 6.49 g/m*3 5.9 C 0 km/h
2635 16-10-2010 23:16:03 5.9 C 6.56 g/m*3 5.9 C 0 km/h
2636 16-10-2010 23:28:03 6 C 6.53 g/m*3 6 C 0 km/h
2637 16-10-2010 23:41:04 6 C 6.6 g/m*3 6 C 0 km/h
2638 16-10-2010 23:53:04 6 C 6.6 g/m*3 6 C 0 km/h
2639 17-10-2010 00:05:04 6 C 6.6 g/m*3 6 C 0 km/h
2640 17-10-2010 00:17:04 6.1 C 6.65 g/m*3 6.1 C 0 km/h
2641 17-10-2010 00:29:04 6.2 C 6.77 g/m*3 6.2 C 0 km/h
2642 17-10-2010 00:41:04 6.2 C 6.77 g/m*3 6.2 C 0 km/h
2643 17-10-2010 00:53:04 6.2 C 6.69 g/m*3 6.2 C 0 km/h
2644 17-10-2010 01:05:04 6.2 C 6.69 g/m*3 6.2 C 0 km/h
2645 17-10-2010 01:17:04 6.2 C 6.69 g/m*3 6.2 C 0 km/h
2646 17-10-2010 01:29:04 6.3 C 6.74 g/m*3 6.3 C 0 km/h
2647 17-10-2010 01:41:04 6.2 C 6.69 g/m*3 6.2 C 0 km/h
2648 17-10-2010 01:53:04 6.3 C 6.74 g/m*3 6.3 C 0 km/h
2649 17-10-2010 02:05:04 6.3 C 6.74 g/m*3 6.3 C 0 km/h
2650 17-10-2010 02:17:05 6.2 C 6.62 g/m*3 6.2 C 0 km/h
Sensor: Nr:Datum:Temp:Abs-Feuchte:Windchill:Wind:
Aussen-T/F 2651 17-10-2010 02:29:05 6.2 C 6.62 g/m*3 6.2 C 0 km/h
2652 17-10-2010 02:41:05 6.2 C 6.55 g/m*3 6.2 C 0 km/h
2653 17-10-2010 02:53:05 6.2 C 6.55 g/m*3 6.2 C 0 km/h
2654 17-10-2010 03:05:05 6.2 C 6.55 g/m*3 6.2 C 0 km/h
2655 17-10-2010 03:17:05 6.3 C 6.51 g/m*3 6.3 C 0 km/h
2656 17-10-2010 03:29:05 6.3 C 6.51 g/m*3 6.3 C 0 km/h
2657 17-10-2010 03:41:05 6.2 C 6.47 g/m*3 6.2 C 0 km/h
2658 17-10-2010 03:53:05 6.2 C 6.4 g/m*3 6.2 C 0 km/h
2659 17-10-2010 04:05:05 6.2 C 6.32 g/m*3 6.2 C 0 km/h
2660 17-10-2010 04:17:05 6.2 C 6.32 g/m*3 6.2 C 0 km/h
2661 17-10-2010 04:29:05 6.2 C 6.32 g/m*3 6.2 C 0 km/h
2662 17-10-2010 04:41:05 6.2 C 6.32 g/m*3 6.2 C 0 km/h
2663 17-10-2010 04:53:05 6.3 C 6.37 g/m*3 6.3 C 0 km/h
2664 17-10-2010 05:05:05 6.3 C 6.37 g/m*3 6.3 C 0 km/h
2665 17-10-2010 05:17:05 6.3 C 6.44 g/m*3 6.3 C 0 km/h
2666 17-10-2010 05:29:05 6.3 C 6.44 g/m*3 6.3 C 0 km/h
2667 17-10-2010 05:41:05 6.3 C 6.44 g/m*3 6.3 C 0 km/h
2668 17-10-2010 05:53:05 6.3 C 6.44 g/m*3 6.3 C 0 km/h
2669 17-10-2010 06:05:05 6.3 C 6.44 g/m*3 6.3 C 0 km/h
2670 17-10-2010 06:17:06 6.3 C 6.44 g/m*3 6.3 C 0 km/h
2671 17-10-2010 06:29:06 6.4 C 6.48 g/m*3 6.4 C 0 km/h
2672 17-10-2010 06:41:06 6.4 C 6.48 g/m*3 6.4 C 0 km/h
2673 17-10-2010 06:53:06 6.3 C 6.44 g/m*3 6.3 C 0 km/h
2674 17-10-2010 07:05:06 6.3 C 6.37 g/m*3 6.3 C 0 km/h
2675 17-10-2010 07:17:06 6.3 C 6.37 g/m*3 6.3 C 0 km/h
Sensor: Nr:Datum:Temp:Abs-Feuchte:Windchill:Wind:
Aussen-T/F 2676 17-10-2010 07:29:06 6.3 C 6.22 g/m*3 6.3 C 0 km/h
2677 17-10-2010 07:41:06 6.4 C 6.26 g/m*3 6.4 C 0 km/h
2678 17-10-2010 07:53:06 6.4 C 6.26 g/m*3 6.4 C 0 km/h
2679 17-10-2010 08:05:06 6.5 C 6.22 g/m*3 6.5 C 0 km/h
2680 17-10-2010 08:17:06 6.5 C 6.15 g/m*3 6.5 C 0 km/h
2681 17-10-2010 08:29:06 6.5 C 6.15 g/m*3 6.5 C 0 km/h
2682 17-10-2010 08:41:06 6.6 C 6.11 g/m*3 6.6 C 0 km/h
2683 17-10-2010 08:53:01 6.8 C 6.19 g/m*3 6.8 C 0 km/h
2684 17-10-2010 09:05:02 6.8 C 6.12 g/m*3 6.8 C 0 km/h
2685 17-10-2010 09:17:02 6.8 C 6.12 g/m*3 6.8 C 0 km/h
2686 17-10-2010 09:29:02 6.9 C 6.24 g/m*3 6.9 C 0 km/h
2687 17-10-2010 09:41:01 6.9 C 6.16 g/m*3 6.9 C 0 km/h
2688 17-10-2010 09:53:02 7 C 6.12 g/m*3 7 C 0 km/h
2689 17-10-2010 10:05:01 7.1 C 6.08 g/m*3 7.1 C 0 km/h
2690 17-10-2010 10:17:02 7.2 C 6.12 g/m*3 7.2 C 0 km/h
2691 17-10-2010 10:29:02 7.3 C 6.16 g/m*3 7.3 C 0 km/h
2692 17-10-2010 10:41:01 7.4 C 6.12 g/m*3 7.4 C 0 km/h
2693 17-10-2010 10:53:02 7.6 C 6.2 g/m*3 7.6 C 0 km/h
2694 17-10-2010 11:05:02 7.7 C 6.16 g/m*3 7.7 C 0 km/h
2695 17-10-2010 11:17:02 7.8 C 6.04 g/m*3 7.8 C 0 km/h
2696 17-10-2010 11:29:02 7.7 C 5.92 g/m*3 7.7 C 0 km/h
2697 17-10-2010 11:41:02 7.6 C 5.88 g/m*3 7.6 C 0 km/h
2698 17-10-2010 11:53:02 7.7 C 5.92 g/m*3 7.7 C 0 km/h
2699 17-10-2010 12:05:02 7.8 C 5.96 g/m*3 7.8 C 0 km/h
2700 17-10-2010 12:17:01 7.8 C 5.96 g/m*3 7.8 C 0 km/h
Sensor: Nr:Datum:Temp:Abs-Feuchte:Windchill:Wind:
Aussen-T/F 2701 17-10-2010 12:29:01 7.9 C 6 g/m*3 7.9 C 0 km/h
2702 17-10-2010 12:41:02 8 C 5.95 g/m*3 8 C 0 km/h
2703 17-10-2010 12:53:02 7.9 C 6 g/m*3 7.9 C 0 km/h
2704 17-10-2010 13:05:02 7.9 C 5.91 g/m*3 7.9 C 0 km/h
2705 17-10-2010 13:17:01 8.1 C 5.91 g/m*3 8.1 C 0 km/h
2706 17-10-2010 13:29:01 8.1 C 5.91 g/m*3 8.1 C 0 km/h
2707 17-10-2010 13:41:02 8.2 C 6.03 g/m*3 8.2 C 0 km/h
2708 17-10-2010 13:53:01 8.2 C 6.03 g/m*3 8.2 C 0 km/h
2709 17-10-2010 14:05:02 8.3 C 6.15 g/m*3 8.3 C 0 km/h
2710 17-10-2010 14:17:02 8.3 C 6.07 g/m*3 8.3 C 0 km/h
2711 17-10-2010 14:29:02 8.4 C 6.19 g/m*3 8.4 C 0 km/h
2712 17-10-2010 14:41:02 8.4 C 6.19 g/m*3 8.4 C 0 km/h
2713 17-10-2010 14:53:02 8.4 C 6.11 g/m*3 8.4 C 0 km/h
2714 17-10-2010 15:05:02 8.5 C 6.15 g/m*3 8.5 C 0 km/h
2715 17-10-2010 15:17:02 8.5 C 6.06 g/m*3 8.5 C 0 km/h
2716 17-10-2010 15:29:02 8.6 C 6.1 g/m*3 8.6 C 0 km/h
2717 17-10-2010 15:41:01 8.6 C 6.1 g/m*3 8.6 C 0 km/h
2718 17-10-2010 15:53:02 8.4 C 6.19 g/m*3 8.4 C 0 km/h
2719 17-10-2010 16:05:01 8.4 C 6.19 g/m*3 8.4 C 0 km/h
2720 17-10-2010 16:17:01 8.4 C 6.28 g/m*3 8.4 C 0 km/h
2721 17-10-2010 16:29:01 8.5 C 6.32 g/m*3 8.5 C 0 km/h
2722 17-10-2010 16:41:02 8.5 C 6.32 g/m*3 8.5 C 0 km/h
2723 17-10-2010 16:53:02 8.5 C 6.32 g/m*3 8.5 C 0 km/h
2724 17-10-2010 17:05:02 8.5 C 6.32 g/m*3 8.5 C 0 km/h
2725 17-10-2010 17:17:02 8.3 C 6.24 g/m*3 8.3 C 0 km/h
Sensor: Nr:Datum:Temp:Abs-Feuchte:Windchill:Wind:
Aussen-T/F 2726 17-10-2010 17:29:02 8.3 C 6.32 g/m*3 8.3 C 0 km/h
2727 17-10-2010 17:41:02 8.2 C 6.36 g/m*3 8.2 C 0 km/h
2728 17-10-2010 17:53:02 8.2 C 6.36 g/m*3 8.2 C 0 km/h
2729 17-10-2010 18:05:03 8.1 C 6.32 g/m*3 8.1 C 0 km/h
2730 17-10-2010 18:17:02 8 C 6.28 g/m*3 8 C 0 km/h
2731 17-10-2010 18:29:02 7.9 C 6.32 g/m*3 7.9 C 0 km/h
2732 17-10-2010 18:41:02 7.8 C 6.37 g/m*3 7.8 C 0 km/h
2733 17-10-2010 18:53:01 7.7 C 6.32 g/m*3 7.7 C 0 km/h
2734 17-10-2010 19:05:02 7.7 C 6.32 g/m*3 7.7 C 0 km/h
2735 17-10-2010 19:17:01 7.7 C 6.41 g/m*3 7.7 C 0 km/h
2736 17-10-2010 19:29:01 7.7 C 6.41 g/m*3 7.7 C 0 km/h
2737 17-10-2010 19:41:01 7.7 C 6.41 g/m*3 7.7 C 0 km/h
2738 17-10-2010 19:53:01 7.6 C 6.36 g/m*3 7.6 C 0 km/h
2739 17-10-2010 20:05:02 7.6 C 6.36 g/m*3 7.6 C 0 km/h
2740 17-10-2010 20:17:01 7.7 C 6.49 g/m*3 7.7 C 0 km/h
2741 17-10-2010 20:29:01 7.7 C 6.49 g/m*3 7.7 C 0 km/h
2742 17-10-2010 20:41:01 7.7 C 6.41 g/m*3 7.7 C 0 km/h
2743 17-10-2010 20:53:02 7.7 C 6.41 g/m*3 7.7 C 0 km/h
2744 17-10-2010 21:05:02 7.7 C 6.41 g/m*3 7.7 C 0 km/h
2745 17-10-2010 21:17:02 7.7 C 6.49 g/m*3 7.7 C 0 km/h
2746 17-10-2010 21:29:02 7.7 C 6.49 g/m*3 7.7 C 0 km/h
2747 17-10-2010 21:41:02 7.5 C 6.4 g/m*3 7.5 C 0 km/h
2748 17-10-2010 21:53:02 7.5 C 6.4 g/m*3 7.5 C 0 km/h
2749 17-10-2010 22:06:02 7.5 C 6.48 g/m*3 7.5 C 0 km/h
2750 17-10-2010 22:18:02 7.5 C 6.48 g/m*3 7.5 C 0 km/h
Sensor: Nr:Datum:Temp:Abs-Feuchte:Windchill:Wind:
Aussen-T/F 2751 17-10-2010 22:30:02 7.4 C 6.44 g/m*3 7.4 C 0 km/h
2752 17-10-2010 22:42:02 7.3 C 6.4 g/m*3 7.3 C 0 km/h
2753 17-10-2010 22:54:02 7.2 C 6.36 g/m*3 7.2 C 0 km/h
2754 17-10-2010 23:06:02 7.1 C 6.32 g/m*3 7.1 C 0 km/h
2755 17-10-2010 23:18:02 7.1 C 6.32 g/m*3 7.1 C 0 km/h
2756 17-10-2010 23:30:02 7.1 C 6.32 g/m*3 7.1 C 0 km/h
2757 17-10-2010 23:42:02 7 C 6.28 g/m*3 7 C 0 km/h
2758 17-10-2010 23:54:02 6.9 C 6.31 g/m*3 6.9 C 0 km/h
2759 18-10-2010 00:06:02 6.9 C 6.31 g/m*3 6.9 C 0 km/h
2760 18-10-2010 00:18:02 6.8 C 6.27 g/m*3 6.8 C 0 km/h
2761 18-10-2010 00:30:02 6.7 C 6.23 g/m*3 6.7 C 0 km/h
2762 18-10-2010 00:42:02 6.3 C 6.14 g/m*3 6.3 C 0 km/h
2763 18-10-2010 00:54:02 5.7 C 5.98 g/m*3 5.7 C 0 km/h
2764 18-10-2010 01:06:02 5.3 C 5.89 g/m*3 5.3 C 0 km/h
2765 18-10-2010 01:18:02 5.1 C 5.88 g/m*3 5.1 C 0 km/h
2766 18-10-2010 01:30:02 5 C 5.91 g/m*3 5 C 0 km/h
2767 18-10-2010 01:42:02 5.2 C 6.06 g/m*3 5.2 C 0 km/h
2768 18-10-2010 01:54:03 5.3 C 6.1 g/m*3 5.3 C 0 km/h
2769 18-10-2010 02:06:03 5.5 C 6.18 g/m*3 5.5 C 0 km/h
2770 18-10-2010 02:18:03 5.7 C 6.33 g/m*3 5.7 C 0 km/h
2771 18-10-2010 02:30:03 5.9 C 6.42 g/m*3 5.9 C 0 km/h
2772 18-10-2010 02:42:03 5.9 C 6.42 g/m*3 5.9 C 0 km/h
2773 18-10-2010 02:54:03 6 C 6.39 g/m*3 6 C 0 km/h
2774 18-10-2010 03:06:03 6 C 6.31 g/m*3 6 C 0 km/h
2775 18-10-2010 03:18:03 6 C 6.31 g/m*3 6 C 0 km/h
Sensor: Nr:Datum:Temp:Abs-Feuchte:Windchill:Wind:
Aussen-T/F 2776 18-10-2010 03:30:03 6 C 6.31 g/m*3 6 C 0 km/h
2777 18-10-2010 03:42:03 6 C 6.31 g/m*3 6 C 0 km/h
2778 18-10-2010 03:54:03 6 C 6.24 g/m*3 6 C 0 km/h
2779 18-10-2010 04:06:03 6 C 6.24 g/m*3 6 C 0 km/h
2780 18-10-2010 04:18:03 6.1 C 6.28 g/m*3 6.1 C 0 km/h
2781 18-10-2010 04:30:03 6.1 C 6.28 g/m*3 6.1 C 0 km/h
2782 18-10-2010 04:42:03 6 C 6.24 g/m*3 6 C 0 km/h
2783 18-10-2010 04:54:03 5.9 C 6.2 g/m*3 5.9 C 0 km/h
2784 18-10-2010 05:06:03 5.9 C 6.13 g/m*3 5.9 C 0 km/h
2785 18-10-2010 05:18:03 5.9 C 6.13 g/m*3 5.9 C 0 km/h
2786 18-10-2010 05:30:03 5.8 C 6.09 g/m*3 5.8 C 0 km/h
2787 18-10-2010 05:42:03 5.8 C 6.09 g/m*3 5.8 C 0 km/h
2788 18-10-2010 05:54:03 5.8 C 6.09 g/m*3 5.8 C 0 km/h
2789 18-10-2010 06:06:03 5.8 C 6.16 g/m*3 5.8 C 0 km/h
2790 18-10-2010 06:18:04 5.8 C 6.16 g/m*3 5.8 C 0 km/h
2791 18-10-2010 06:30:04 5.8 C 6.16 g/m*3 5.8 C 0 km/h
2792 18-10-2010 06:42:04 5.8 C 6.16 g/m*3 5.8 C 0 km/h
2793 18-10-2010 06:54:04 5.8 C 6.16 g/m*3 5.8 C 0 km/h
2794 18-10-2010 07:06:02 5.8 C 6.16 g/m*3 5.8 C 0 km/h
2795 18-10-2010 07:18:02 5.8 C 6.16 g/m*3 5.8 C 0 km/h
2796 18-10-2010 07:30:02 5.8 C 6.16 g/m*3 5.8 C 0 km/h
2797 18-10-2010 07:42:02 5.7 C 6.12 g/m*3 5.7 C 0 km/h
2798 18-10-2010 07:54:02 5.7 C 6.12 g/m*3 5.7 C 0 km/h
2799 18-10-2010 08:06:02 5.7 C 6.19 g/m*3 5.7 C 0 km/h
2800 18-10-2010 08:18:02 5.7 C 6.12 g/m*3 5.7 C 0 km/h
Sensor: Nr:Datum:Temp:Abs-Feuchte:Windchill:Wind:
Aussen-T/F 2801 18-10-2010 08:30:02 5.7 C 6.19 g/m*3 5.7 C 0 km/h
2802 18-10-2010 08:42:02 5.8 C 6.23 g/m*3 5.8 C 0 km/h
2803 18-10-2010 08:54:02 6 C 6.24 g/m*3 6 C 0 km/h
2804 18-10-2010 09:06:02 6.2 C 6.32 g/m*3 6.2 C 0 km/h
2805 18-10-2010 09:18:02 6.3 C 6.37 g/m*3 6.3 C 0 km/h
2806 18-10-2010 09:30:02 6.7 C 6.46 g/m*3 6.7 C 0 km/h
2807 18-10-2010 09:42:01 6.9 C 6.54 g/m*3 6.9 C 0 km/h
2808 18-10-2010 09:54:02 7.2 C 6.52 g/m*3 7.2 C 0 km/h
2809 18-10-2010 10:06:01 7.4 C 6.6 g/m*3 7.4 C 0 km/h
2810 18-10-2010 10:18:02 7.6 C 6.36 g/m*3 7.6 C 0 km/h
2811 18-10-2010 10:30:03 7.6 C 5.88 g/m*3 7.6 C 0 km/h
2812 18-10-2010 10:42:01 7.6 C 5.56 g/m*3 7.6 C 0 km/h
2813 18-10-2010 10:54:02 7.6 C 5.56 g/m*3 7.6 C 0 km/h
2814 18-10-2010 11:06:02 7.5 C 5.12 g/m*3 7.5 C 0 km/h
2815 18-10-2010 11:18:02 7.6 C 5.08 g/m*3 7.6 C 0 km/h
2816 18-10-2010 11:30:02 7.8 C 5.14 g/m*3 7.8 C 0 km/h
2817 18-10-2010 11:42:02 8 C 4.96 g/m*3 8 C 0 km/h
2818 18-10-2010 11:54:02 7.9 C 5.01 g/m*3 7.9 C 0 km/h
2819 18-10-2010 12:06:02 8 C 4.96 g/m*3 8 C 0 km/h
2820 18-10-2010 12:18:01 8.3 C 5.06 g/m*3 8.3 C 0 km/h
2821 18-10-2010 12:30:01 8.4 C 5.01 g/m*3 8.4 C 0 km/h
2822 18-10-2010 12:42:02 8.2 C 4.94 g/m*3 8.2 C 0 km/h
2823 18-10-2010 12:54:02 8.4 C 4.92 g/m*3 8.4 C 0 km/h
2824 18-10-2010 13:06:02 9 C 4.85 g/m*3 9 C 0 km/h
2825 18-10-2010 13:18:02 8.7 C 4.76 g/m*3 8.7 C 0 km/h
Sensor: Nr:Datum:Temp:Abs-Feuchte:Windchill:Wind:
Aussen-T/F 2826 18-10-2010 13:30:02 8.7 C 4.76 g/m*3 8.7 C 0 km/h
2827 18-10-2010 13:42:02 8.8 C 4.96 g/m*3 8.8 C 0 km/h
2828 18-10-2010 13:54:01 8.9 C 4.91 g/m*3 8.9 C 0 km/h
2829 18-10-2010 14:06:02 9 C 4.94 g/m*3 9 C 0 km/h
2830 18-10-2010 14:18:01 8.8 C 4.79 g/m*3 8.8 C 0 km/h
2831 18-10-2010 14:30:01 8.8 C 4.87 g/m*3 8.8 C 0 km/h
2832 18-10-2010 14:42:01 8.8 C 4.87 g/m*3 8.8 C 0 km/h
2833 18-10-2010 14:54:01 9 C 4.85 g/m*3 9 C 0 km/h
2834 18-10-2010 15:06:02 8.9 C 4.82 g/m*3 8.9 C 0 km/h
2835 18-10-2010 15:18:01 8.7 C 4.76 g/m*3 8.7 C 0 km/h
2836 18-10-2010 15:30:01 8.7 C 4.84 g/m*3 8.7 C 0 km/h
2837 18-10-2010 15:42:01 8.7 C 4.93 g/m*3 8.7 C 0 km/h
2838 18-10-2010 15:54:01 8.7 C 4.93 g/m*3 8.7 C 0 km/h
2839 18-10-2010 16:06:01 8.7 C 4.84 g/m*3 8.7 C 0 km/h
2840 18-10-2010 16:18:02 8.6 C 4.81 g/m*3 8.6 C 0 km/h
2841 18-10-2010 16:30:02 8.7 C 4.84 g/m*3 8.7 C 0 km/h
2842 18-10-2010 16:42:01 8.9 C 4.99 g/m*3 8.9 C 0 km/h
2843 18-10-2010 16:54:03 8.8 C 5.05 g/m*3 8.8 C 0 km/h
2844 18-10-2010 17:06:02 8.8 C 5.05 g/m*3 8.8 C 0 km/h
2845 18-10-2010 17:18:02 8.7 C 4.84 g/m*3 8.7 C 0 km/h
2846 18-10-2010 17:30:02 8.5 C 4.78 g/m*3 8.5 C 0 km/h
2847 18-10-2010 17:42:02 8.4 C 4.84 g/m*3 8.4 C 0 km/h
2848 18-10-2010 17:54:02 8.2 C 4.77 g/m*3 8.2 C 0 km/h
2849 18-10-2010 18:06:01 8 C 4.88 g/m*3 8 C 0 km/h
2850 18-10-2010 18:18:02 7.9 C 5.01 g/m*3 7.9 C 0 km/h
Sensor: Nr:Datum:Temp:Abs-Feuchte:Windchill:Wind:
Aussen-T/F 2851 18-10-2010 18:30:02 7.8 C 5.06 g/m*3 7.8 C 0 km/h
2852 18-10-2010 18:42:02 7.7 C 5.03 g/m*3 7.7 C 0 km/h
2853 18-10-2010 18:54:02 7.4 C 4.85 g/m*3 7.4 C 0 km/h
2854 18-10-2010 19:06:01 6.8 C 4.82 g/m*3 6.8 C 0 km/h
2855 18-10-2010 19:18:01 6.6 C 4.83 g/m*3 6.6 C 0 km/h
2856 18-10-2010 19:30:01 6.3 C 4.89 g/m*3 6.3 C 0 km/h
2857 18-10-2010 19:42:02 6.1 C 4.89 g/m*3 6.1 C 0 km/h
2858 18-10-2010 19:54:02 5.8 C 5.01 g/m*3 5.8 C 0 km/h
2859 18-10-2010 20:06:02 5.7 C 5.05 g/m*3 5.7 C 0 km/h
2860 18-10-2010 20:18:01 5.7 C 5.05 g/m*3 5.7 C 0 km/h
2861 18-10-2010 20:30:01 5.6 C 5.02 g/m*3 5.6 C 0 km/h
2862 18-10-2010 20:42:02 5.5 C 5.06 g/m*3 5.5 C 0 km/h
2863 18-10-2010 20:54:02 5.5 C 5.06 g/m*3 5.5 C 0 km/h
2864 18-10-2010 21:06:02 5.3 C 4.99 g/m*3 5.3 C 0 km/h
2865 18-10-2010 21:18:02 5.3 C 5.06 g/m*3 5.3 C 0 km/h
2866 18-10-2010 21:30:02 5.3 C 5.06 g/m*3 5.3 C 0 km/h
2867 18-10-2010 21:42:02 5.1 C 4.99 g/m*3 5.1 C 0 km/h
2868 18-10-2010 21:54:02 4.9 C 5.06 g/m*3 4.9 C 0 km/h
2869 18-10-2010 22:06:02 5 C 5.03 g/m*3 5 C 0 km/h
2870 18-10-2010 22:18:02 5 C 5.03 g/m*3 5 C 0 km/h
2871 18-10-2010 22:30:02 5 C 5.03 g/m*3 5 C 0 km/h
2872 18-10-2010 22:42:02 4.8 C 5.1 g/m*3 4.8 C 0 km/h
2873 18-10-2010 22:54:02 4.8 C 5.1 g/m*3 4.8 C 0 km/h
2874 18-10-2010 23:06:02 4.8 C 5.1 g/m*3 4.8 C 0 km/h
2875 18-10-2010 23:18:02 4.9 C 5.13 g/m*3 4.9 C 0 km/h
Sensor: Nr:Datum:Temp:Abs-Feuchte:Windchill:Wind:
Aussen-T/F 2876 18-10-2010 23:30:02 4.9 C 5.2 g/m*3 4.9 C 0 km/h
2877 18-10-2010 23:42:02 4.9 C 5.2 g/m*3 4.9 C 0 km/h
2878 18-10-2010 23:54:02 4.8 C 5.23 g/m*3 4.8 C 0 km/h
2879 19-10-2010 00:06:01 5 C 5.23 g/m*3 5 C 0 km/h
2880 19-10-2010 00:18:02 5.1 C 5.2 g/m*3 5.1 C 0 km/h
2881 19-10-2010 00:30:02 5.1 C 5.27 g/m*3 5.1 C 0 km/h
2882 19-10-2010 00:42:01 5.2 C 5.23 g/m*3 5.2 C 0 km/h
2883 19-10-2010 00:54:02 5.3 C 5.27 g/m*3 5.3 C 0 km/h
2884 19-10-2010 01:06:01 5.4 C 5.23 g/m*3 5.4 C 0 km/h
2885 19-10-2010 01:18:02 5.4 C 5.23 g/m*3 5.4 C 0 km/h
2886 19-10-2010 01:30:02 5.4 C 5.3 g/m*3 5.4 C 0 km/h
2887 19-10-2010 01:42:01 5.4 C 5.3 g/m*3 5.4 C 0 km/h
2888 19-10-2010 01:54:02 5.5 C 5.27 g/m*3 5.5 C 0 km/h
2889 19-10-2010 02:06:02 5.6 C 5.23 g/m*3 5.6 C 0 km/h
2890 19-10-2010 02:18:02 5.6 C 5.23 g/m*3 5.6 C 0 km/h
2891 19-10-2010 02:30:02 5.6 C 5.3 g/m*3 5.6 C 0 km/h
2892 19-10-2010 02:42:03 5.4 C 5.37 g/m*3 5.4 C 0 km/h
2893 19-10-2010 02:55:04 5.3 C 5.48 g/m*3 5.3 C 0 km/h
2894 19-10-2010 03:07:04 5.3 C 5.54 g/m*3 5.3 C 0 km/h
2895 19-10-2010 03:19:03 5 C 5.64 g/m*3 5 C 0 km/h
2896 19-10-2010 03:31:02 4.9 C 5.81 g/m*3 4.9 C 0 km/h
2897 19-10-2010 03:43:02 4.8 C 5.83 g/m*3 4.8 C 0 km/h
2898 19-10-2010 03:55:02 4.8 C 5.9 g/m*3 4.8 C 0 km/h
2899 19-10-2010 04:07:01 4.8 C 5.97 g/m*3 4.8 C 0 km/h
2900 19-10-2010 04:19:01 4.9 C 6.08 g/m*3 4.9 C 0 km/h
Sensor: Nr:Datum:Temp:Abs-Feuchte:Windchill:Wind:
Aussen-T/F 2901 19-10-2010 04:31:02 5 C 6.05 g/m*3 5 C 0 km/h
2902 19-10-2010 04:43:02 5.2 C 6.06 g/m*3 5.2 C 0 km/h
2903 19-10-2010 04:55:02 5.3 C 6.03 g/m*3 5.3 C 0 km/h
2904 19-10-2010 05:07:02 5.4 C 6 g/m*3 5.4 C 0 km/h
2905 19-10-2010 05:19:02 5.5 C 5.97 g/m*3 5.5 C 0 km/h
2906 19-10-2010 05:31:02 5.5 C 6.04 g/m*3 5.5 C 0 km/h
2907 19-10-2010 05:43:02 5.4 C 6.14 g/m*3 5.4 C 0 km/h
2908 19-10-2010 05:55:01 5.3 C 6.17 g/m*3 5.3 C 0 km/h
2909 19-10-2010 06:07:02 5.3 C 6.17 g/m*3 5.3 C 0 km/h
2910 19-10-2010 06:19:01 5.5 C 6.32 g/m*3 5.5 C 0 km/h
2911 19-10-2010 06:31:01 5.7 C 6.33 g/m*3 5.7 C 0 km/h
2912 19-10-2010 06:43:02 5.7 C 6.33 g/m*3 5.7 C 0 km/h
2913 19-10-2010 06:55:02 5.8 C 6.38 g/m*3 5.8 C 0 km/h
2914 19-10-2010 07:07:02 5.9 C 6.42 g/m*3 5.9 C 0 km/h
2915 19-10-2010 07:19:02 5.9 C 6.42 g/m*3 5.9 C 0 km/h
2916 19-10-2010 07:31:02 6 C 6.39 g/m*3 6 C 0 km/h
2917 19-10-2010 07:43:02 6 C 6.31 g/m*3 6 C 0 km/h
2918 19-10-2010 07:55:02 6.1 C 6.36 g/m*3 6.1 C 0 km/h
2919 19-10-2010 08:07:02 6.1 C 6.36 g/m*3 6.1 C 0 km/h
2920 19-10-2010 08:19:02 6 C 6.39 g/m*3 6 C 0 km/h
2921 19-10-2010 08:31:02 5.9 C 6.42 g/m*3 5.9 C 0 km/h
2922 19-10-2010 08:43:03 5.9 C 6.49 g/m*3 5.9 C 0 km/h
2923 19-10-2010 08:55:02 6 C 6.46 g/m*3 6 C 0 km/h
2924 19-10-2010 09:07:02 6.2 C 6.55 g/m*3 6.2 C 0 km/h
2925 19-10-2010 09:19:02 6.4 C 6.63 g/m*3 6.4 C 0 km/h
Sensor: Nr:Datum:Temp:Abs-Feuchte:Windchill:Wind:
Aussen-T/F 2926 19-10-2010 09:31:02 6.6 C 6.64 g/m*3 6.6 C 0 km/h
2927 19-10-2010 09:43:02 6.7 C 6.61 g/m*3 6.7 C 0 km/h
2928 19-10-2010 09:55:02 6.8 C 6.65 g/m*3 6.8 C 0 km/h
2929 19-10-2010 10:07:02 7.1 C 6.63 g/m*3 7.1 C 0 km/h
2930 19-10-2010 10:19:03 7.3 C 6.64 g/m*3 7.3 C 0 km/h
2931 19-10-2010 10:31:02 7.4 C 6.68 g/m*3 7.4 C 0 km/h
2932 19-10-2010 10:43:02 7.4 C 6.6 g/m*3 7.4 C 0 km/h
2933 19-10-2010 10:55:02 7.5 C 6.72 g/m*3 7.5 C 0 km/h
2934 19-10-2010 11:07:02 7.3 C 6.72 g/m*3 7.3 C 0 km/h
2935 19-10-2010 11:19:02 7.4 C 6.92 g/m*3 7.4 C 0 km/h
2936 19-10-2010 11:31:02 7.5 C 6.96 g/m*3 7.5 C 0 km/h
2937 19-10-2010 11:43:02 7.6 C 7.01 g/m*3 7.6 C 0 km/h
2938 19-10-2010 11:55:02 7.7 C 7.05 g/m*3 7.7 C 0 km/h
2939 19-10-2010 12:07:01 7.9 C 7.06 g/m*3 7.9 C 0 km/h
2940 19-10-2010 12:19:02 8 C 6.94 g/m*3 8 C 0 km/h
2941 19-10-2010 12:31:01 7.9 C 7.06 g/m*3 7.9 C 0 km/h
2942 19-10-2010 12:43:01 8 C 7.11 g/m*3 8 C 0 km/h
2943 19-10-2010 12:55:02 8.1 C 7.24 g/m*3 8.1 C 0 km/h
2944 19-10-2010 13:07:02 8.5 C 7.43 g/m*3 8.5 C 0 km/h
2945 19-10-2010 13:19:02 8.9 C 7.62 g/m*3 8.9 C 0 km/h
2946 19-10-2010 13:31:02 9 C 7.49 g/m*3 9 C 0 km/h
2947 19-10-2010 13:43:02 9.3 C 7.46 g/m*3 9.3 C 0 km/h
2948 19-10-2010 13:55:02 9.7 C 7.38 g/m*3 9.7 C 0 km/h
2949 19-10-2010 14:07:02 10 C 7.24 g/m*3 10 C 0 km/h
2950 19-10-2010 14:19:02 9.7 C 7.19 g/m*3 9.7 C 0 km/h
Sensor: Nr:Datum:Temp:Abs-Feuchte:Windchill:Wind:
Aussen-T/F 2951 19-10-2010 14:31:01 9.7 C 7.47 g/m*3 9.7 C 0 km/h
2952 19-10-2010 14:43:01 9.6 C 7.6 g/m*3 9.6 C 0 km/h
2953 19-10-2010 14:55:02 10 C 7.61 g/m*3 10 C 0 km/h
2954 19-10-2010 15:07:01 9.8 C 7.42 g/m*3 9.8 C 0 km/h
2955 19-10-2010 15:19:01 10.2 C 7.33 g/m*3 10.2 C 0 km/h
2956 19-10-2010 15:31:02 10.3 C 7.18 g/m*3 10.3 C 0 km/h
2957 19-10-2010 15:43:02 10.2 C 7.23 g/m*3 10.2 C 0 km/h
2958 19-10-2010 15:55:02 11.2 C 7.7 g/m*3 11.2 C 0 km/h
2959 19-10-2010 16:07:02 12.6 C 7.52 g/m*3 12.6 C 0 km/h
2960 19-10-2010 16:19:02 14.2 C 7.45 g/m*3 14.2 C 0 km/h
2961 19-10-2010 16:31:02 14.1 C 6.43 g/m*3 14.1 C 0 km/h
2962 19-10-2010 16:43:02 11 C 6.41 g/m*3 11 C 0 km/h
2963 19-10-2010 16:55:02 10.4 C 7.04 g/m*3 10.4 C 0 km/h
2964 19-10-2010 17:07:03 9.9 C 7.28 g/m*3 9.9 C 0 km/h
2965 19-10-2010 17:19:02 9.7 C 7.1 g/m*3 9.7 C 0 km/h
2966 19-10-2010 17:31:02 10.1 C 7 g/m*3 10.1 C 0 km/h
2967 19-10-2010 17:43:02 10.8 C 7.41 g/m*3 10.8 C 0 km/h
2968 19-10-2010 17:55:01 11 C 7.31 g/m*3 11 C 0 km/h
2969 19-10-2010 18:07:02 10.3 C 6.99 g/m*3 10.3 C 0 km/h
2970 19-10-2010 18:19:02 9.3 C 6.92 g/m*3 9.3 C 0 km/h
2971 19-10-2010 18:31:01 8.9 C 7.01 g/m*3 8.9 C 0 km/h
2972 19-10-2010 18:43:01 8.4 C 6.87 g/m*3 8.4 C 0 km/h
2973 19-10-2010 18:55:01 8.3 C 7 g/m*3 8.3 C 0 km/h
2974 19-10-2010 19:07:01 8.1 C 6.91 g/m*3 8.1 C 0 km/h
2975 19-10-2010 19:19:02 8 C 6.86 g/m*3 8 C 0 km/h
Sensor: Nr:Datum:Temp:Abs-Feuchte:Windchill:Wind:
Aussen-T/F 2976 19-10-2010 19:31:01 8.1 C 6.99 g/m*3 8.1 C 0 km/h
2977 19-10-2010 19:43:01 7.9 C 6.9 g/m*3 7.9 C 0 km/h
2978 19-10-2010 19:55:02 7.8 C 6.61 g/m*3 7.8 C 0 km/h
2979 19-10-2010 20:07:01 7.4 C 6.44 g/m*3 7.4 C 0 km/h
2980 19-10-2010 20:19:01 7.4 C 6.52 g/m*3 7.4 C 0 km/h
2981 19-10-2010 20:31:01 7.3 C 6.4 g/m*3 7.3 C 0 km/h
2982 19-10-2010 20:43:01 7.3 C 6.48 g/m*3 7.3 C 0 km/h
2983 19-10-2010 20:55:02 7.4 C 6.44 g/m*3 7.4 C 0 km/h
2984 19-10-2010 21:07:02 7.4 C 6.36 g/m*3 7.4 C 0 km/h
2985 19-10-2010 21:19:02 7 C 6.2 g/m*3 7 C 0 km/h
2986 19-10-2010 21:31:02 6.9 C 6.24 g/m*3 6.9 C 0 km/h
2987 19-10-2010 21:43:02 6.7 C 6.15 g/m*3 6.7 C 0 km/h
2988 19-10-2010 21:55:02 6.7 C 6.15 g/m*3 6.7 C 0 km/h
2989 19-10-2010 22:07:02 6.5 C 6.15 g/m*3 6.5 C 0 km/h
2990 19-10-2010 22:20:03 6.5 C 6.15 g/m*3 6.5 C 0 km/h
2991 19-10-2010 22:32:03 6.5 C 6.15 g/m*3 6.5 C 0 km/h
2992 19-10-2010 22:44:03 6.5 C 6.15 g/m*3 6.5 C 0 km/h
2993 19-10-2010 22:56:03 6.6 C 6.19 g/m*3 6.6 C 0 km/h
2994 19-10-2010 23:08:03 6.7 C 6.23 g/m*3 6.7 C 0 km/h
2995 19-10-2010 23:20:03 6.7 C 6.23 g/m*3 6.7 C 0 km/h
2996 19-10-2010 23:32:04 6.5 C 6.15 g/m*3 6.5 C 0 km/h
2997 19-10-2010 23:44:04 6.4 C 6.18 g/m*3 6.4 C 0 km/h
2998 19-10-2010 23:56:04 6.4 C 6.18 g/m*3 6.4 C 0 km/h
2999 20-10-2010 00:08:04 6.3 C 6.14 g/m*3 6.3 C 0 km/h
3000 20-10-2010 00:20:04 6.4 C 6.18 g/m*3 6.4 C 0 km/h
Sensor: Nr:Datum:Temp:Abs-Feuchte:Windchill:Wind:
Aussen-T/F 3001 20-10-2010 00:32:04 6.2 C 6.1 g/m*3 6.2 C 0 km/h
3002 20-10-2010 00:44:04 6.4 C 6.18 g/m*3 6.4 C 0 km/h
3003 20-10-2010 00:56:04 6.4 C 6.18 g/m*3 6.4 C 0 km/h
3004 20-10-2010 01:08:04 6.4 C 6.18 g/m*3 6.4 C 0 km/h
3005 20-10-2010 01:20:04 6.5 C 6.15 g/m*3 6.5 C 0 km/h
3006 20-10-2010 01:32:04 6.4 C 6.11 g/m*3 6.4 C 0 km/h
3007 20-10-2010 01:44:04 6.4 C 6.18 g/m*3 6.4 C 0 km/h
3008 20-10-2010 01:56:04 6.2 C 6.18 g/m*3 6.2 C 0 km/h
3009 20-10-2010 02:08:04 6.1 C 6.28 g/m*3 6.1 C 0 km/h
3010 20-10-2010 02:20:04 6 C 6.31 g/m*3 6 C 0 km/h
3011 20-10-2010 02:32:04 5.9 C 6.42 g/m*3 5.9 C 0 km/h
3012 20-10-2010 02:44:04 5.9 C 6.49 g/m*3 5.9 C 0 km/h
3013 20-10-2010 02:56:04 5.8 C 6.45 g/m*3 5.8 C 0 km/h
3014 20-10-2010 03:08:04 5.8 C 6.52 g/m*3 5.8 C 0 km/h
3015 20-10-2010 03:20:04 5.7 C 6.48 g/m*3 5.7 C 0 km/h
3016 20-10-2010 03:32:04 5.7 C 6.48 g/m*3 5.7 C 0 km/h
3017 20-10-2010 03:44:05 5.8 C 6.59 g/m*3 5.8 C 0 km/h
3018 20-10-2010 03:56:05 5.8 C 6.59 g/m*3 5.8 C 0 km/h
3019 20-10-2010 04:08:05 5.8 C 6.52 g/m*3 5.8 C 0 km/h
3020 20-10-2010 04:20:05 5.8 C 6.52 g/m*3 5.8 C 0 km/h
3021 20-10-2010 04:32:05 5.9 C 6.56 g/m*3 5.9 C 0 km/h
3022 20-10-2010 04:44:05 5.9 C 6.49 g/m*3 5.9 C 0 km/h
3023 20-10-2010 04:56:05 5.8 C 6.45 g/m*3 5.8 C 0 km/h
3024 20-10-2010 05:08:05 5.7 C 6.48 g/m*3 5.7 C 0 km/h
3025 20-10-2010 05:20:05 5.7 C 6.55 g/m*3 5.7 C 0 km/h
Sensor: Nr:Datum:Temp:Abs-Feuchte:Windchill:Wind:
Aussen-T/F 3026 20-10-2010 05:32:05 5.6 C 6.57 g/m*3 5.6 C 0 km/h
3027 20-10-2010 05:44:05 5.6 C 6.57 g/m*3 5.6 C 0 km/h
3028 20-10-2010 05:56:05 5.5 C 6.6 g/m*3 5.5 C 0 km/h
3029 20-10-2010 06:08:05 5.5 C 6.6 g/m*3 5.5 C 0 km/h
3030 20-10-2010 06:20:05 5.5 C 6.6 g/m*3 5.5 C 0 km/h
3031 20-10-2010 06:32:05 5.5 C 6.6 g/m*3 5.5 C 0 km/h
3032 20-10-2010 06:44:05 5.5 C 6.6 g/m*3 5.5 C 0 km/h
3033 20-10-2010 06:56:05 5.6 C 6.65 g/m*3 5.6 C 0 km/h
3034 20-10-2010 07:08:05 5.5 C 6.67 g/m*3 5.5 C 0 km/h
3035 20-10-2010 07:20:05 5.5 C 6.67 g/m*3 5.5 C 0 km/h
3036 20-10-2010 07:32:05 5.5 C 6.67 g/m*3 5.5 C 0 km/h
3037 20-10-2010 07:44:05 5.5 C 6.6 g/m*3 5.5 C 0 km/h
3038 20-10-2010 07:56:06 5.5 C 6.6 g/m*3 5.5 C 0 km/h
3039 20-10-2010 08:08:03 5.5 C 6.6 g/m*3 5.5 C 0 km/h
3040 20-10-2010 08:20:04 5.5 C 6.6 g/m*3 5.5 C 0 km/h
3041 20-10-2010 08:32:03 5.6 C 6.65 g/m*3 5.6 C 0 km/h
3042 20-10-2010 08:44:03 5.6 C 6.65 g/m*3 5.6 C 0 km/h
3043 20-10-2010 08:56:02 5.8 C 6.81 g/m*3 5.8 C 0 km/h
3044 20-10-2010 09:08:02 5.8 C 6.81 g/m*3 5.8 C 0 km/h
3045 20-10-2010 09:20:02 5.8 C 6.73 g/m*3 5.8 C 0 km/h
3046 20-10-2010 09:32:02 5.9 C 6.78 g/m*3 5.9 C 0 km/h
3047 20-10-2010 09:44:02 6.1 C 6.87 g/m*3 6.1 C 0 km/h
3048 20-10-2010 09:56:02 6.4 C 7 g/m*3 6.4 C 0 km/h
3049 20-10-2010 10:08:01 6.8 C 7.11 g/m*3 6.8 C 0 km/h
3050 20-10-2010 10:20:02 6.8 C 7.04 g/m*3 6.8 C 0 km/h
Sensor: Nr:Datum:Temp:Abs-Feuchte:Windchill:Wind:
Aussen-T/F 3051 20-10-2010 10:32:02 7 C 6.97 g/m*3 7 C 0 km/h
3052 20-10-2010 10:44:02 7.1 C 6.94 g/m*3 7.1 C 0 km/h
3053 20-10-2010 10:56:01 6.9 C 6.7 g/m*3 6.9 C 0 km/h
3054 20-10-2010 11:08:02 6.9 C 6.54 g/m*3 6.9 C 0 km/h
3055 20-10-2010 11:20:01 6.9 C 6.54 g/m*3 6.9 C 0 km/h
3056 20-10-2010 11:32:02 6.9 C 6.54 g/m*3 6.9 C 0 km/h
3057 20-10-2010 11:44:02 6.8 C 6.35 g/m*3 6.8 C 0 km/h
3058 20-10-2010 11:56:02 6.7 C 6.23 g/m*3 6.7 C 0 km/h
3059 20-10-2010 12:08:02 6.7 C 6.23 g/m*3 6.7 C 0 km/h
3060 20-10-2010 12:20:01 7 C 6.43 g/m*3 7 C 0 km/h
3061 20-10-2010 12:32:02 6.9 C 6.47 g/m*3 6.9 C 0 km/h
3062 20-10-2010 12:44:02 6.9 C 6.39 g/m*3 6.9 C 0 km/h
3063 20-10-2010 12:56:02 7.1 C 6.4 g/m*3 7.1 C 0 km/h
3064 20-10-2010 13:08:02 7.4 C 6.44 g/m*3 7.4 C 0 km/h
3065 20-10-2010 13:20:01 7.6 C 6.36 g/m*3 7.6 C 0 km/h
3066 20-10-2010 13:32:02 7.9 C 6.32 g/m*3 7.9 C 0 km/h
3067 20-10-2010 13:44:02 8.4 C 6.02 g/m*3 8.4 C 0 km/h
3068 20-10-2010 13:56:02 8.3 C 5.82 g/m*3 8.3 C 0 km/h
3069 20-10-2010 14:08:02 8.4 C 5.77 g/m*3 8.4 C 0 km/h
3070 20-10-2010 14:20:02 9.2 C 5.98 g/m*3 9.2 C 0 km/h
3071 20-10-2010 14:32:02 9.5 C 5.73 g/m*3 9.5 C 0 km/h
3072 20-10-2010 14:44:02 10.2 C 5.71 g/m*3 10.2 C 0 km/h
3073 20-10-2010 14:56:02 10.1 C 5.11 g/m*3 10.1 C 0 km/h
3074 20-10-2010 15:08:02 7.8 C 5.22 g/m*3 7.8 C 0 km/h
3075 20-10-2010 15:20:02 7.2 C 5.65 g/m*3 7.2 C 0 km/h
Sensor: Nr:Datum:Temp:Abs-Feuchte:Windchill:Wind:
Aussen-T/F 3076 20-10-2010 15:32:02 7.6 C 5.72 g/m*3 7.6 C 0 km/h
3077 20-10-2010 15:44:02 7.8 C 5.63 g/m*3 7.8 C 0 km/h
3078 20-10-2010 15:56:02 8 C 5.54 g/m*3 8 C 0 km/h
3079 20-10-2010 16:08:01 8.2 C 5.28 g/m*3 8.2 C 0 km/h
3080 20-10-2010 16:20:02 7.6 C 5.16 g/m*3 7.6 C 0 km/h
3081 20-10-2010 16:32:02 7 C 4.88 g/m*3 7 C 0 km/h
3082 20-10-2010 16:44:02 6.9 C 4.93 g/m*3 6.9 C 0 km/h
3083 20-10-2010 16:56:02 7.1 C 5.07 g/m*3 7.1 C 0 km/h
3084 20-10-2010 17:08:01 7.3 C 4.9 g/m*3 7.3 C 0 km/h
3085 20-10-2010 17:20:01 7.3 C 4.66 g/m*3 7.3 C 0 km/h
3086 20-10-2010 17:32:02 6.9 C 4.93 g/m*3 6.9 C 0 km/h
3087 20-10-2010 17:44:02 6.9 C 5.08 g/m*3 6.9 C 0 km/h
3088 20-10-2010 17:56:02 6.7 C 5.01 g/m*3 6.7 C 0 km/h
3089 20-10-2010 18:08:02 6.4 C 4.99 g/m*3 6.4 C 0 km/h
3090 20-10-2010 18:20:02 6.2 C 5 g/m*3 6.2 C 0 km/h
3091 20-10-2010 18:32:02 6.3 C 5.11 g/m*3 6.3 C 0 km/h
3092 20-10-2010 18:44:02 6.3 C 5.03 g/m*3 6.3 C 0 km/h
3093 20-10-2010 18:56:02 6.4 C 5.07 g/m*3 6.4 C 0 km/h
3094 20-10-2010 19:08:02 5.5 C 4.99 g/m*3 5.5 C 0 km/h
3095 20-10-2010 19:20:02 4.7 C 5.13 g/m*3 4.7 C 0 km/h
3096 20-10-2010 19:32:02 4.5 C 5.32 g/m*3 4.5 C 0 km/h
3097 20-10-2010 19:44:02 4.2 C 5.35 g/m*3 4.2 C 0 km/h
3098 20-10-2010 19:56:01 4.3 C 5.38 g/m*3 4.3 C 0 km/h
3099 20-10-2010 20:08:01 4.5 C 5.39 g/m*3 4.5 C 0 km/h
3100 20-10-2010 20:20:02 4.5 C 5.32 g/m*3 4.5 C 0 km/h
Sensor: Nr:Datum:Temp:Abs-Feuchte:Windchill:Wind:
Aussen-T/F 3101 20-10-2010 20:32:01 4.5 C 5.26 g/m*3 4.5 C 0 km/h
3102 20-10-2010 20:44:01 4.7 C 5.2 g/m*3 4.7 C 0 km/h
3103 20-10-2010 20:56:01 4.5 C 5.06 g/m*3 4.5 C 0 km/h
3104 20-10-2010 21:08:01 4.5 C 5.13 g/m*3 4.5 C 0 km/h
3105 20-10-2010 21:20:02 4.5 C 5.13 g/m*3 4.5 C 0 km/h
3106 20-10-2010 21:32:01 4.5 C 5.13 g/m*3 4.5 C 0 km/h
3107 20-10-2010 21:44:01 4.5 C 5.13 g/m*3 4.5 C 0 km/h
3108 20-10-2010 21:56:03 4.3 C 5.06 g/m*3 4.3 C 0 km/h
3109 20-10-2010 22:08:02 4.2 C 5.09 g/m*3 4.2 C 0 km/h
3110 20-10-2010 22:20:02 4.4 C 5.09 g/m*3 4.4 C 0 km/h
3111 20-10-2010 22:32:02 4.6 C 5.16 g/m*3 4.6 C 0 km/h
3112 20-10-2010 22:44:02 4.6 C 5.03 g/m*3 4.6 C 0 km/h
3113 20-10-2010 22:57:04 4.6 C 4.96 g/m*3 4.6 C 0 km/h
3114 20-10-2010 23:09:04 4.5 C 5 g/m*3 4.5 C 0 km/h
3115 20-10-2010 23:21:04 4.2 C 5.03 g/m*3 4.2 C 0 km/h
3116 20-10-2010 23:33:04 4.3 C 5.06 g/m*3 4.3 C 0 km/h
3117 20-10-2010 23:45:04 4.2 C 5.03 g/m*3 4.2 C 0 km/h
3118 20-10-2010 23:57:04 4.4 C 5.16 g/m*3 4.4 C 0 km/h
3119 21-10-2010 00:09:04 4.5 C 5.13 g/m*3 4.5 C 0 km/h
3120 21-10-2010 00:21:04 4.5 C 5.06 g/m*3 4.5 C 0 km/h
3121 21-10-2010 00:33:04 4.6 C 5.1 g/m*3 4.6 C 0 km/h
3122 21-10-2010 00:45:04 4.7 C 5.13 g/m*3 4.7 C 0 km/h
3123 21-10-2010 00:57:04 4.7 C 5.13 g/m*3 4.7 C 0 km/h
3124 21-10-2010 01:09:04 4.6 C 5.1 g/m*3 4.6 C 0 km/h
3125 21-10-2010 01:21:04 4.5 C 5.06 g/m*3 4.5 C 0 km/h
Sensor: Nr:Datum:Temp:Abs-Feuchte:Windchill:Wind:
Aussen-T/F 3126 21-10-2010 01:33:04 4.3 C 4.99 g/m*3 4.3 C 0 km/h
3127 21-10-2010 01:45:04 4.5 C 5.06 g/m*3 4.5 C 0 km/h
3128 21-10-2010 01:57:04 4.3 C 4.99 g/m*3 4.3 C 0 km/h
3129 21-10-2010 02:09:04 4.1 C 4.93 g/m*3 4.1 C 0 km/h
3130 21-10-2010 02:21:04 3.8 C 4.96 g/m*3 3.8 C 0 km/h
3131 21-10-2010 02:33:05 3.7 C 4.99 g/m*3 3.7 C 0 km/h
3132 21-10-2010 02:45:05 3.6 C 5.01 g/m*3 3.6 C 0 km/h
3133 21-10-2010 02:57:05 3.5 C 4.98 g/m*3 3.5 C 0 km/h
3134 21-10-2010 03:09:05 3.5 C 4.98 g/m*3 3.5 C 0 km/h
3135 21-10-2010 03:21:05 3.4 C 5.01 g/m*3 3.4 C 0 km/h
3136 21-10-2010 03:33:05 3.4 C 5.01 g/m*3 3.4 C 0 km/h
3137 21-10-2010 03:45:05 3.3 C 4.97 g/m*3 3.3 C 0 km/h
3138 21-10-2010 03:57:05 3 C 4.93 g/m*3 3 C 0 km/h
3139 21-10-2010 04:09:05 3 C 4.93 g/m*3 3 C 0 km/h
3140 21-10-2010 04:21:05 3 C 4.99 g/m*3 3 C 0 km/h
3141 21-10-2010 04:33:05 2.5 C 4.83 g/m*3 2.5 C 0 km/h
3142 21-10-2010 04:45:05 2.3 C 4.82 g/m*3 2.3 C 0 km/h
3143 21-10-2010 04:57:05 2.4 C 4.91 g/m*3 2.4 C 0 km/h
3144 21-10-2010 05:09:05 2.4 C 4.97 g/m*3 2.4 C 0 km/h
3145 21-10-2010 05:21:05 2.1 C 4.87 g/m*3 2.1 C 0 km/h
3146 21-10-2010 05:33:05 1.8 C 4.77 g/m*3 1.8 C 0 km/h
3147 21-10-2010 05:45:05 1.6 C 4.7 g/m*3 1.6 C 0 km/h
3148 21-10-2010 05:57:05 1.7 C 4.79 g/m*3 1.7 C 0 km/h
3149 21-10-2010 06:09:05 1.5 C 4.73 g/m*3 1.5 C 0 km/h
3150 21-10-2010 06:21:05 1.6 C 4.81 g/m*3 1.6 C 0 km/h
Sensor: Nr:Datum:Temp:Abs-Feuchte:Windchill:Wind:
Aussen-T/F 3151 21-10-2010 06:33:06 1.8 C 4.93 g/m*3 1.8 C 0 km/h
3152 21-10-2010 06:45:06 1.8 C 4.99 g/m*3 1.8 C 0 km/h
3153 21-10-2010 06:57:06 1.8 C 5.04 g/m*3 1.8 C 0 km/h
3154 21-10-2010 07:09:06 1.7 C 5.01 g/m*3 1.7 C 0 km/h
3155 21-10-2010 07:21:06 1.8 C 5.04 g/m*3 1.8 C 0 km/h
3156 21-10-2010 07:33:06 1.6 C 4.97 g/m*3 1.6 C 0 km/h
3157 21-10-2010 07:45:06 1.6 C 4.97 g/m*3 1.6 C 0 km/h
3158 21-10-2010 07:57:06 1.6 C 4.97 g/m*3 1.6 C 0 km/h
3159 21-10-2010 08:09:06 1.7 C 5.01 g/m*3 1.7 C 0 km/h
3160 21-10-2010 08:21:03 1.8 C 5.04 g/m*3 1.8 C 0 km/h
3161 21-10-2010 08:33:04 1.9 C 5.08 g/m*3 1.9 C 0 km/h
3162 21-10-2010 08:45:02 2.5 C 5.29 g/m*3 2.5 C 0 km/h
3163 21-10-2010 08:57:03 2.6 C 5.27 g/m*3 2.6 C 0 km/h
3164 21-10-2010 09:09:02 2.6 C 5.27 g/m*3 2.6 C 0 km/h
3165 21-10-2010 09:21:02 2.8 C 5.28 g/m*3 2.8 C 0 km/h
3166 21-10-2010 09:33:02 3 C 5.23 g/m*3 3 C 0 km/h
3167 21-10-2010 09:45:01 3.2 C 5.24 g/m*3 3.2 C 0 km/h
3168 21-10-2010 09:57:01 3.4 C 5.19 g/m*3 3.4 C 0 km/h
3169 21-10-2010 10:09:02 3.7 C 5.17 g/m*3 3.7 C 0 km/h
3170 21-10-2010 10:21:01 3.9 C 5.05 g/m*3 3.9 C 0 km/h
3171 21-10-2010 10:33:02 4.1 C 4.99 g/m*3 4.1 C 0 km/h
3172 21-10-2010 10:45:02 4.3 C 4.99 g/m*3 4.3 C 0 km/h
3173 21-10-2010 10:57:02 4.8 C 5.1 g/m*3 4.8 C 0 km/h
3174 21-10-2010 11:09:02 5.1 C 4.99 g/m*3 5.1 C 0 km/h
3175 21-10-2010 11:21:01 5.4 C 5.09 g/m*3 5.4 C 0 km/h
Sensor: Nr:Datum:Temp:Abs-Feuchte:Windchill:Wind:
Aussen-T/F 3176 21-10-2010 11:33:02 5.7 C 4.98 g/m*3 5.7 C 0 km/h
3177 21-10-2010 11:45:02 5.9 C 4.98 g/m*3 5.9 C 0 km/h
3178 21-10-2010 11:57:02 6.1 C 4.89 g/m*3 6.1 C 0 km/h
3179 21-10-2010 12:09:02 6.4 C 4.84 g/m*3 6.4 C 0 km/h
3180 21-10-2010 12:21:01 6.7 C 4.71 g/m*3 6.7 C 0 km/h
3181 21-10-2010 12:33:02 7 C 4.57 g/m*3 7 C 0 km/h
3182 21-10-2010 12:45:02 7.2 C 4.47 g/m*3 7.2 C 0 km/h
3183 21-10-2010 12:57:02 7.6 C 4.51 g/m*3 7.6 C 0 km/h
3184 21-10-2010 13:09:02 7.9 C 4.44 g/m*3 7.9 C 0 km/h
3185 21-10-2010 13:21:02 8.3 C 4.3 g/m*3 8.3 C 0 km/h
3186 21-10-2010 13:33:02 8.7 C 4.06 g/m*3 8.7 C 0 km/h
3187 21-10-2010 13:45:02 9.1 C 3.99 g/m*3 9.1 C 0 km/h
3188 21-10-2010 13:57:02 9.5 C 3.82 g/m*3 9.5 C 0 km/h
3189 21-10-2010 14:09:02 9.9 C 3.92 g/m*3 9.9 C 0 km/h
3190 21-10-2010 14:21:02 10.1 C 3.78 g/m*3 10.1 C 0 km/h
3191 21-10-2010 14:33:01 10.5 C 3.88 g/m*3 10.5 C 0 km/h
3192 21-10-2010 14:45:02 10.6 C 3.9 g/m*3 10.6 C 0 km/h
3193 21-10-2010 14:57:02 10.8 C 3.85 g/m*3 10.8 C 0 km/h
3194 21-10-2010 15:09:01 10.7 C 3.63 g/m*3 10.7 C 0 km/h
3195 21-10-2010 15:21:02 10.6 C 3.61 g/m*3 10.6 C 0 km/h
3196 21-10-2010 15:33:01 10.6 C 3.51 g/m*3 10.6 C 0 km/h
3197 21-10-2010 15:45:02 10.7 C 3.73 g/m*3 10.7 C 0 km/h
3198 21-10-2010 15:57:03 10.7 C 3.63 g/m*3 10.7 C 0 km/h
3199 21-10-2010 16:09:02 10.9 C 3.78 g/m*3 10.9 C 0 km/h
3200 21-10-2010 16:21:02 10.6 C 3.61 g/m*3 10.6 C 0 km/h
Sensor: Nr:Datum:Temp:Abs-Feuchte:Windchill:Wind:
Aussen-T/F 3201 21-10-2010 16:33:02 10.2 C 3.52 g/m*3 10.2 C 0 km/h
3202 21-10-2010 16:45:02 9.9 C 3.64 g/m*3 9.9 C 0 km/h
3203 21-10-2010 16:57:02 10.4 C 3.66 g/m*3 10.4 C 0 km/h
3204 21-10-2010 17:09:02 11.2 C 3.65 g/m*3 11.2 C 0 km/h
3205 21-10-2010 17:21:01 11.4 C 3.59 g/m*3 11.4 C 0 km/h
3206 21-10-2010 17:33:02 11.3 C 3.47 g/m*3 11.3 C 0 km/h
3207 21-10-2010 17:45:02 10.9 C 3.58 g/m*3 10.9 C 0 km/h
3208 21-10-2010 17:57:02 10 C 3.48 g/m*3 10 C 0 km/h
3209 21-10-2010 18:09:02 8.9 C 3.94 g/m*3 8.9 C 0 km/h
3210 21-10-2010 18:21:01 7.8 C 3.92 g/m*3 7.8 C 0 km/h
3211 21-10-2010 18:33:02 7.2 C 3.92 g/m*3 7.2 C 0 km/h
3212 21-10-2010 18:45:02 6.7 C 4.03 g/m*3 6.7 C 0 km/h
3213 21-10-2010 18:57:02 6.3 C 4.07 g/m*3 6.3 C 0 km/h
3214 21-10-2010 19:09:02 6.1 C 4.02 g/m*3 6.1 C 0 km/h
3215 21-10-2010 19:21:01 5.8 C 4.01 g/m*3 5.8 C 0 km/h
3216 21-10-2010 19:33:02 5.6 C 4.03 g/m*3 5.6 C 0 km/h
3217 21-10-2010 19:45:02 5.5 C 4.07 g/m*3 5.5 C 0 km/h
3218 21-10-2010 19:57:02 5.2 C 4.13 g/m*3 5.2 C 0 km/h
3219 21-10-2010 20:09:02 5 C 4.08 g/m*3 5 C 0 km/h
3220 21-10-2010 20:21:02 4.8 C 4.09 g/m*3 4.8 C 0 km/h
3221 21-10-2010 20:33:02 4.7 C 4.06 g/m*3 4.7 C 0 km/h
3222 21-10-2010 20:45:02 4.7 C 3.86 g/m*3 4.7 C 0 km/h
3223 21-10-2010 20:57:02 5.1 C 3.69 g/m*3 5.1 C 0 km/h
3224 21-10-2010 21:09:02 5 C 3.6 g/m*3 5 C 0 km/h
3225 21-10-2010 21:21:02 4.9 C 3.71 g/m*3 4.9 C 0 km/h
Sensor: Nr:Datum:Temp:Abs-Feuchte:Windchill:Wind:
Aussen-T/F 3226 21-10-2010 21:33:02 4.6 C 3.77 g/m*3 4.6 C 0 km/h
3227 21-10-2010 21:45:02 4.5 C 3.75 g/m*3 4.5 C 0 km/h
3228 21-10-2010 21:57:02 4.1 C 3.84 g/m*3 4.1 C 0 km/h
3229 21-10-2010 22:09:02 4 C 3.81 g/m*3 4 C 0 km/h
3230 21-10-2010 22:22:04 4.1 C 3.78 g/m*3 4.1 C 0 km/h
3231 21-10-2010 22:34:04 3.8 C 3.83 g/m*3 3.8 C 0 km/h
3232 21-10-2010 22:46:04 3.7 C 3.86 g/m*3 3.7 C 0 km/h
3233 21-10-2010 22:58:04 3.6 C 3.9 g/m*3 3.6 C 0 km/h
3234 21-10-2010 23:10:04 3.5 C 3.87 g/m*3 3.5 C 0 km/h
3235 21-10-2010 23:22:04 3.5 C 3.87 g/m*3 3.5 C 0 km/h
3236 21-10-2010 23:34:04 3.3 C 3.88 g/m*3 3.3 C 0 km/h
3237 21-10-2010 23:46:04 2.9 C 3.9 g/m*3 2.9 C 0 km/h
3238 21-10-2010 23:58:04 2.5 C 3.91 g/m*3 2.5 C 0 km/h